logo
Games released in 2015
# Game Release date
Price
Score rank
(Userscore / Metascore)
Owners
Playtime (Median)
Developer(s)
Publisher(s)
1 Grand Theft Auto V Apr 14, 2015 $29.98N/A (N/A/96%)50,000,000 .. 100,000,00000:00 (00:00)Rockstar NorthRockstar Games
2 Divinity: Original Sin - Enhanced Edition Oct 27, 2015 $39.99N/A (N/A/94%)1,000,000 .. 2,000,00000:00 (00:00)Larian StudiosLarian Studios
3 The Witcher 3: Wild Hunt May 18, 2015 $39.99N/A (N/A/93%)10,000,000 .. 20,000,00000:00 (00:00)CD PROJEKT REDCD PROJEKT RED
4 Undertale Sep 15, 2015 $9.99N/A (N/A/92%)5,000,000 .. 10,000,00000:00 (00:00)tobyfoxtobyfox
5 METAL GEAR SOLID V: THE PHANTOM PAIN Sep 1, 2015 $19.99N/A (N/A/91%)2,000,000 .. 5,000,00000:00 (00:00)KONAMIKONAMI
6 Nuclear Throne Dec 5, 2015 $11.99N/A (N/A/89%)500,000 .. 1,000,00000:00 (00:00)VlambeerVlambeer
7 Pillars of Eternity Mar 26, 2015 $7.49N/A (N/A/89%)1,000,000 .. 2,000,00000:00 (00:00)Obsidian EntertainmentXbox Game Studios
8 Ori and the Blind Forest Mar 11, 2015 N/AN/A (N/A/88%)2,000,000 .. 5,000,00000:00 (00:00)Moon Studios GmbHXbox Game Studios
9 Kerbal Space Program Apr 27, 2015 $39.99N/A (N/A/88%)2,000,000 .. 5,000,00000:00 (00:00)SquadPrivate Division
10 Crypt of the NecroDancer Apr 23, 2015 $2.99N/A (N/A/87%)2,000,000 .. 5,000,00000:00 (00:00)Brace Yourself GamesBrace Yourself Games, Klei Entertainment
11 Dying Light Jan 26, 2015 $8.99N/A (N/A/87%)10,000,000 .. 20,000,00000:00 (00:00)TechlandTechland
12 Ground Control Anthology Jul 8, 2015 $4.99N/A (N/A/86%)0 .. 20,00000:00 (00:00)Massive EntertainmentRebellion
13 Mushihimesama Nov 12, 2015 $19.99N/A (N/A/86%)50,000 .. 100,00000:00 (00:00)CAVE Interactive CO.,LTD.KOMODO
14 Oddworld: New 'n' Tasty Feb 25, 2015 $19.99N/A (N/A/86%)200,000 .. 500,00000:00 (00:00)Just Add Water (Developments), Ltd.Oddworld Inhabitants, Inc.
15 Total Annihilation Dec 18, 2015 $4.99N/A (N/A/86%)200,000 .. 500,00000:00 (00:00)Cavedog EntertainmentWargaming.net
16 Her Story Jun 24, 2015 $9.99N/A (N/A/86%)1,000,000 .. 2,000,00000:00 (00:00)Sam BarlowSam Barlow
17 Homeworld Remastered Collection Feb 25, 2015 $34.99N/A (N/A/86%)1,000,000 .. 2,000,00000:00 (00:00)Gearbox Software, Aspyr (Mac)Gearbox Publishing, Aspyr (Mac)
18 DiRT Rally Dec 7, 2015 N/AN/A (N/A/86%)2,000,000 .. 5,000,00000:00 (00:00)Codemasters, Feral Interactive (Linux), Feral Interactive (Mac)Codemasters, Feral Interactive (Linux), Feral Interactive (Mac), Electronic Arts
19 Rocket League Jul 7, 2015 N/AN/A (N/A/86%)10,000,000 .. 20,000,00000:00 (00:00)Psyonix LLCPsyonix LLC
20 Zenzizenzic Jul 23, 2015 $9.99N/A (N/A/85%)20,000 .. 50,00000:00 (00:00)bitHuffelAdult Swim Games
21 Roche Fusion Jan 23, 2015 $5.99N/A (N/A/85%)0 .. 20,00000:00 (00:00)amulwareamulware
22 Mighty Switch Force! Hyper Drive Edition Jun 25, 2015 $9.99N/A (N/A/85%)20,000 .. 50,00000:00 (00:00)WayForwardWayForward
23 Chaos Reborn Oct 26, 2015 $9.99N/A (N/A/85%)100,000 .. 200,00000:00 (00:00)Snapshot Games Inc.Snapshot Games Inc.
24 System Shock: Enhanced Edition Oct 22, 2015 $9.99N/A (N/A/85%)200,000 .. 500,00000:00 (00:00)Looking Glass Studios, Nightdive StudiosNightdive Studios
25 Mega Man Legacy Collection Aug 24, 2015 $14.99N/A (N/A/85%)200,000 .. 500,00000:00 (00:00)CapcomCapcom
26 Cities: Skylines Mar 10, 2015 $29.99N/A (N/A/85%)5,000,000 .. 10,000,00000:00 (00:00)Colossal Order Ltd.Paradox Interactive
27 Bulb Boy Oct 29, 2015 $8.99N/A (N/A/84%)100,000 .. 200,00000:00 (00:00)BulbwareBulbware
28 80 Days Sep 28, 2015 $12.99N/A (N/A/84%)100,000 .. 200,00000:00 (00:00)inkle Ltd, Cape Guy Ltdinkle Ltd
29 GUILTY GEAR Xrd -SIGN- Dec 9, 2015 $29.99N/A (N/A/84%)200,000 .. 500,00000:00 (00:00)Arc System WorksArc System Works
30 Grim Fandango Remastered Jan 26, 2015 $14.99N/A (N/A/84%)500,000 .. 1,000,00000:00 (00:00)Double Fine Productions, Shiny ShoeDouble Fine Productions
31 SOMA Sep 21, 2015 $29.99N/A (N/A/84%)2,000,000 .. 5,000,00000:00 (00:00)Frictional GamesFrictional Games
32 Mortal Kombat X Apr 13, 2015 $19.99N/A (N/A/84%)2,000,000 .. 5,000,00000:00 (00:00)NetherRealm Studios, QLOCWarner Bros. Games, Warner Bros. Interactive Entertainment
33 Fallout 4 Nov 9, 2015 $19.99N/A (N/A/84%)10,000,000 .. 20,000,00000:00 (00:00)Bethesda Game StudiosBethesda Softworks
34 Independence War 2: Edge of Chaos May 7, 2015 $5.99N/A (N/A/83%)0 .. 20,00000:00 (00:00)Particle Systems Ltd.Atari
35 Beyond Sol Jun 30, 2015 N/AN/A (N/A/83%)0 .. 20,00000:00 (00:00)Praxia Entertainment IncPraxia Entertainment Inc
36 Divide By Sheep Jul 2, 2015 $4.99N/A (N/A/83%)2,000,000 .. 5,000,00000:00 (00:00)Victor Solodilov, Denis NovikovtinyBuild
37 Project CARS May 6, 2015 N/AN/A (N/A/83%)1,000,000 .. 2,000,00000:00 (00:00)Slightly Mad StudiosCodemasters, Slightly Mad Studios, Electronic Arts
38 HELLDIVERS Dive Harder Edition Dec 7, 2015 $19.99N/A (N/A/83%)2,000,000 .. 5,000,00000:00 (00:00)Arrowhead Game StudiosPlayStation Publishing LLC
39 Broforce Oct 15, 2015 $14.99N/A (N/A/83%)2,000,000 .. 5,000,00000:00 (00:00)Free LivesDevolver Digital
40 Prison Architect Oct 6, 2015 $29.99N/A (N/A/83%)5,000,000 .. 10,000,00000:00 (00:00)Double Eleven, Introversion SoftwareParadox Interactive
41 SMITE Sep 8, 2015 FreeN/A (N/A/83%)10,000,000 .. 20,000,00000:00 (00:00)Titan Forge GamesHi-Rez Studios
42 The Next Penelope May 29, 2015 $12.99N/A (N/A/82%)20,000 .. 50,00000:00 (00:00)Aurelien RegardPlug In Digital
43 Ninja Pizza Girl Sep 30, 2015 $6.99N/A (N/A/82%)50,000 .. 100,00000:00 (00:00)Disparity GamesDisparity Games
44 OlliOlli2: Welcome to Olliwood Aug 11, 2015 $14.99N/A (N/A/82%)50,000 .. 100,00000:00 (00:00)Roll7Devolver Digital
45 BLACKHOLE Feb 27, 2015 $8.99N/A (N/A/82%)200,000 .. 500,00000:00 (00:00)FiolaSoft StudioFulqrum Publishing
46 Kero Blaster Nov 11, 2015 $9.99N/A (N/A/82%)200,000 .. 500,00000:00 (00:00)Studio PixelPLAYISM
47 Technobabylon May 2015 $14.99N/A (N/A/82%)100,000 .. 200,00000:00 (00:00)Technocrat GamesWadjet Eye Games
48 Invisible, Inc. May 12, 2015 $4.99N/A (N/A/82%)1,000,000 .. 2,000,00000:00 (00:00)Klei EntertainmentKlei Entertainment
49 Resident Evil Jan 19, 2015 $19.99N/A (N/A/82%)1,000,000 .. 2,000,00000:00 (00:00)CAPCOM Co., Ltd.CAPCOM Co., Ltd.
50 Hacknet Aug 12, 2015 $1.49N/A (N/A/82%)1,000,000 .. 2,000,00000:00 (00:00)Team Fractal AlligatorFellow Traveller
51 Duck Game Jun 4, 2015 $12.99N/A (N/A/82%)1,000,000 .. 2,000,00000:00 (00:00)Landon PodbielskiAdult Swim Games
52 Vietnam ‘65 Mar 5, 2015 $9.99N/A (N/A/81%)20,000 .. 50,00000:00 (00:00)Every Single SoldierEvery Single Soldier
53 Kalimba Apr 22, 2015 $2.49N/A (N/A/81%)50,000 .. 100,00000:00 (00:00)Press PlayXbox Game Studios
54 Order of Battle: World War II Apr 30, 2015 FreeN/A (N/A/81%)200,000 .. 500,00000:00 (00:00)The ArtistocratsSlitherine Ltd.
55 The Age of Decadence Oct 14, 2015 $14.99N/A (N/A/81%)200,000 .. 500,00000:00 (00:00)Iron Tower StudioIron Tower Studio
56 Shadowrun: Hong Kong - Extended Edition Aug 20, 2015 $19.99N/A (N/A/81%)500,000 .. 1,000,00000:00 (00:00)Harebrained SchemesParadox Interactive
57 SUNLESS SEA Feb 6, 2015 $18.99N/A (N/A/81%)500,000 .. 1,000,00000:00 (00:00)Failbetter GamesFailbetter Games
58 Downwell Oct 15, 2015 $2.99N/A (N/A/81%)200,000 .. 500,00000:00 (00:00)MoppinDevolver Digital
59 Galactic Civilizations III May 14, 2015 $39.99N/A (N/A/81%)200,000 .. 500,00000:00 (00:00)Stardock EntertainmentStardock Entertainment
60 The Corporate Machine Mar 25, 2015 $9.99N/A (N/A/80%)50,000 .. 100,00000:00 (00:00)Stardock EntertainmentStardock Entertainment
61 Bowl Bound College Football Sep 3, 2015 $19.99N/A (N/A/80%)20,000 .. 50,00000:00 (00:00)Grey Dog SoftwareViva Meda
62 Ground Control II: Operation Exodus Jul 8, 2015 $4.99N/A (N/A/80%)20,000 .. 50,00000:00 (00:00)Massive EntertainmentRebellion
63 Circa Infinity Sep 8, 2015 $11.99N/A (N/A/80%)20,000 .. 50,00000:00 (00:00)Kenny SunKenny Sun
64 Company of Heroes 2 - The British Forces Sep 2, 2015 $12.99N/A (N/A/80%)100,000 .. 200,00000:00 (00:00)Relic Entertainment, Feral Interactive (Mac), Feral Interactive (Linux)SEGA, Feral Interactive (Mac), Feral Interactive (Linux)
65 Penarium Sep 22, 2015 $1.99N/A (N/A/80%)50,000 .. 100,00000:00 (00:00)Self Made MiracleTeam17 Digital Ltd
66 Volume Aug 18, 2015 $19.99N/A (N/A/80%)200,000 .. 500,00000:00 (00:00)Bithell GamesBithell Games
67 DARIUSBURST Chronicle Saviours Dec 3, 2015 $49.99N/A (N/A/80%)100,000 .. 200,00000:00 (00:00)PyramidKOMODO, KADOKAWA CORPORATION, TAITO CORP.
68 The Book of Unwritten Tales 2 Feb 19, 2015 $29.99N/A (N/A/80%)50,000 .. 100,00000:00 (00:00)KING ArtTHQ Nordic
69 Odallus: The Dark Call Jul 15, 2015 $9.99N/A (N/A/80%)50,000 .. 100,00000:00 (00:00)JoyMasherJoyMasher
70 2064: Read Only Memories Oct 6, 2015 $9.99N/A (N/A/80%)20,000 .. 50,00000:00 (00:00)MidBoss, LLC.Chorus Worldwide Games
71 Dropsy Sep 10, 2015 $9.99N/A (N/A/80%)50,000 .. 100,00000:00 (00:00)Tendershoot, A Jolly CorpseDevolver Digital
72 The Legend of Heroes: Trails in the Sky SC Oct 29, 2015 $29.99N/A (N/A/80%)200,000 .. 500,00000:00 (00:00)Nihon FalcomXSEED Games, Marvelous USA, Inc.
73 Rampage Knights Sep 4, 2015 $12.99N/A (N/A/80%)200,000 .. 500,00000:00 (00:00)Rake in GrassRake in Grass
74 Guns, Gore & Cannoli Apr 30, 2015 $9.99N/A (N/A/80%)200,000 .. 500,00000:00 (00:00)Rogueside, ClaeysbrothersRogueside
75 Lovers in a Dangerous Spacetime Sep 9, 2015 $14.99N/A (N/A/80%)200,000 .. 500,00000:00 (00:00)Asteroid BaseAsteroid Base
76 ArcheAge Mar 26, 2015 FreeN/A (N/A/80%)1,000,000 .. 2,000,00000:00 (00:00)XLGAMESKakao Games Europe B.V.
77 Card Hunter Jul 13, 2015 FreeN/A (N/A/80%)500,000 .. 1,000,00000:00 (00:00)The Knights of UnityThe Knights of Unity
78 Axiom Verge May 14, 2015 $19.99N/A (N/A/80%)200,000 .. 500,00000:00 (00:00)Thomas Happ Games LLCThomas Happ Games LLC
79 Total War: ATTILA Feb 17, 2015 $44.99N/A (N/A/80%)2,000,000 .. 5,000,00000:00 (00:00)CREATIVE ASSEMBLYSEGA
80 Elite Dangerous Apr 2, 2015 $19.99N/A (N/A/80%)2,000,000 .. 5,000,00000:00 (00:00)Frontier DevelopmentsFrontier Developments
81 Frozen Cortex Feb 19, 2015 $24.99N/A (N/A/79%)20,000 .. 50,00000:00 (00:00)Mode 7Mode 7
82 Else Heart.Break() Sep 24, 2015 $24.99N/A (N/A/79%)200,000 .. 500,00000:00 (00:00)Erik Svedäng, El Huervo / Niklas Åkerblad, Tobias Sjögren, Oscar "Ratvader" Rydelius, Johannes GotlénErik Svedäng AB
83 The Magic Circle Jul 9, 2015 $19.99N/A (N/A/79%)100,000 .. 200,00000:00 (00:00)QuestionQuestion
84 STASIS Aug 31, 2015 $7.99N/A (N/A/79%)200,000 .. 500,00000:00 (00:00)THE BROTHERHOODTHE BROTHERHOOD
85 Assault Android Cactus+ Sep 23, 2015 $19.99N/A (N/A/79%)200,000 .. 500,00000:00 (00:00)Witch BeamWitch Beam
86 BADLAND: Game of the Year Edition May 26, 2015 $9.99N/A (N/A/79%)200,000 .. 500,00000:00 (00:00)FrogmindFrogmind
87 The Incredible Adventures of Van Helsing: Final Cut Nov 6, 2015 $44.99N/A (N/A/79%)500,000 .. 1,000,00000:00 (00:00)NeocoreGamesNeocoreGames
88 iRacing Jan 12, 2015 $9.99N/A (N/A/79%)200,000 .. 500,00000:00 (00:00)iRacing.com Motorsport Simulations, iRacingiRacing.com Motorsport Simulations, iRacing
89 Jotun: Valhalla Edition Sep 29, 2015 $14.99N/A (N/A/79%)2,000,000 .. 5,000,00000:00 (00:00)Thunder Lotus GamesThunder Lotus Games
90 Warhammer: End Times - Vermintide Oct 23, 2015 $29.99N/A (N/A/79%)1,000,000 .. 2,000,00000:00 (00:00)FatsharkFatshark
91 DARK SOULS II: Scholar of the First Sin Apr 1, 2015 $39.99N/A (N/A/79%)2,000,000 .. 5,000,00000:00 (00:00)FromSoftware, IncBandai Namco Entertainment, FromSoftware, Inc
92 AR-K: The Great Escape Jul 14, 2015 $7.99N/A (N/A/78%)20,000 .. 50,00000:00 (00:00)GATO STUDIOGATO STUDIO
93 Avernum 2: Crystal Souls Jan 14, 2015 $19.99N/A (N/A/78%)50,000 .. 100,00000:00 (00:00)Spiderweb SoftwareSpiderweb Software
94 GALAK-Z Oct 29, 2015 $19.99N/A (N/A/78%)200,000 .. 500,00000:00 (00:00)17-BIT17-BIT
95 Mushroom 11 Oct 15, 2015 $14.99N/A (N/A/78%)100,000 .. 200,00000:00 (00:00)UntameUntame
96 Apotheon Feb 3, 2015 $14.99N/A (N/A/78%)200,000 .. 500,00000:00 (00:00)AlientrapAlientrap
97 Human Resource Machine Oct 15, 2015 $14.99N/A (N/A/78%)500,000 .. 1,000,00000:00 (00:00)Tomorrow CorporationTomorrow Corporation
98 Hand of Fate Feb 17, 2015 $19.99N/A (N/A/78%)500,000 .. 1,000,00000:00 (00:00)Defiant DevelopmentDefiant Development
99 RUNNING WITH RIFLES Apr 2, 2015 $14.99N/A (N/A/78%)1,000,000 .. 2,000,00000:00 (00:00)Osumia GamesOsumia Games
100 Three Fourths Home: Extended Edition Mar 20, 2015 $4.99N/A (N/A/77%)50,000 .. 100,00000:00 (00:00)[bracket]gamesDigerati
101 Pix the Cat Jan 29, 2015 $4.99N/A (N/A/77%)50,000 .. 100,00000:00 (00:00)PastagamesFocus Entertainment
102 Interloper May 21, 2015 FreeN/A (N/A/77%)20,000 .. 50,00000:00 (00:00)Monogon GamesMonogon Games
103 Lords of the Realm II Dec 3, 2015 $2.99N/A (N/A/77%)50,000 .. 100,00000:00 (00:00)Impressions GamesRebellion
104 Deathtrap Feb 4, 2015 $19.99N/A (N/A/77%)200,000 .. 500,00000:00 (00:00)NeocoreGamesNeocoreGames
105 Aviary Attorney Dec 21, 2015 $14.99N/A (N/A/77%)20,000 .. 50,00000:00 (00:00)Sketchy LogicSketchy Logic
106 Grey Goo Jan 23, 2015 $29.99N/A (N/A/77%)200,000 .. 500,00000:00 (00:00)Petroglyph, Six FootSix Foot, Grey Box
107 Tales of Zestiria Oct 19, 2015 $4.99N/A (N/A/77%)500,000 .. 1,000,00000:00 (00:00)BANDAI NAMCO Studio Inc.BANDAI NAMCO Entertainment
108 Mini Metro Nov 6, 2015 $9.99N/A (N/A/77%)500,000 .. 1,000,00000:00 (00:00)Dinosaur Polo ClubDinosaur Polo Club
109 Evolve Stage 2 Feb 10, 2015 N/AN/A (N/A/77%)5,000,000 .. 10,000,00000:00 (00:00)Turtle Rock Studios2K
110 Gunpowder Jul 8, 2015 $1.99N/A (N/A/76%)0 .. 20,00000:00 (00:00)Rogue Rocket GamesRogue Rocket Games
111 Galacide Jul 28, 2015 $9.99N/A (N/A/76%)20,000 .. 50,00000:00 (00:00)Puny HumanPuny Human
112 Luckslinger Jul 16, 2015 $9.99N/A (N/A/76%)20,000 .. 50,00000:00 (00:00)DuckbridgeDuckbridge
113 JumpJet Rex Apr 21, 2015 $9.99N/A (N/A/76%)50,000 .. 100,00000:00 (00:00)TreeFortress GamesTreeFortress Games
114 Concrete Jungle Sep 23, 2015 $6.99N/A (N/A/76%)100,000 .. 200,00000:00 (00:00)ColePowered GamesColePowered Games
115 Castle In The Darkness Feb 5, 2015 $9.99N/A (N/A/76%)50,000 .. 100,00000:00 (00:00)Matt Kap, Nicalis, Inc.Nicalis, Inc.
116 Overture Feb 2, 2015 $4.99N/A (N/A/76%)200,000 .. 500,00000:00 (00:00)Black Shell GamesPlug In Digital
117 Ys VI: The Ark of Napishtim Apr 28, 2015 $19.99N/A (N/A/76%)100,000 .. 200,00000:00 (00:00)Nihon FalcomXSEED Games, Marvelous USA, Inc.
118 Pathologic Classic HD Oct 29, 2015 $12.99N/A (N/A/76%)100,000 .. 200,00000:00 (00:00)Ice-Pick Lodge, General ArcadeGood Shepherd Entertainment
119 STAR WARS Battlefront Nov 16, 2015 $19.99N/A (N/A/76%)1,000,000 .. 2,000,00000:00 (00:00)DICEElectronic Arts
120 Audiosurf 2 May 26, 2015 $14.99N/A (N/A/76%)200,000 .. 500,00000:00 (00:00)Dylan FittererDylan Fitterer
121 Blood Bowl 2 Sep 22, 2015 $19.99N/A (N/A/76%)1,000,000 .. 2,000,00000:00 (00:00)Cyanide StudiosNacon
122 DISTRAINT: Deluxe Edition Oct 21, 2015 $4.99N/A (N/A/76%)2,000,000 .. 5,000,00000:00 (00:00)Jesse MakkonenJesse Makkonen
123 Wolfenstein: The Old Blood May 4, 2015 $19.99N/A (N/A/76%)500,000 .. 1,000,00000:00 (00:00)MachineGamesBethesda Softworks
124 Extreme Exorcism Sep 23, 2015 $5.99N/A (N/A/75%)0 .. 20,00000:00 (00:00)Golden Ruby GamesRipstone
125 Ravenmark: Scourge of Estellion Sep 10, 2015 $14.99N/A (N/A/75%)0 .. 20,00000:00 (00:00)Witching Hour StudiosSlitherine Ltd.
126 Serpent in the Staglands May 28, 2015 $13.99N/A (N/A/75%)50,000 .. 100,00000:00 (00:00)Whalenought StudiosWhalenought Studios
127 Gravity Ghost Jan 26, 2015 $14.99N/A (N/A/75%)20,000 .. 50,00000:00 (00:00)Ivy GamesIvy Games
128 Ironcast Mar 26, 2015 $14.99N/A (N/A/75%)100,000 .. 200,00000:00 (00:00)DreadbitRipstone
129 Rebuild 3: Gangs of Deadsville May 29, 2015 $9.99N/A (N/A/75%)200,000 .. 500,00000:00 (00:00)Northway Games, Sarah NorthwayNorthway Games
130 Satellite Reign Aug 27, 2015 $29.99N/A (N/A/75%)1,000,000 .. 2,000,00000:00 (00:00)5 Lives Studios5 Lives Studios
131 Chroma Squad Apr 30, 2015 $14.99N/A (N/A/75%)200,000 .. 500,00000:00 (00:00)Behold StudiosBehold Studios
132 Grow Home Feb 4, 2015 $7.99N/A (N/A/75%)200,000 .. 500,00000:00 (00:00)Reflections, a Ubisoft StudioUbisoft
133 Victor Vran ARPG Jul 24, 2015 $19.99N/A (N/A/75%)500,000 .. 1,000,00000:00 (00:00)Haemimont GamesHaemimont Games, EuroVideo Medien
134 Armello Sep 1, 2015 $24.99N/A (N/A/75%)1,000,000 .. 2,000,00000:00 (00:00)League of GeeksLeague of Geeks
135 A Pixel Story Mar 30, 2015 $11.99N/A (N/A/74%)0 .. 20,00000:00 (00:00)Lamplight Studios
136 Ceres Oct 16, 2015 $19.99N/A (N/A/74%)20,000 .. 50,00000:00 (00:00)Jötunn GamesIceberg Interactive
137 Niko: Through The Dream Jul 17, 2015 $9.99N/A (N/A/74%)20,000 .. 50,00000:00 (00:00)Studio PaintStudio Paint
138 Crookz - The Big Heist Aug 25, 2015 $9.99N/A (N/A/74%)50,000 .. 100,00000:00 (00:00)Skilltree StudiosKalypso Media Digital
139 Zombie Vikings Dec 7, 2015 $11.99N/A (N/A/74%)50,000 .. 100,00000:00 (00:00)Zoink GamesZoink Games
140 Warhammer 40,000: Deathwatch - Enhanced Edition Oct 16, 2015 N/AN/A (N/A/74%)100,000 .. 200,00000:00 (00:00)Rodeo GamesRodeo Games
141 Action Henk May 11, 2015 $14.99N/A (N/A/74%)100,000 .. 200,00000:00 (00:00)RageSquidRageSquid
142 Blackguards 2 Jan 20, 2015 $9.99N/A (N/A/74%)20,000 .. 50,00000:00 (00:00)Daedalic EntertainmentDaedalic Entertainment
143 Oceanhorn: Monster of Uncharted Seas Mar 17, 2015 $14.99N/A (N/A/74%)500,000 .. 1,000,00000:00 (00:00)Cornfox & Brothers Ltd.Cornfox & Brothers Ltd.
144 The Red Solstice Jul 9, 2015 $0.99N/A (N/A/74%)500,000 .. 1,000,00000:00 (00:00)IronwardIronward
145 Anna's Quest Jul 2, 2015 $1.99N/A (N/A/74%)200,000 .. 500,00000:00 (00:00)Daedalic EntertainmentDaedalic Entertainment
146 Mordheim: City of the Damned Nov 19, 2015 $19.99N/A (N/A/74%)500,000 .. 1,000,00000:00 (00:00)Rogue FactorNacon
147 12 is Better Than 6 Nov 20, 2015 $9.99N/A (N/A/74%)500,000 .. 1,000,00000:00 (00:00)Ink Stains GamesHypeTrain Digital
148 Titan Souls Apr 14, 2015 $14.99N/A (N/A/74%)500,000 .. 1,000,00000:00 (00:00)Acid NerveDevolver Digital
149 Assassin’s Creed Rogue Mar 9, 2015 $5.99N/A (N/A/74%)1,000,000 .. 2,000,00000:00 (00:00)Ubisoft Sofia, Ubisoft KievUbisoft
150 Kingdom: Classic Oct 21, 2015 FreeN/A (N/A/74%)2,000,000 .. 5,000,00000:00 (00:00)Noio, LicoriceRaw Fury
151 Assassin's Creed Syndicate Nov 18, 2015 $7.49N/A (N/A/74%)1,000,000 .. 2,000,00000:00 (00:00)Ubisoft Quebec, in collaboration with Ubisoft Annecy, Bucharest, Kiev, Montreal, Montpellier, Shanghai, Singapore, Sofia, Toronto studiosUbisoft
152 Just Cause 3 Nov 30, 2015 $19.99N/A (N/A/74%)2,000,000 .. 5,000,00000:00 (00:00)Avalanche StudiosSquare Enix
153 Lemma May 12, 2015 $14.99N/A (N/A/73%)20,000 .. 50,00000:00 (00:00)Helvetica ScenarioHelvetica Scenario
154 0RBITALIS May 28, 2015 $9.99N/A (N/A/73%)50,000 .. 100,00000:00 (00:00)Alan ZucconiMastertronic
155 Blues and Bullets Jul 22, 2015 $4.99N/A (N/A/73%)100,000 .. 200,00000:00 (00:00)A Crowd of MonstersA Crowd of Monsters
156 MASSIVE CHALICE Jun 1, 2015 $19.99N/A (N/A/73%)50,000 .. 100,00000:00 (00:00)Double Fine ProductionsDouble Fine Productions
157 Disney•Pixar Cars Feb 24, 2015 $19.99N/A (N/A/73%)100,000 .. 200,00000:00 (00:00)BeenoxTHQ, Disney
158 Thea: The Awakening Nov 20, 2015 $19.99N/A (N/A/73%)200,000 .. 500,00000:00 (00:00)MuHa GamesMuHa Games
159 Hard West Nov 18, 2015 $19.99N/A (N/A/73%)200,000 .. 500,00000:00 (00:00)CreativeForge GamesGood Shepherd Entertainment
160 Mad Max Sep 1, 2015 $19.99N/A (N/A/73%)2,000,000 .. 5,000,00000:00 (00:00)Avalanche StudiosWarner Bros. Games, Warner Bros. Interactive Entertainment
161 Call of Duty: Black Ops III Nov 5, 2015 $59.99N/A (N/A/73%)5,000,000 .. 10,000,00000:00 (00:00)Treyarch, Aspyr (Mac)Activision, Aspyr (Mac)
162 LOST ORBIT May 12, 2015 $11.99N/A (N/A/72%)0 .. 20,00000:00 (00:00)PixelNAUTSPixelNAUTS
163 Homesick May 28, 2015 $14.99N/A (N/A/72%)100,000 .. 200,00000:00 (00:00)Lucky PauseLucky Pause
164 Convoy Apr 21, 2015 $14.99N/A (N/A/72%)100,000 .. 200,00000:00 (00:00)Convoy GamesIndietopia Games
165 Warhammer 40,000: Regicide Sep 8, 2015 N/AN/A (N/A/72%)200,000 .. 500,00000:00 (00:00)Hammerfall PublishingHammerfall Publishing
166 Way of the Samurai 4 Jul 23, 2015 $24.99N/A (N/A/72%)200,000 .. 500,00000:00 (00:00)ACQUIRE Corp.Spike Chunsoft Co., Ltd.
167 Big Pharma Aug 27, 2015 $24.99N/A (N/A/72%)200,000 .. 500,00000:00 (00:00)Twice CircledPositech Games
168 Guild of Dungeoneering Ultimate Edition Jul 14, 2015 $19.99N/A (N/A/72%)200,000 .. 500,00000:00 (00:00)GambrinousGambrinous
169 Tormentum - Dark Sorrow Mar 4, 2015 $11.99N/A (N/A/72%)20,000 .. 50,00000:00 (00:00)OhNoo StudioOhNoo Studio
170 Anno 2205 Nov 2, 2015 $5.99N/A (N/A/72%)1,000,000 .. 2,000,00000:00 (00:00)Blue ByteUbisoft
171 UnderRail Dec 18, 2015 $14.99N/A (N/A/72%)200,000 .. 500,00000:00 (00:00)Stygian SoftwareStygian Software
172 LEGO Jurassic World Jun 11, 2015 $19.99N/A (N/A/72%)500,000 .. 1,000,00000:00 (00:00)TT Games LtdWarner Bros. Interactive Entertainment
173 Hyperdimension Neptunia Re;Birth1 Jan 29, 2015 $14.99N/A (N/A/72%)500,000 .. 1,000,00000:00 (00:00)IDEA FACTORY Co., Ltd., COMPILE HEART Co., Ltd., FELISTELLA Co., Ltd.Idea Factory International, Inc., IDEA FACTORY Co., Ltd.
174 Block N Load Apr 30, 2015 FreeN/A (N/A/72%)2,000,000 .. 5,000,00000:00 (00:00)Toadman Interactive, ArtplantToadman Interactive
175 Zombie Army Trilogy Mar 6, 2015 $44.99N/A (N/A/72%)1,000,000 .. 2,000,00000:00 (00:00)RebellionRebellion
176 Dyscourse Mar 25, 2015 $14.99N/A (N/A/71%)50,000 .. 100,00000:00 (00:00)Owlchemy LabsOwlchemy Labs
177 MX vs. ATV Unleashed Apr 16, 2015 $9.99N/A (N/A/71%)20,000 .. 50,00000:00 (00:00)Rainbow StudiosTHQ Nordic
178 Sublevel Zero Redux Oct 8, 2015 $14.99N/A (N/A/71%)20,000 .. 50,00000:00 (00:00)SigtrapSigtrap
179 Cibele Nov 2, 2015 $8.99N/A (N/A/71%)50,000 .. 100,00000:00 (00:00)Star Maid GamesN/A
180 You Must Build A Boat Jun 4, 2015 $4.99N/A (N/A/71%)200,000 .. 500,00000:00 (00:00)EightyEightGamesEightyEightGames
181 Legends of Eisenwald Jul 2, 2015 $19.99N/A (N/A/71%)100,000 .. 200,00000:00 (00:00)Aterdux EntertainmentAterdux Entertainment
182 Act of Aggression - Reboot Edition Sep 2, 2015 $29.99N/A (N/A/71%)100,000 .. 200,00000:00 (00:00)Eugen SystemsEugen Systems
183 Battlefield Hardline Mar 16, 2015 $39.99N/A (N/A/71%)200,000 .. 500,00000:00 (00:00)DICEElectronic Arts
184 Keep Talking and Nobody Explodes Oct 8, 2015 $14.99N/A (N/A/71%)1,000,000 .. 2,000,00000:00 (00:00)Steel Crate GamesSteel Crate Games
185 The Escapists Feb 13, 2015 $3.59N/A (N/A/71%)1,000,000 .. 2,000,00000:00 (00:00)Mouldy Toof StudiosTeam17
186 Harold Feb 12, 2015 $9.99N/A (N/A/70%)0 .. 20,00000:00 (00:00)Moon Spider StudioMoon Spider Studio
187 Bunker - The Underground Game May 21, 2015 $3.99N/A (N/A/70%)0 .. 20,00000:00 (00:00)Nightly Studios2tainment GmbH
188 The Moment of Silence Mar 27, 2015 $14.99N/A (N/A/70%)20,000 .. 50,00000:00 (00:00)House of TalesHandyGames
189 Shiftlings Mar 3, 2015 N/AN/A (N/A/70%)20,000 .. 50,00000:00 (00:00)Rock Pocket GamesSierra
190 A Druid's Duel Feb 25, 2015 $7.99N/A (N/A/70%)0 .. 20,00000:00 (00:00)Thoughtshelter GamesSurprise Attack
191 Steel Armor: Blaze of War Mar 5, 2015 $29.99N/A (N/A/70%)20,000 .. 50,00000:00 (00:00)GraviteamGraviteam
192 Shadow Blade: Reload Aug 10, 2015 $9.99N/A (N/A/70%)20,000 .. 50,00000:00 (00:00)Dead MageDead Mage
193 The Swindle Jul 28, 2015 $14.99N/A (N/A/70%)50,000 .. 100,00000:00 (00:00)Size Five GamesSize Five Games
194 NOBUNAGA'S AMBITION: Sphere of Influence Sep 1, 2015 $59.99N/A (N/A/70%)20,000 .. 50,00000:00 (00:00)KOEI TECMO GAMES CO., LTD.KOEI TECMO GAMES CO., LTD.
195 StarDrive 2 Apr 9, 2015 $29.99N/A (N/A/70%)50,000 .. 100,00000:00 (00:00)Zero Sum GamesIceberg Interactive
196 Dead Synchronicity: Tomorrow Comes Today Apr 10, 2015 $9.99N/A (N/A/70%)100,000 .. 200,00000:00 (00:00)Fictiorama StudiosDaedalic Entertainment
197 RONIN Jun 30, 2015 $12.99N/A (N/A/70%)100,000 .. 200,00000:00 (00:00)Tomasz WacławekDevolver Digital
198 Lakeview Cabin Collection Apr 9, 2015 $9.99N/A (N/A/70%)200,000 .. 500,00000:00 (00:00)Roope TamminenRoope Tamminen
199 Dungeons 2 Apr 24, 2015 $19.99N/A (N/A/70%)1,000,000 .. 2,000,00000:00 (00:00)Realmforge StudiosKalypso Media Digital
200 Fran Bow Aug 27, 2015 $14.99N/A (N/A/70%)500,000 .. 1,000,00000:00 (00:00)Killmonday Games ABKillmonday Games AB
201 Verdun Apr 28, 2015 $19.99N/A (N/A/70%)1,000,000 .. 2,000,00000:00 (00:00)BlackMill GamesBlackMill Games
202 Train Valley Sep 16, 2015 $9.99N/A (N/A/69%)0 .. 20,00000:00 (00:00)Alexey Davydov, Sergey Dvoynikov, Timofey ShargorodskiyFlazm, META Publishing
203 Mayan Death Robots Nov 20, 2015 $6.99N/A (N/A/69%)0 .. 20,00000:00 (00:00)Sileni Studios
204 Oblitus Feb 27, 2015 $14.99N/A (N/A/69%)20,000 .. 50,00000:00 (00:00)Connor UllmannAdult Swim Games
205 Star Hammer: The Vanguard Prophecy Jun 4, 2015 $19.99N/A (N/A/69%)0 .. 20,00000:00 (00:00)Black Lab GamesSlitherine Ltd.
206 Freaking Meatbags Feb 4, 2015 $9.99N/A (N/A/69%)20,000 .. 50,00000:00 (00:00)Wild FactorPlug In Digital
207 Lumini Sep 3, 2015 $12.99N/A (N/A/69%)0 .. 20,00000:00 (00:00)Speelbaars2Awesome Studio
208 The Coma: Cutting Class Oct 19, 2015 N/AN/A (N/A/69%)0 .. 20,00000:00 (00:00)Devespresso GamesDevespresso Games
209 Clandestine Nov 5, 2015 $9.99N/A (N/A/69%)50,000 .. 100,00000:00 (00:00)Logic ArtistsLogic Artists
210 Albert and Otto Oct 28, 2015 $4.99N/A (N/A/69%)200,000 .. 500,00000:00 (00:00)K Bros GamesK Bros Games
211 Bloodsports.TV Mar 30, 2015 $9.99N/A (N/A/69%)100,000 .. 200,00000:00 (00:00)Toadman Interactive, FatsharkFatshark
212 Valhalla Hills Dec 2, 2015 $6.99N/A (N/A/69%)200,000 .. 500,00000:00 (00:00)Funatics SoftwareDaedalic Entertainment
213 Holy Potatoes! A Weapon Shop?! Jul 13, 2015 $9.99N/A (N/A/69%)100,000 .. 200,00000:00 (00:00)Daylight StudiosDaedalic Entertainment, Daylight Studios
214 FINAL FANTASY TYPE-0 HD Aug 18, 2015 $29.99N/A (N/A/69%)200,000 .. 500,00000:00 (00:00)Square EnixSquare Enix
215 DEAD OR ALIVE 5 Last Round: Core Fighters Mar 30, 2015 FreeN/A (N/A/69%)200,000 .. 500,00000:00 (00:00)Team NINJA, KOEI TECMO GAMES CO., LTD.KOEI TECMO GAMES CO., LTD.
216 SimplePlanes Dec 17, 2015 $12.99N/A (N/A/69%)500,000 .. 1,000,00000:00 (00:00)Jundroo, LLCJundroo, LLC
217 Tony Tough and the Night of Roasted Moths May 7, 2015 $9.99N/A (N/A/68%)0 .. 20,00000:00 (00:00)Nayma SoftwareNightdive Studios
218 Paperbound Mar 31, 2015 $9.99N/A (N/A/68%)0 .. 20,00000:00 (00:00)Dissident LogicDissident Logic
219 Parallax Mar 10, 2015 $4.99N/A (N/A/68%)0 .. 20,00000:00 (00:00)Toasty GamesToasty Games
220 Nova-111 Aug 25, 2015 $4.99N/A (N/A/68%)20,000 .. 50,00000:00 (00:00)Funktronic LabsFunktronic Labs
221 Pixel Galaxy Oct 2, 2015 $2.99N/A (N/A/68%)20,000 .. 50,00000:00 (00:00)Serenity ForgeSerenity Forge
222 Warlocks vs Shadows Aug 19, 2015 $13.99N/A (N/A/68%)50,000 .. 100,00000:00 (00:00)Frozen DistrictONE MORE LEVEL
223 White Night Mar 3, 2015 $14.99N/A (N/A/68%)20,000 .. 50,00000:00 (00:00)OSome StudioPlug In Digital
224 Master Spy Sep 8, 2015 $9.99N/A (N/A/68%)20,000 .. 50,00000:00 (00:00)TURBOGUNTURBOGUN
225 The Masterplan Jun 4, 2015 $19.99N/A (N/A/68%)50,000 .. 100,00000:00 (00:00)Shark PunchShark Punch
226 Masochisia Oct 9, 2015 $7.99N/A (N/A/68%)20,000 .. 50,00000:00 (00:00)OldbloodOldblood
227 In Between Aug 21, 2015 $1.19N/A (N/A/68%)50,000 .. 100,00000:00 (00:00)GentlymadAssemble Entertainment
228 Inside My Radio May 11, 2015 $14.99N/A (N/A/68%)50,000 .. 100,00000:00 (00:00)Seaven StudioIceberg Interactive
229 The Charnel House Trilogy Apr 16, 2015 $5.99N/A (N/A/68%)50,000 .. 100,00000:00 (00:00)Owl CaveOwl Cave
230 FIM Speedway Grand Prix 15 Nov 30, 2015 N/AN/A (N/A/68%)100,000 .. 200,00000:00 (00:00)SoftPlanetSoftPlanet
231 PixelJunk Nom Nom Galaxy Aug 3, 2015 $9.99N/A (N/A/68%)100,000 .. 200,00000:00 (00:00)Q-Games Ltd.Q-Games Ltd.
232 INK Aug 5, 2015 $4.99N/A (N/A/68%)200,000 .. 500,00000:00 (00:00)ZackBellGamesZackBellGames
233 RIDE Mar 27, 2015 $14.99N/A (N/A/68%)100,000 .. 200,00000:00 (00:00)Milestone S.r.l.Milestone S.r.l.
234 Five Nights at Freddy's 3 Mar 2, 2015 $7.99N/A (N/A/68%)500,000 .. 1,000,00000:00 (00:00)Scott CawthonScott Cawthon
235 Car Mechanic Simulator 2015 Apr 23, 2015 $19.99N/A (N/A/68%)500,000 .. 1,000,00000:00 (00:00)Red Dot GamesPlayWay S.A.
236 ARMED SEVEN Mar 6, 2015 $2.49N/A (N/A/67%)20,000 .. 50,00000:00 (00:00)ASTRO PORTHenteko Doujin
237 Uncanny Valley Apr 23, 2015 $9.99N/A (N/A/67%)50,000 .. 100,00000:00 (00:00)Tiny MoldTiny Mold
238 Last Word May 8, 2015 $9.99N/A (N/A/67%)20,000 .. 50,00000:00 (00:00)Twelve TilesKOMODO
239 Skyshine's BEDLAM Sep 16, 2015 N/AN/A (N/A/67%)100,000 .. 200,00000:00 (00:00)Skyshine GamesVersus Evil
240 Ghost Pirates of Vooju Island Jan 27, 2015 $9.99N/A (N/A/66%)20,000 .. 50,00000:00 (00:00)Autumn MoonViva Media
241 Oscura: Lost Light Feb 24, 2015 $6.99N/A (N/A/66%)20,000 .. 50,00000:00 (00:00)Chocolate Liberation FrontSurprise Attack
242 Swords and Sorcery - Underworld - Definitive Edition Dec 15, 2015 $9.99N/A (N/A/66%)50,000 .. 100,00000:00 (00:00)OlderBytesOlderBytes
243 ROOMS: The Toymaker's Mansion May 1, 2015 $7.99N/A (N/A/66%)0 .. 20,00000:00 (00:00)HandMade GameHandMade Game
244 FIVE: Guardians of David Nov 24, 2015 $9.99N/A (N/A/66%)50,000 .. 100,00000:00 (00:00)Kingdom GamesKingdom Games
245 Hot Tin Roof: The Cat That Wore A Fedora Feb 20, 2015 $14.99N/A (N/A/66%)100,000 .. 200,00000:00 (00:00)Glass Bottom GamesGlass Bottom Games
246 Albedo: Eyes from Outer Space Apr 10, 2015 $14.99N/A (N/A/66%)50,000 .. 100,00000:00 (00:00)Z4G0 and Ivan Venturi ProductionsMerge Publishing
247 Sunset May 21, 2015 $19.99N/A (N/A/66%)0 .. 20,00000:00 (00:00)Tale of TalesTale of Tales
248 Rogue State Oct 16, 2015 $4.99N/A (N/A/66%)20,000 .. 50,00000:00 (00:00)LRDGames, Inc.LRDGames, Inc.
249 Citizens of Earth Jan 20, 2015 N/AN/A (N/A/66%)100,000 .. 200,00000:00 (00:00)Eden IndustriesKonsordo
250 Planet of the Eyes Aug 24, 2015 $9.99N/A (N/A/66%)100,000 .. 200,00000:00 (00:00)CococucumberCococucumber
251 The Escapists: The Walking Dead Sep 30, 2015 $1.79N/A (N/A/66%)50,000 .. 100,00000:00 (00:00)Team17 Digital LtdTeam17 Digital Ltd
252 Fairy Fencer F Aug 4, 2015 $9.99N/A (N/A/66%)200,000 .. 500,00000:00 (00:00)Idea Factory, Compile HeartIdea Factory International
253 Saints Row: Gat out of Hell Jan 20, 2015 $3.74N/A (N/A/66%)500,000 .. 1,000,00000:00 (00:00)Deep Silver Volition, High Voltage SoftwareDeep Silver
254 Slow Down, Bull Apr 20, 2015 $1.99N/A (N/A/65%)0 .. 20,00000:00 (00:00)Insomniac GamesInsomniac Games
255 Lords of the Realm III Dec 3, 2015 $4.99N/A (N/A/65%)0 .. 20,00000:00 (00:00)Impressions GamesRebellion
256 Heroes of Normandie Oct 1, 2015 $29.99N/A (N/A/65%)20,000 .. 50,00000:00 (00:00)Cat RabbitSlitherine Ltd.
257 Stairs Sep 28, 2015 $12.99N/A (N/A/65%)20,000 .. 50,00000:00 (00:00)GreyLight EntertainmentDigital Tribe
258 War, the Game Jan 12, 2015 $6.99N/A (N/A/65%)20,000 .. 50,00000:00 (00:00)GabberGames.comGabberGames.com
259 FEIST Jul 23, 2015 $9.99N/A (N/A/65%)20,000 .. 50,00000:00 (00:00)Bits & BeastsFinji
260 Journey To The Center Of The Earth Sep 23, 2015 N/AN/A (N/A/65%)500,000 .. 1,000,00000:00 (00:00)InSaynInSayn
261 WRC 5 FIA World Rally Championship Oct 8, 2015 $9.99N/A (N/A/65%)50,000 .. 100,00000:00 (00:00)KT RacingNacon
262 Lethis - Path of Progress Jun 25, 2015 $19.99N/A (N/A/65%)100,000 .. 200,00000:00 (00:00)Triskell InteractiveTriskell Interactive
263 Cradle Jul 24, 2015 $12.99N/A (N/A/65%)100,000 .. 200,00000:00 (00:00)Flying Cafe for SemianimalsFlying Cafe for Semianimals
264 ZOMBI Aug 18, 2015 $4.99N/A (N/A/65%)200,000 .. 500,00000:00 (00:00)Straight RightUbisoft
265 Heroes of Might & Magic III - HD Edition Jan 29, 2015 $3.74N/A (N/A/65%)1,000,000 .. 2,000,00000:00 (00:00)DotemuUbisoft Entertainment
266 Legions of Steel Jul 16, 2015 $19.99N/A (N/A/64%)0 .. 20,00000:00 (00:00)Studio NyxSlitherine Ltd.
267 Legend of Kay Anniversary Jul 27, 2015 $19.99N/A (N/A/64%)20,000 .. 50,00000:00 (00:00)KAIKO, Neon StudiosTHQ Nordic
268 Fire: Ungh’s Quest Apr 9, 2015 $0.99N/A (N/A/64%)100,000 .. 200,00000:00 (00:00)Daedalic EntertainmentDaedalic Entertainment
269 Oh...Sir! Prototype Dec 21, 2015 N/AN/A (N/A/64%)100,000 .. 200,00000:00 (00:00)Vile MonarchGood Shepherd Entertainment
270 The Incredible Adventures of Van Helsing III May 22, 2015 $14.99N/A (N/A/64%)200,000 .. 500,00000:00 (00:00)NeocoreGamesNeocoreGames
271 Sid Meier's Starships Mar 12, 2015 $14.99N/A (N/A/64%)100,000 .. 200,00000:00 (00:00)Firaxis Games2K
272 Phantom Breaker: Battle Grounds Jan 23, 2015 N/AN/A (N/A/64%)200,000 .. 500,00000:00 (00:00)MAGES. Inc.Rocket Panda Games
273 Kholat Jun 9, 2015 $19.99N/A (N/A/64%)2,000,000 .. 5,000,00000:00 (00:00)IMGN.PROIMGN.PRO
274 Party Hard Aug 25, 2015 $9.99N/A (N/A/64%)500,000 .. 1,000,00000:00 (00:00)Pinokl Games, KvertatinyBuild
275 15 Days Apr 1, 2015 $9.99N/A (N/A/63%)20,000 .. 50,00000:00 (00:00)House of TalesHandyGames
276 Conflicks - Revolutionary Space Battles Nov 5, 2015 $6.99N/A (N/A/63%)0 .. 20,00000:00 (00:00)Artifice StudioArtifice Studio
277 Pneuma: Breath of Life Feb 27, 2015 $19.99N/A (N/A/63%)0 .. 20,00000:00 (00:00)BULKHEADDeco Digital, Bevel Studios
278 MISSING: An Interactive Thriller - Episode One May 25, 2015 N/AN/A (N/A/63%)50,000 .. 100,00000:00 (00:00)Zandel MediaZandel Media
279 Vertiginous Golf May 6, 2015 $1.49N/A (N/A/63%)200,000 .. 500,00000:00 (00:00)Kinelco & Lone Elk CreativeFellow Traveller
280 Grand Ages: Medieval Sep 25, 2015 $19.99N/A (N/A/63%)100,000 .. 200,00000:00 (00:00)Gaming Minds StudiosKalypso Media Digital
281 SKYHILL Oct 6, 2015 $9.99N/A (N/A/63%)200,000 .. 500,00000:00 (00:00)MandragoraDaedalic Entertainment
282 Life is Feudal: Your Own Nov 17, 2015 $19.99N/A (N/A/63%)200,000 .. 500,00000:00 (00:00)Bitbox Ltd.Bitbox Ltd.
283 Dirty Bomb Jun 2015 FreeN/A (N/A/63%)5,000,000 .. 10,000,00000:00 (00:00)Splash DamageWarchest Ltd.
284 PONCHO Nov 3, 2015 $5.99N/A (N/A/62%)20,000 .. 50,00000:00 (00:00)Delve InteractiveRising Star Games
285 Euclidean Sep 25, 2015 $4.99N/A (N/A/62%)20,000 .. 50,00000:00 (00:00)Alpha Wave EntertainmentAAD Productions
286 NEON STRUCT May 20, 2015 $17.99N/A (N/A/62%)50,000 .. 100,00000:00 (00:00)Minor Key GamesMinor Key Games
287 Etherium Mar 25, 2015 $9.99N/A (N/A/62%)100,000 .. 200,00000:00 (00:00)Tindalos InteractiveFocus Entertainment
288 Dex May 7, 2015 $19.99N/A (N/A/62%)200,000 .. 500,00000:00 (00:00)Dreadlocks Ltd.Dreadlocks Ltd., Techland, WhisperGames
289 Sym May 7, 2015 $7.99N/A (N/A/61%)0 .. 20,00000:00 (00:00)Atrax GamesMastertronic
290 Disorder Jan 12, 2015 $3.99N/A (N/A/61%)20,000 .. 50,00000:00 (00:00)Swagabyte GamesRooster Teeth Games
291 Traverser Jul 9, 2015 $14.99N/A (N/A/61%)20,000 .. 50,00000:00 (00:00)Gatling Goat StudiosAdult Swim Games
292 Perils of Man Apr 28, 2015 $9.99N/A (N/A/61%)50,000 .. 100,00000:00 (00:00)IF Games, Vertigo GamesVertigo Games
293 Magnetic: Cage Closed May 26, 2015 $4.99N/A (N/A/61%)50,000 .. 100,00000:00 (00:00)Guru GamesGood Shepherd Entertainment
294 Windward May 12, 2015 $9.99N/A (N/A/61%)200,000 .. 500,00000:00 (00:00)Tasharen Entertainment Inc.Tasharen Entertainment Inc.
295 F1 2015 Jul 9, 2015 N/AN/A (N/A/61%)2,000,000 .. 5,000,00000:00 (00:00)Codemasters, Feral Interactive (Linux)Codemasters, Feral Interactive (Linux)
296 Sylvio Jun 5, 2015 $12.99N/A (N/A/60%)0 .. 20,00000:00 (00:00)StroboskopStroboskop
297 A Fistful of Gun Sep 23, 2015 $9.99N/A (N/A/60%)100,000 .. 200,00000:00 (00:00)FarmerGnomeDevolver Digital
298 Beyond Eyes Aug 11, 2015 N/AN/A (N/A/60%)100,000 .. 200,00000:00 (00:00)Tiger and Squid, Team17 Digital LtdTeam17 Digital Ltd
299 Decay: The Mare Feb 13, 2015 $4.99N/A (N/A/60%)200,000 .. 500,00000:00 (00:00)Shining Gate SoftwareDaedalic Entertainment
300 I Am Bread Apr 9, 2015 $12.99N/A (N/A/60%)500,000 .. 1,000,00000:00 (00:00)Bossa StudiostinyBuild
301 Subject 13 May 28, 2015 $9.99N/A (N/A/59%)100,000 .. 200,00000:00 (00:00)Paul CuissetMicroids
302 Cross of the Dutchman Sep 10, 2015 $6.99N/A (N/A/59%)20,000 .. 50,00000:00 (00:00)Triangle StudiosTriangle Studios
303 The Deer God Feb 27, 2015 $14.99N/A (N/A/59%)20,000 .. 50,00000:00 (00:00)Crescent Moon Games, Cinopt StudiosCrescent Moon Games
304 VoidExpanse Apr 2, 2015 $14.99N/A (N/A/59%)50,000 .. 100,00000:00 (00:00)AtomicTorch StudioAtomicTorch Studio
305 Dream Jul 31, 2015 $8.99N/A (N/A/59%)50,000 .. 100,00000:00 (00:00)HyperSlothHyperSloth
306 Blue Estate The Game Apr 8, 2015 $12.99N/A (N/A/59%)100,000 .. 200,00000:00 (00:00)HE SAWHE SAW
307 DiscStorm Aug 20, 2015 $11.99N/A (N/A/58%)0 .. 20,00000:00 (00:00)XMPT GamesXMPT Games
308 The Weaponographist Apr 29, 2015 $5.99N/A (N/A/58%)20,000 .. 50,00000:00 (00:00)PuubaPuuba
309 Kyn Jul 28, 2015 $14.99N/A (N/A/58%)100,000 .. 200,00000:00 (00:00)Tangrin EntertainmentVersus Evil
310 Lost Horizon 2 Oct 1, 2015 $14.99N/A (N/A/58%)50,000 .. 100,00000:00 (00:00)Animation Arts GmbHRavenscourt
311 Bard's Gold Aug 14, 2015 $7.99N/A (N/A/58%)0 .. 20,00000:00 (00:00)Pixel LanternPixel Lantern
312 There Came an Echo Feb 24, 2015 $14.99N/A (N/A/58%)20,000 .. 50,00000:00 (00:00)Iridium StudiosIridium Studios
313 Shelter 2 Mar 9, 2015 $24.99N/A (N/A/58%)200,000 .. 500,00000:00 (00:00)Might and DelightMight and Delight
314 Pulse Oct 20, 2015 $7.99N/A (N/A/57%)0 .. 20,00000:00 (00:00)Pixel Pi GamesPixel Pi Games
315 Vector Thrust Jul 2, 2015 $24.99N/A (N/A/57%)200,000 .. 500,00000:00 (00:00)TimeSymmetryIceberg Interactive
316 Toren May 11, 2015 $9.99N/A (N/A/57%)100,000 .. 200,00000:00 (00:00)SwordtalesVersus Evil
317 Armikrog Sep 30, 2015 $9.99N/A (N/A/57%)100,000 .. 200,00000:00 (00:00)Pencil Test StudiosVersus Evil
318 Tengami Jan 15, 2015 $6.99N/A (N/A/57%)100,000 .. 200,00000:00 (00:00)NyamyamNyamyam
319 Supreme League of Patriots Jan 29, 2015 $5.99N/A (N/A/56%)20,000 .. 50,00000:00 (00:00)No Bull IntentionsPhoenix Online Publishing
320 Fair Strike Apr 23, 2015 $0.99N/A (N/A/56%)20,000 .. 50,00000:00 (00:00)G5 SoftwareESDigital Games
321 Mushroom Men: Truffle Trouble Mar 10, 2015 $2.99N/A (N/A/55%)0 .. 20,00000:00 (00:00)Red Fly StudioRed Fly Studio
322 Red Game Without A Great Name Dec 9, 2015 N/AN/A (N/A/55%)20,000 .. 50,00000:00 (00:00)iFun4all S.A.iFun4all S.A.
323 Gryphon Knight Epic Aug 20, 2015 $9.99N/A (N/A/55%)20,000 .. 50,00000:00 (00:00)Cyber Rhino StudiosCyber Rhino Studios
324 Calvino Noir Aug 27, 2015 $4.99N/A (N/A/55%)50,000 .. 100,00000:00 (00:00)Calvino NoirCalvino Noir
325 Hektor Mar 13, 2015 $9.99N/A (N/A/55%)100,000 .. 200,00000:00 (00:00)RubyconeRubycone
326 Warhammer Quest Jan 7, 2015 N/AN/A (N/A/55%)100,000 .. 200,00000:00 (00:00)Rodeo Games, TwistplayChilled Mouse
327 Woolfe - The Red Hood Diaries Mar 17, 2015 $9.99N/A (N/A/55%)200,000 .. 500,00000:00 (00:00)GRINRebellion
328 Son of Nor Apr 27, 2015 $19.99N/A (N/A/54%)20,000 .. 50,00000:00 (00:00)stillalive studiosViva Media
329 Hatoful Boyfriend: Holiday Star Dec 5, 2015 $9.99N/A (N/A/54%)20,000 .. 50,00000:00 (00:00)MediatonicEpic Games
330 Bedlam Oct 13, 2015 N/AN/A (N/A/54%)200,000 .. 500,00000:00 (00:00)RedBedlamKISS ltd
331 Red Goddess: Inner World Aug 31, 2015 $9.99N/A (N/A/53%)0 .. 20,00000:00 (00:00)Yanim StudioYanim Studio
332 Worlds of Magic Mar 19, 2015 $0.99N/A (N/A/52%)20,000 .. 50,00000:00 (00:00)Wastelands Interactive Conglomerate 5
333 Five Nights at Freddy's 4 Jul 23, 2015 $7.99N/A (N/A/51%)500,000 .. 1,000,00000:00 (00:00)Scott CawthonScott Cawthon
334 Animal Gods Oct 12, 2015 $9.99N/A (N/A/50%)0 .. 20,00000:00 (00:00)Still GamesStill Games
335 Anomaly 1729 Dec 30, 2015 $9.99N/A (N/A/49%)0 .. 20,00000:00 (00:00)Anvil Drop, LLCBlack Shell Media
336 TRISTOY Jan 15, 2015 $0.97N/A (N/A/49%)20,000 .. 50,00000:00 (00:00)Uniworlds Game StudiosUniworlds Game Studios
337 Corpse of Discovery Aug 25, 2015 $1.99N/A (N/A/49%)0 .. 20,00000:00 (00:00)Phosphor GamesPhosphor Games
338 theHunter: Primal Mar 31, 2015 N/AN/A (N/A/49%)100,000 .. 200,00000:00 (00:00)Expansive Worlds, Avalanche StudiosExpansive Worlds, Avalanche Studios
339 Epanalepsis May 21, 2015 $3.99N/A (N/A/48%)0 .. 20,00000:00 (00:00)Cameron Kunzelman2tainment GmbH
340 Lucius II Feb 13, 2015 $19.99N/A (N/A/48%)200,000 .. 500,00000:00 (00:00)Shiver GamesShiver Games
341 COAST GUARD Oct 21, 2015 $9.99N/A (N/A/47%)20,000 .. 50,00000:00 (00:00)Reality Twist GmbHastragon Sales & Services GmbH
342 Karmaflow: The Rock Opera Videogame - Act I & Act II May 6, 2015 $4.99N/A (N/A/47%)0 .. 20,00000:00 (00:00)Basecamp GamesBasecamp Games
343 Solarix Apr 30, 2015 $19.99N/A (N/A/47%)100,000 .. 200,00000:00 (00:00)Playstige InteractivePlaystige Interactive
344 Cities XXL Feb 5, 2015 $9.99N/A (N/A/47%)200,000 .. 500,00000:00 (00:00)Focus EntertainmentFocus Entertainment
345 Submerged Aug 3, 2015 $19.99N/A (N/A/47%)200,000 .. 500,00000:00 (00:00)Uppercut Games Pty LtdUppercut Games Pty Ltd
346 Viridi Aug 19, 2015 FreeN/A (N/A/46%)500,000 .. 1,000,00000:00 (00:00)Zoe Vartanian, Badru, Isa Hutchinson, Michael BellIce Water Games
347 LA Cops Mar 13, 2015 $1.24N/A (N/A/45%)50,000 .. 100,00000:00 (00:00)Modern DreamTeam17 Digital Ltd
348 I Can't Escape: Darkness Sep 17, 2015 $11.99N/A (N/A/43%)0 .. 20,00000:00 (00:00)Fancy Fish GamesFancy Fish Games
349 ENKI Jul 31, 2015 $4.99N/A (N/A/43%)0 .. 20,00000:00 (00:00)Storm in a TeacupStorm in a Teacup
350 Hatred Jun 1, 2015 $5.99N/A (N/A/43%)500,000 .. 1,000,00000:00 (00:00)Destructive CreationsDestructive Creations
351 The Flock Aug 21, 2015 $16.99N/A (N/A/36%)20,000 .. 50,00000:00 (00:00)VogelsapVogelsap
352 Zombeer Jan 30, 2015 $4.99N/A (N/A/32%)50,000 .. 100,00000:00 (00:00)Moonbite Games, PadaOne GamesNew Gravity Laws
353 Professor Teaches QuickBooks 2015 Jul 27, 2015 N/AN/A (N/A)0 .. 20,00000:00 (00:00)Individual SoftwareIndividual Software
354 Cliffs of War: Fortress Defenders Nov 3, 2015 N/AN/A (N/A)0 .. 20,00000:00 (00:00)
355 The Final Stand Jul 16, 2015 N/AN/A (N/A)0 .. 20,00000:00 (00:00)Hella Games EntertainmentSteam
356 Dragon Rider Nov 2, 2015 N/AN/A (N/A)0 .. 20,00000:00 (00:00)S.F. Bay Studios, Inc.S.F. Bay Studios, Inc.
357 MasterCook 15 May 29, 2015 N/AN/A (N/A)0 .. 20,00000:00 (00:00)CosmiIndividual Software
358 Forever Lost: Episode 3 Jul 9, 2015 N/AN/A (N/A)20,000 .. 50,00000:00 (00:00)Glitch Games LtdGlitch Games Ltd
359 Pluck Jul 31, 2015 N/AN/A (N/A)0 .. 20,00000:00 (00:00)Benjamin LapidBenjamin Lapid
360 Blessed Ones: The Magic Wolves Dec 4, 2015 N/AN/A (N/A)0 .. 20,00000:00 (00:00)Wolf Ray StudiosWolf Ray Studios
361 Quicken WillMaker Plus 2016 Oct 15, 2015 N/AN/A (N/A)0 .. 20,00000:00 (00:00)NoloIndividual Software
362 AnyTime Organizer Standard 15 Nov 13, 2015 N/AN/A (N/A)0 .. 20,00000:00 (00:00)Individual SoftwareIndividual Software
363 Convoy Mod Tools Apr 15, 2015 N/AN/A (N/A)0 .. 20,00000:00 (00:00)Convoy GamesIndietopia Games
364 Professor Teaches QuickBooks 2016 Nov 10, 2015 N/AN/A (N/A)0 .. 20,00000:00 (00:00)Individual SoftwareIndividual Software
365 Strange Space Dec 22, 2015 N/AN/A (N/A)0 .. 20,00000:00 (00:00)Mayhem Games USAMayhem Games USA
366 Muvee Reveal 11 Apr 10, 2015 N/AN/A (N/A)0 .. 20,00000:00 (00:00)muvee TechnologiesDegica
367 The Facility Sep 3, 2015 N/AN/A (N/A)0 .. 20,00000:00 (00:00)PolyDigitalPolyDigital
368 Relic Alone Nov 26, 2015 N/AN/A (N/A)0 .. 20,00000:00 (00:00)NTT Plala Inc., Roconilo ProjectZoo Corporation
369 Withstand: Apotheosis Jul 31, 2015 N/AN/A (N/A)0 .. 20,00000:00 (00:00)EpicHouse Studios LLCEpicHouse Studios LLC
370 Containment Protocol Aug 31, 2015 N/AN/A (N/A)0 .. 20,00000:00 (00:00)Xiotex Studios LtdXiotex Studios Ltd
371 Magician's Apprentice Nov 9, 2015 N/AN/A (N/A)0 .. 20,00000:00 (00:00)Kosek.comKosek.com
372 Dad Beat Dads Oct 19, 2015 N/AN/A (N/A)0 .. 20,00000:00 (00:00)Stellar Jay StudiosStellar Jay Studios
373 Velocity Stream Oct 5, 2015 N/AN/A (N/A)0 .. 20,00000:00 (00:00)Cavelight EntertainmentCavelight Entertainment
374 Driveby Gangster Sep 8, 2015 N/AN/A (N/A)0 .. 20,00000:00 (00:00)Verto Studio LLCVerto Studio LLC
375 Soccer Legends Aug 5, 2015 N/AN/A (N/A)20,000 .. 50,00000:00 (00:00)ZackBellGames
376 Umbra: Shadow of Death Dec 18, 2015 N/AN/A (N/A)0 .. 20,00000:00 (00:00)Colludium LtdColludium Ltd
377 Tiki Galore Oct 5, 2015 N/AN/A (N/A)0 .. 20,00000:00 (00:00)Abyss StudiosAbyss Studios
378 VR Karts Apr 17, 2015 N/AN/A (N/A)0 .. 20,00000:00 (00:00)Viewpoint GamesViewpoint Games
379 Quadle Jul 23, 2015 N/AN/A (N/A)0 .. 20,00000:00 (00:00)GamesareClickteam
380 Ramayana May 25, 2015 FreeN/A (N/A)20,000 .. 50,00000:00 (00:00)Rakesh MalikRakesh Malik
381 none Nov 5, 2015 N/AN/A (N/A)50,000 .. 100,00000:00 (00:00)nonenone
382 Bridge Creator 2015 Jan 26, 2015 N/AN/A (N/A)0 .. 20,00000:00 (00:00)Zojoi
383 Colony Assault Dec 15, 2015 N/AN/A (N/A)0 .. 20,00000:00 (00:00)Logic treeLogic tree
384 Eternal Realm May 18, 2015 FreeN/A (N/A)0 .. 20,00000:00 (00:00)Omega GamesOmega Games
385 Dark Storm: VR Missions Aug 19, 2015 N/AN/A (N/A)0 .. 20,00000:00 (00:00)Fenrir StudiosFenrir Studios
386 AWAKE Dec 16, 2015 N/AN/A (N/A)0 .. 20,00000:00 (00:00)DiiosYeti Studio©
387 Reiner Knizia's The Confrontation Sep 21, 2015 N/AN/A (N/A)0 .. 20,00000:00 (00:00)Offworld Games, LLCOffworld Games, LLC
388 Celestial Tear: Demon's Revenge Nov 19, 2015 N/AN/A (N/A)20,000 .. 50,00000:00 (00:00)White Guardian Studios LLCWhite Guardian Studios LLC
389 Mystical Jul 31, 2015 N/AN/A (N/A)0 .. 20,00000:00 (00:00)Philippe ForgeurPhilippe Forgeur
390 The Legend of Tango Sep 11, 2015 N/AN/A (N/A)20,000 .. 50,00000:00 (00:00)Spilt Milk Studios LtdSpilt Milk Studios Ltd
391 Rising Runner Nov 1, 2015 N/AN/A (N/A)50,000 .. 100,00000:00 (00:00)MagicbaneMagicbane
392 Crimson Light Jul 28, 2015 FreeN/A (N/A)0 .. 20,00000:00 (00:00)NandeeCrimson Lodge
393 FranknJohn Mar 4, 2015 N/AN/A (N/A)0 .. 20,00000:00 (00:00)bitSmith GamesbitSmith Games
394 MAGIX Music Maker 2016 Live Steam Edition Oct 19, 2015 N/AN/A (N/A)0 .. 20,00000:00 (00:00)MAGIX Software GmbHMAGIX Software GmbH
395 Naught Reawakening Sep 10, 2015 N/AN/A (N/A)0 .. 20,00000:00 (00:00)Wild SphereGenera Games
396 In Space We Brawl Jul 17, 2015 N/AN/A (N/A)0 .. 20,00000:00 (00:00)Forge Reply srlPLAYISM
397 Crystal Picnic Nov 2, 2015 N/AN/A (N/A)0 .. 20,00000:00 (00:00)NooskewlNooskewl
398 Factions: Origins of Malu Mar 23, 2015 N/AN/A (N/A)0 .. 20,00000:00 (00:00)Burning Dog MediaBurning Dog Media
399 IPackThat Oct 6, 2015 N/AN/A (N/A)0 .. 20,00000:00 (00:00)Piranha Bytes Distribution UG&Co KGPiranha Bytes Distribution UG&Co KG
400 Pilot Crusader Jul 3, 2015 N/AN/A (N/A)0 .. 20,00000:00 (00:00)RadLabGamingLudomotion
401 KreisReise Jun 8, 2015 FreeN/A (N/A)0 .. 20,00000:00 (00:00)Twilling Skyeonayu
402 Macabre Jul 6, 2015 N/AN/A (N/A)20,000 .. 50,00000:00 (00:00)MOCBJ SoftwareMOCBJ Software
403 Mech Marines: Steel March Jan 9, 2015 N/AN/A (N/A)0 .. 20,00000:00 (00:00)ByteTrail SoftwareByteTrail Software
404 Crazy Steam Bros 2 Apr 2, 2015 FreeN/A (N/A)0 .. 20,00000:00 (00:00)Ars CreativaArs Creativa
405 Wonky Pigeon! Nov 26, 2015 N/AN/A (N/A)0 .. 20,00000:00 (00:00)Carlotta TattiCarlotta Tatti
406 Lapland Solitaire Sep 14, 2015 N/AN/A (N/A)0 .. 20,00000:00 (00:00)Lemon MooseNomad Games
407 Rapture Session & Pro Apr 28, 2015 N/AN/A (N/A)0 .. 20,00000:00 (00:00)CakewalkCakewalk
408 Legena: Union Tides Oct 8, 2015 FreeN/A (N/A)0 .. 20,00000:00 (00:00)Grandpa PixelGrandpa Pixel
409 Chronicles of a Dark Lord: Rhapsody Clash Nov 20, 2015 N/AN/A (N/A)20,000 .. 50,00000:00 (00:00)Kisareth StudiosKisareth Studios
410 Pump-Action Captain Aug 20, 2015 N/AN/A (N/A)0 .. 20,00000:00 (00:00)Paradox Interactive
411 The Lost Island Nov 20, 2015 N/AN/A (N/A)20,000 .. 50,00000:00 (00:00)Finalspark GamestudiosFinalspark Gamestudios
412 Red Spider2: Exiled Jan 17, 2015 FreeN/A (N/A)0 .. 20,00000:00 (00:00)studio waspstudio wasp
413 Rogue Continuum Sep 15, 2015 N/AN/A (N/A)0 .. 20,00000:00 (00:00)Rocktastic GamesRocktastic Games
414 A.V. Feb 13, 2015 FreeN/A (N/A)0 .. 20,00000:00 (00:00)FirstForever StudiosMAGIC Spell Studios
415 Exowar Mar 26, 2015 N/AN/A (N/A)0 .. 20,00000:00 (00:00)Aleksander CiesielskiNeomex-Games
416 Advent May 15, 2015 FreeN/A (N/A)0 .. 20,00000:00 (00:00)Omega GamesOmega Games
417 Monster RPG 2 Oct 12, 2015 N/AN/A (N/A)20,000 .. 50,00000:00 (00:00)NooskewlNooskewl
418 Naninights Jul 24, 2015 N/AN/A (N/A)0 .. 20,00000:00 (00:00)Maxim MooreAldorlea Games
419 Necromonads Oct 27, 2015 N/AN/A (N/A)0 .. 20,00000:00 (00:00)GamesareClickteam
420 Anti-Opoly Aug 14, 2015 N/AN/A (N/A)20,000 .. 50,00000:00 (00:00)WebfootViva Media
421 The Architect Jun 4, 2015 N/AN/A (N/A)0 .. 20,00000:00 (00:00)Spooky StarSpooky Star
422 Spy Bugs Jun 26, 2015 N/AN/A (N/A)0 .. 20,00000:00 (00:00)Digital Soul GamesTheGameWall Studios
423 PeriAreion Feb 19, 2015 FreeN/A (N/A)0 .. 20,00000:00 (00:00)Explorasaurus StudiosExplorasaurus Studios
424 MyRPG Master Feb 9, 2015 N/AN/A (N/A)0 .. 20,00000:00 (00:00)DragonHead StudioPlug In Digital
425 Amihailu in Dreamland Feb 15, 2015 FreeN/A (N/A)0 .. 20,00000:00 (00:00)DelmunsoftDelmunsoft
426 UnSummoning: the Spectral Horde Dec 21, 2015 FreeN/A (N/A)0 .. 20,00000:00 (00:00)Roaming Ground StudioRoaming Ground Studio
427 Ted by Dawn Jun 29, 2015 N/AN/A (N/A)0 .. 20,00000:00 (00:00)Proteus PixelProteus Pixel
428 Wonky Ship Sep 10, 2015 FreeN/A (N/A)0 .. 20,00000:00 (00:00)Kiz StudiosYou42, Inc.
429 Offscreen Colonies: VR Edition Apr 5, 2015 FreeN/A (N/A)0 .. 20,00000:00 (00:00)ConspiracyConspiracy
430 Cosplay Maker Dec 10, 2015 FreeN/A (N/A)0 .. 20,00000:00 (00:00)Locked Door PuzzleLupus Studios Limited
431 Scott in Space Jul 23, 2015 FreeN/A (N/A)0 .. 20,00000:00 (00:00)Ragiva Games e.K.Chris Hopkin
432 Damnation City of Death Mar 3, 2015 N/AN/A (N/A)0 .. 20,00000:00 (00:00)AntiprotoAntiproto
433 Hyphen Feb 12, 2015 N/AN/A (N/A)0 .. 20,00000:00 (00:00)FarSpace StudiosFarSpace Studios
434 Shadowrun Chronicles: INFECTED Director's Cut Dec 10, 2015 N/AN/A (N/A)0 .. 20,00000:00 (00:00)Cliffhanger ProductionsCliffhanger Productions
435 Streets of Chaos Jan 23, 2015 N/AN/A (N/A)50,000 .. 100,00000:00 (00:00)SimProse StudiosSimProse Studios
436 Kenney Game Assets May 8, 2015 N/AN/A (N/A)0 .. 20,00000:00 (00:00)KenneyKenney
437 MiniBikers Nov 5, 2015 N/AN/A (N/A)20,000 .. 50,00000:00 (00:00)Ivanovich GamesIvanovich Games
438 SECTOR Jun 29, 2015 FreeN/A (N/A)50,000 .. 100,00000:00 (00:00)UDUD
439 Six F and Six 0 Sep 15, 2015 FreeN/A (N/A)0 .. 20,00000:00 (00:00)うどんぱうどんぱ
440 Abomination Tower Feb 13, 2015 N/AN/A (N/A)0 .. 20,00000:00 (00:00)Amethyst QuarterAmethyst Quarter
441 REVERSE SIDE Jul 30, 2015 N/AN/A (N/A)20,000 .. 50,00000:00 (00:00)RED STAR GAMESRED STAR GAMES
442 Shadow of Kingdoms Aug 11, 2015 FreeN/A (N/A)50,000 .. 100,00000:00 (00:00)TernGameAdmax Game
443 Runes of Brennos Oct 16, 2015 FreeN/A (N/A)0 .. 20,00000:00 (00:00)LuGus StudiosLuGus Studios
444 Chronicles of a Dark Lord: Episode II War of The Abyss Jan 16, 2015 N/AN/A (N/A)50,000 .. 100,00000:00 (00:00)Kisareth StudiosKisareth Studios
445 Retaliation Nov 24, 2015 N/AN/A (N/A)0 .. 20,00000:00 (00:00)Cameron Baxter, Billy Jazz Hills StickleyCameron Baxter
446 Command: Northern Inferno Oct 22, 2015 N/AN/A (N/A)0 .. 20,00000:00 (00:00)WarfareSimsSlitherine Ltd.
447 Leadwerks Game Launcher Aug 24, 2015 FreeN/A (N/A)20,000 .. 50,00000:00 (00:00)Leadwerks SoftwareLeadwerks Software
448 DigiFish Aqua Real 2 Jun 10, 2015 N/AN/A (N/A)0 .. 20,00000:00 (00:00)Formosoft InternationalDegica
449 Axion Dec 11, 2015 N/AN/A (N/A)0 .. 20,00000:00 (00:00)Droog71Droog71
450 Arcane Sorcery Sep 15, 2015 FreeN/A (N/A)200,000 .. 500,00000:00 (00:00)Andrew RoweAndrew Rowe
451 liquivid Video Improve 2 Apr 21, 2015 N/AN/A (N/A)0 .. 20,00000:00 (00:00)nullplussoftwarenullplussoftware
452 Handball 16 Nov 27, 2015 N/AN/A (N/A)20,000 .. 50,00000:00 (00:00)Eko SoftwareNacon, Plug In Digital
453 Spheroid Aug 29, 2015 N/AN/A (N/A)20,000 .. 50,00000:00 (00:00)From Soy Sauce LLCFrom Soy Sauce LLC
454 Flem Apr 28, 2015 FreeN/A (N/A)0 .. 20,00000:00 (00:00)Henchman & GoonHenchman & Goon
455 Arclight Cascade Aug 25, 2015 FreeN/A (N/A)0 .. 20,00000:00 (00:00)Hexdragonal GamesHexdragonal Games
456 16 Bit Arena Mar 24, 2015 N/AN/A (N/A)50,000 .. 100,00000:00 (00:00)islesofciphar.com16bitarena.com
457 Shadow Hunter Apr 20, 2015 FreeN/A (N/A)20,000 .. 50,00000:00 (00:00)Jeff TrierJeff Trier
458 Lovely Weather We're Having Nov 10, 2015 N/AN/A (N/A)0 .. 20,00000:00 (00:00)Julian GlanderGlanderco
459 Lilly and Sasha: Guardian Angels Jul 7, 2015 N/AN/A (N/A)50,000 .. 100,00000:00 (00:00)John WizardJohn Wizard
460 Lilly and Sasha: Nexus of Souls May 25, 2015 N/AN/A (N/A)20,000 .. 50,00000:00 (00:00)John WizardJohn Wizard
461 Butsbal Jun 2, 2015 FreeN/A (N/A)20,000 .. 50,00000:00 (00:00)Xtase StudiosXtase Studios
462 Black Island Oct 14, 2015 N/AN/A (N/A)20,000 .. 50,00000:00 (00:00)Helsinki NoirHelsinki Noir
463 Gem Wars: Attack of the Jiblets Dec 15, 2015 FreeN/A (N/A)20,000 .. 50,00000:00 (00:00)Queen Birdface ProductionsQueen Birdface Productions
464 Servo May 28, 2015 N/AN/A (N/A)0 .. 20,00000:00 (00:00)BonusXPBonusXP
465 Force of Elements Dec 29, 2015 N/AN/A (N/A)20,000 .. 50,00000:00 (00:00)Wicked Fun, Inc.Wicked Fun, Inc.
466 ACID Music Studio 10 - Steam Powered Jun 2, 2015 N/AN/A (N/A)0 .. 20,00000:00 (00:00)MAGIX Software GmbHMAGIX Software GmbH
467 Visibility May 25, 2015 FreeN/A (N/A)20,000 .. 50,00000:00 (00:00)ZeritumZeritum
468 Bitweb Jun 3, 2015 FreeN/A (N/A)20,000 .. 50,00000:00 (00:00)practicing01practicing01
469 Rise: Battle Lines Nov 17, 2015 N/AN/A (N/A)20,000 .. 50,00000:00 (00:00)The Secret Games CompanyDigital Tribe
470 Epsilon Oct 1, 2015 N/AN/A (N/A)20,000 .. 50,00000:00 (00:00)Serellan LLCSerellan LLC
471 Monster Jam Battlegrounds Jun 10, 2015 N/AN/A (N/A)20,000 .. 50,00000:00 (00:00)Team6 game studios B.V.GameMill Entertainment
472 Infinitrap Classic: Ohio Jack and The Cup Of Eternity Dec 22, 2015 FreeN/A (N/A)20,000 .. 50,00000:00 (00:00)Shadebob GamesShadebob Games
473 Farm Mechanic Simulator 2015 Apr 23, 2015 N/AN/A (N/A)0 .. 20,00000:00 (00:00)PlayWay, Si7Thomas Gwaltney
474 HueBots Aug 26, 2015 FreeN/A (N/A)0 .. 20,00000:00 (00:00)HueboticsHuebotics
475 MyDream Feb 20, 2015 FreeN/A (N/A)20,000 .. 50,00000:00 (00:00)MyDream Interactive, IncMyDream Interactive, Inc
476 Return NULL - Episode 1 Apr 2, 2015 FreeN/A (N/A)20,000 .. 50,00000:00 (00:00)Michael LückgenDigital Tribe, iNDEE SOLO
477 Dead Sea Mar 25, 2015 N/AN/A (N/A)20,000 .. 50,00000:00 (00:00)199CentsSTUDIO199CentsSTUDIO
478 Badland Bandits Jul 16, 2015 FreeN/A (N/A)0 .. 20,00000:00 (00:00)Wild Wolf StdWild Wolf Std
479 R.B.I. Baseball 15 Apr 30, 2015 N/AN/A (N/A)0 .. 20,00000:00 (00:00)MLB.comMLB.com
480 Kingdoms CCG Jan 22, 2015 N/AN/A (N/A)200,000 .. 500,00000:00 (00:00)Ganz StudioGanz
481 MiniDrivers Aug 20, 2015 N/AN/A (N/A)50,000 .. 100,00000:00 (00:00)Ivanovich GamesIvanovich Games
482 ENYO Arcade Nov 9, 2015 FreeN/A (N/A)20,000 .. 50,00000:00 (00:00)James Mearmanwww.dev-zoo.net
483 Indie Game Battle Oct 29, 2015 N/AN/A (N/A)50,000 .. 100,00000:00 (00:00)Blob Games StudioBlob Games Studio
484 Foosball: World Tour Dec 11, 2015 N/AN/A (N/A)0 .. 20,00000:00 (00:00)Grip Games, 3DivisionGrip Games
485 I must kill...: Fresh Meat Nov 30, 2015 FreeN/A (N/A)50,000 .. 100,00000:00 (00:00)Gaming Cats StudioGaming Cats Studio
486 Shot In The Dark Jun 10, 2015 FreeN/A (N/A)20,000 .. 50,00000:00 (00:00)Technomancy StudiosTechnomancy Studios
487 Glass Wing Jun 24, 2015 FreeN/A (N/A)50,000 .. 100,00000:00 (00:00)From Soy Sauce LLCFrom Soy Sauce LLC
488 Jagged Alliance Online: Reloaded Sep 24, 2015 N/AN/A (N/A)0 .. 20,00000:00 (00:00)Cliffhanger ProductionsCliffhanger Productions
489 Emerland Solitaire: Endless Journey Jan 6, 2015 FreeN/A (N/A)20,000 .. 50,00000:00 (00:00)Rainbow GamesRainbow Games
490 Arms Dealer Mar 26, 2015 N/AN/A (N/A)0 .. 20,00000:00 (00:00)Case in Point Studios, LLCCase in Point Studios, LLC
491 Farmocalypse Nov 24, 2015 N/AN/A (N/A)20,000 .. 50,00000:00 (00:00)Glowstick EntertainmentGlowstick Entertainment
492 Your Quest Apr 13, 2015 FreeN/A (N/A)50,000 .. 100,00000:00 (00:00)Oblivionburn ProductionsOblivionburn Productions
493 The Lady Jan 29, 2015 FreeN/A (N/A)50,000 .. 100,00000:00 (00:00)Mikeypoo's Games, Roger LevyMPR ART Hallucinations
494 Elements: Soul of Fire Jan 12, 2015 N/AN/A (N/A)50,000 .. 100,00000:00 (00:00)Soul CatapultNew Reality Games
495 Porradaria 2: Pagode of the Night Mar 12, 2015 N/AN/A (N/A)50,000 .. 100,00000:00 (00:00)CleanWaterSoftCleanWaterSoft
496 Big Fish Legend Jul 20, 2015 FreeN/A (N/A)20,000 .. 50,00000:00 (00:00)Igry.ruIgry.ru
497 Into The War Dec 2, 2015 N/AN/A (N/A)100,000 .. 200,00000:00 (00:00)Small Town StudiosSmall Town Studios
498 Woof Blaster Sep 22, 2015 FreeN/A (N/A)20,000 .. 50,00000:00 (00:00)Fabian JarrettFabian Jarrett
499 Relive Oct 15, 2015 N/AN/A (N/A)20,000 .. 50,00000:00 (00:00)Studio EvilStudio Evil
500 SickBrick Jan 30, 2015 N/AN/A (N/A)50,000 .. 100,00000:00 (00:00)Maxwolf, FoxMaxwolf, Fox
501 Mold on Pizza Sep 25, 2015 $5.99N/A (N/A)20,000 .. 50,00000:00 (00:00)BTNcafeBTNcafe
502 Clandestinity of Elsie Jul 8, 2015 FreeN/A (N/A)20,000 .. 50,00000:00 (00:00)COLNELIUS, Albin BernhardssonCOLNELIUS
503 March of War: FaceOff - XL Nov 18, 2015 N/AN/A (N/A)50,000 .. 100,00000:00 (00:00)ISOTXISOTX
504 Selfie : Sisters of the Amniotic Lens May 8, 2015 N/AN/A (N/A)100,000 .. 200,00000:00 (00:00)Rail Slave GamesKISS ltd
505 Legend of Dungeon: Masters Nov 30, 2015 N/AN/A (N/A)100,000 .. 200,00000:00 (00:00)Robot Loves KittyRobot Loves Kitty
506 EV3 - Drag Racing Mar 1, 2015 FreeN/A (N/A)50,000 .. 100,00000:00 (00:00)KABloom InteractiveKABloom Interactive
507 Pixel Fodder Jul 20, 2015 FreeN/A (N/A)20,000 .. 50,00000:00 (00:00)Wachawacha.ru
508 Emergency 2016 Oct 15, 2015 N/AN/A (N/A)50,000 .. 100,00000:00 (00:00)Sixteen Tons EntertainmentDeep Silver
509 Sound Shift Aug 26, 2015 FreeN/A (N/A)20,000 .. 50,00000:00 (00:00)Matthew BrownMatthew Brown
510 Freshman Year Apr 20, 2015 FreeN/A (N/A)20,000 .. 50,00000:00 (00:00)Nina Freeman, Laura Knetzger, Stephen Lawrence ClarkN/A
511 Combat Monsters Jan 20, 2015 N/AN/A (N/A)100,000 .. 200,00000:00 (00:00)Rubicon DevelopmentRubicon Development
512 Tetris Ultimate Dec 10, 2015 N/AN/A (N/A)50,000 .. 100,00000:00 (00:00)Ubisoft - San FranciscoUbisoft - San Francisco
513 Астролорды: Облако Оорта Sep 29, 2015 FreeN/A (N/A)0 .. 20,00000:00 (00:00)Aratog LLCConglomerate 5
514 The Gate Apr 22, 2015 N/AN/A (N/A)50,000 .. 100,00000:00 (00:00)Spicy Horse GamesSpicy Horse Games
515 Legacy of Dorn: Herald of Oblivion Dec 2, 2015 N/AN/A (N/A)20,000 .. 50,00000:00 (00:00)Tin Man GamesTin Man Games
516 Curse of Mermos Jun 23, 2015 FreeN/A (N/A)100,000 .. 200,00000:00 (00:00)TEAM101TEAM101
517 Metaverse Construction Kit Dec 6, 2015 FreeN/A (N/A)200,000 .. 500,00000:00 (00:00)MetawareMetaware
518 Bloodwood Reload Nov 2, 2015 FreeN/A (N/A)100,000 .. 200,00000:00 (00:00)Luminy StudiosLuminy Studios
519 Lethal RPG: War Jul 17, 2015 FreeN/A (N/A)20,000 .. 50,00000:00 (00:00)EyeSpyda GamesEyeSpyda Games
520 Bloop Jan 16, 2015 FreeN/A (N/A)50,000 .. 100,00000:00 (00:00)2SDKISS ltd
521 Affected Zone Tactics Nov 17, 2015 FreeN/A (N/A)100,000 .. 200,00000:00 (00:00)Light Vision InteractiveLight Vision Interactive
522 Escape Apr 20, 2015 FreeN/A (N/A)100,000 .. 200,00000:00 (00:00)Stephane BottinStephane Bottin
523 One Way To Die Sep 1, 2015 FreeN/A (N/A)50,000 .. 100,00000:00 (00:00)Tenth&Hess GamesCoaguCo Industries
524 Gunslingers Dec 17, 2015 N/AN/A (N/A)100,000 .. 200,00000:00 (00:00)KovalimKovalim
525 HIT Feb 9, 2015 FreeN/A (N/A)200,000 .. 500,00000:00 (00:00)Shifty Chair GamesShifty Chair Games
526 Krosmaster Arena Nov 9, 2015 N/AN/A (N/A)100,000 .. 200,00000:00 (00:00)Ankama StudioAnkama Games
527 Red Stone Online Apr 2015 N/AN/A (N/A)100,000 .. 200,00000:00 (00:00)L&K Co., Ltd.L&K Co., Ltd.
528 InCell VR Sep 3, 2015 FreeN/A (N/A)100,000 .. 200,00000:00 (00:00)Luden.ioLuden.io
529 RFLEX Aug 26, 2015 FreeN/A (N/A)0 .. 20,00000:00 (00:00)Wesley LaFerriereSystem Void Games
530 Pregnancy Feb 18, 2015 N/AN/A (N/A)0 .. 20,00000:00 (00:00)LocomotivahLocomotivah
531 Nyctophilia Sep 23, 2015 FreeN/A (N/A)50,000 .. 100,00000:00 (00:00)Cat In A Jar GamesCat In A Jar Games
532 Epic Arena May 5, 2015 FreeN/A (N/A)100,000 .. 200,00000:00 (00:00)Shadow MastersShadow Masters
533 The Knobbly Crook Jun 9, 2015 FreeN/A (N/A)50,000 .. 100,00000:00 (00:00)Gnarled Scar ManipulationsGnarled Scar Manipulations
534 Mainland May 8, 2015 FreeN/A (N/A)100,000 .. 200,00000:00 (00:00)Vasily Voronkov, Ryan Joseph, Peter KosyhINSTEAD Community
535 Heroes of SoulCraft - Arcade MOBA Jul 2, 2015 FreeN/A (N/A)200,000 .. 500,00000:00 (00:00)MobileBitsMobileBits
536 Wyrmsun May 22, 2015 FreeN/A (N/A)100,000 .. 200,00000:00 (00:00)AndrettinAndrettin
537 Rustbucket Rumble May 4, 2015 FreeN/A (N/A)200,000 .. 500,00000:00 (00:00)Reactor ZeroScrap Yard Productions, LLC
538 CroNix Jul 17, 2015 FreeN/A (N/A)200,000 .. 500,00000:00 (00:00)MAGICSMAGICS
539 Ubinota Mar 4, 2015 FreeN/A (N/A)50,000 .. 100,00000:00 (00:00)RotateamPlug In Digital
540 Immortal Empire Dec 3, 2015 FreeN/A (N/A)100,000 .. 200,00000:00 (00:00)Tactic Studios Inc.Tactic Studios Inc.
541 Magical Otoge Ciel Aug 7, 2015 FreeN/A (N/A)50,000 .. 100,00000:00 (00:00)batensanbatensan
542 Iggy's Egg Adventure Aug 27, 2015 N/AN/A (N/A)20,000 .. 50,00000:00 (00:00)Ginger Labs LLCGinger Labs LLC
543 Hotel Remorse Apr 28, 2015 FreeN/A (N/A)20,000 .. 50,00000:00 (00:00)Charlie Behan, Raddy PeidCharlie Behan
544 Golden Rush Sep 23, 2015 N/AN/A (N/A)100,000 .. 200,00000:00 (00:00)Forbes Consult LtdELYLAND INVESTMENT COMPANY Ltd
545 Bloop Reloaded Feb 6, 2015 N/AN/A (N/A)100,000 .. 200,00000:00 (00:00)2SDKISS ltd
546 Sphere III: Rage of the Devastator Aug 18, 2015 FreeN/A (N/A)100,000 .. 200,00000:00 (00:00)GameXP.comGameXP.com
547 Rats - Time is running out! Aug 19, 2015 N/AN/A (N/A)50,000 .. 100,00000:00 (00:00)Citeremis Inc.Citeremis Inc.
548 Comedy Quest Sep 2, 2015 FreeN/A (N/A)50,000 .. 100,00000:00 (00:00)Trav NashCrothers Games
549 Camtasia - Subscription Aug 29, 2015 N/AN/A (N/A)100,000 .. 200,00000:00 (00:00)TechSmith CorporationTechSmith Corporation
550 Just Survive Test Server Apr 16, 2015 N/AN/A (N/A)100,000 .. 200,00000:00 (00:00)Daybreak Game CompanyDaybreak Game Company
551 War of Beach Oct 15, 2015 FreeN/A (N/A)100,000 .. 200,00000:00 (00:00)LUCKY GIRLS LIMITEDLUCKY GIRLS LIMITED
552 Firefly Online Cortex Jan 29, 2015 N/AN/A (N/A)200,000 .. 500,00000:00 (00:00)Spark Plug GamesQMx Interactive
553 Manyland Dec 7, 2015 N/AN/A (N/A)0 .. 20,00000:00 (00:00)Anyland + ManylandMatt Roszak
554 Otherland MMO Sep 10, 2015 N/AN/A (N/A)50,000 .. 100,00000:00 (00:00)Drago EntertainmentGame OL GmbH
555 The Secret of Tremendous Corporation Oct 12, 2015 FreeN/A (N/A)100,000 .. 200,00000:00 (00:00)Sebastian Krzyszkowiak, Konrad Burandt, Paweł Radejdosowisko.net
556 Invisible Apartment Mar 2, 2015 N/AN/A (N/A)100,000 .. 200,00000:00 (00:00)Milan Kazarka, Jeroen van OostenVysoko Anime Production
557 Noct Oct 21, 2015 N/AN/A (N/A)50,000 .. 100,00000:00 (00:00)C3SKDevolver Digital
558 Cereal Soup Feb 14, 2015 N/AN/A (N/A)100,000 .. 200,00000:00 (00:00)Wild Arts LLCWild Arts LLC
559 Hotline Miami 2: Wrong Number Digital Comic Feb 17, 2015 FreeN/A (N/A)100,000 .. 200,00000:00 (00:00)Dennaton Games, Dayjob StudioDevolver Digital
560 Ruzh Delta Z May 8, 2015 FreeN/A (N/A)50,000 .. 100,00000:00 (00:00)Pribuni
561 Dream Of Mirror Online Aug 14, 2015 FreeN/A (N/A)100,000 .. 200,00000:00 (00:00)SoftStarSubaGames
562 March of War: FaceOff - M Jul 16, 2015 N/AN/A (N/A)50,000 .. 100,00000:00 (00:00)ISOTXISOTX
563 Might & Magic Heroes Online Nov 24, 2015 N/AN/A (N/A)200,000 .. 500,00000:00 (00:00)Blue ByteUbisoft
564 Lilly and Sasha: Curse of the Immortals Apr 28, 2015 N/AN/A (N/A)100,000 .. 200,00000:00 (00:00)John WizardJohn Wizard
565 Heroes of Scene Aug 26, 2015 FreeN/A (N/A)200,000 .. 500,00000:00 (00:00)Icy DonutIcy Donut
566 Major\Minor Dec 2015 N/AN/A (N/A)20,000 .. 50,00000:00 (00:00)KlaceKlace
567 Spartans Vs Zombies Defense Jan 6, 2015 N/AN/A (N/A)100,000 .. 200,00000:00 (00:00)LeiLei
568 InMind VR Jan 19, 2015 FreeN/A (N/A)100,000 .. 200,00000:00 (00:00)Luden.ioLuden.io
569 Metal Reaper Online Sep 16, 2015 N/AN/A (N/A)100,000 .. 200,00000:00 (00:00)N2GamesSesisoft, JC Planet
570 Burstfire Sep 24, 2015 N/AN/A (N/A)100,000 .. 200,00000:00 (00:00)Nacho GamesNacho Games
571 Soccer Manager 2015 Jul 16, 2015 N/AN/A (N/A)200,000 .. 500,00000:00 (00:00)Soccer Manager LtdSoccer Manager Ltd
572 GASP Nov 12, 2015 N/AN/A (N/A)200,000 .. 500,00000:00 (00:00)Dark Day InteractiveDark Day Interactive
573 Epic Cards Battle(TCG) Jul 9, 2015 FreeN/A (N/A)100,000 .. 200,00000:00 (00:00)momoStorm EntertainmentmomoStorm Entertainment
574 Egg Returns Home May 5, 2015 N/AN/A (N/A)100,000 .. 200,00000:00 (00:00)Egor Olegovich YakovlevEgor Olegovich Yakovlev
575 7,62 Hard Life Oct 1, 2015 $4.99N/A (N/A)50,000 .. 100,00000:00 (00:00)HLA teamFulqrum Publishing
576 Grey Cubes May 15, 2015 N/AN/A (N/A)50,000 .. 100,00000:00 (00:00)Deion MobileDeion Mobile
577 Who Is Mike - A Visual Novel Sep 29, 2015 FreeN/A (N/A)20,000 .. 50,00000:00 (00:00)FerventAfterthought Studios
578 Alpha Polaris : A Horror Adventure Game Oct 21, 2015 FreeN/A (N/A)100,000 .. 200,00000:00 (00:00)Turmoil GamesTurmoil Games
579 Merchant Jan 1, 2015 FreeN/A (N/A)100,000 .. 200,00000:00 (00:00)Retora GamesRetora Games
580 Deepworld Apr 22, 2015 FreeN/A (N/A)200,000 .. 500,00000:00 (00:00)BytebinBytebin
581 Driver Booster 3 for STEAM Sep 22, 2015 FreeN/A (N/A)100,000 .. 200,00000:00 (00:00)IObitIObit
582 Soccer Manager 2016 Oct 7, 2015 N/AN/A (N/A)200,000 .. 500,00000:00 (00:00)Soccer Manager LtdSoccer Manager Ltd
583 War Trigger 2 Sep 15, 2015 FreeN/A (N/A)200,000 .. 500,00000:00 (00:00)Rocketeer Games Studio, LLCRocketeer Games Studio, LLC
584 Subspace Continuum Jul 3, 2015 FreeN/A (N/A)50,000 .. 100,00000:00 (00:00)Virgin Interactive Entertainment, PriitKSubspace Continuum
585 Silver Creek Falls: Chapter 1 Aug 12, 2015 FreeN/A (N/A)0 .. 20,00000:00 (00:00)Sapphire Dragon ProductionsSapphire Dragon Productions
586 Clown House (Palyaço Evi) Jul 14, 2015 FreeN/A (N/A)200,000 .. 500,00000:00 (00:00)gord10, Aslan Game StudioAslan Game Studio
587 Cards and Castles Dec 18, 2015 FreeN/A (N/A)100,000 .. 200,00000:00 (00:00)Red Team GamesRed Team Games
588 All Is Dust Jun 26, 2015 FreeN/A (N/A)50,000 .. 100,00000:00 (00:00)Mannequin Games LLCMannequin Games LLC
589 Battle for Blood - Epic battles within 30 seconds! Jul 8, 2015 FreeN/A (N/A)100,000 .. 200,00000:00 (00:00)YFC gamesYFC games
590 Metal War Online: Retribution Dec 11, 2015 FreeN/A (N/A)200,000 .. 500,00000:00 (00:00)GDT LimitedGDT Limited
591 Genesis Online Nov 5, 2015 FreeN/A (N/A)200,000 .. 500,00000:00 (00:00)Shumkov DmitriyShumkov Dmitriy
592 Navy Field 2 : Conqueror of the Ocean Mar 5, 2015 N/AN/A (N/A)500,000 .. 1,000,00000:00 (00:00)SDEnterNetSDEnterNet
593 Interplanetary May 12, 2015 N/AN/A (N/A)100,000 .. 200,00000:00 (00:00)Team Jolly RogerTeam17 Digital Ltd
594 Pink Heaven Nov 4, 2015 FreeN/A (N/A)100,000 .. 200,00000:00 (00:00)Studio PixelPLAYISM
595 Close Your Eyes [Old Version] Aug 31, 2015 FreeN/A (N/A)100,000 .. 200,00000:00 (00:00)Yai GameworksYai Gameworks
596 World of Soccer Aug 26, 2015 N/AN/A (N/A)200,000 .. 500,00000:00 (00:00)WoS Development TeamHuebotics
597 Tap Tap Infinity Jun 26, 2015 FreeN/A (N/A)200,000 .. 500,00000:00 (00:00)Scary Bee LLCScary Bee LLC
598 TeraBlaster Jul 10, 2015 FreeN/A (N/A)50,000 .. 100,00000:00 (00:00)Black Shell GamesAbsolutist Ltd.
599 Chip's Challenge 1 May 28, 2015 FreeN/A (N/A)100,000 .. 200,00000:00 (00:00)Niffler Ltd.Niffler Ltd.
600 Let the Cat in Aug 27, 2015 N/AN/A (N/A)200,000 .. 500,00000:00 (00:00)EforbEforb
601 Shadowrun Chronicles - Boston Lockdown Apr 28, 2015 N/AN/A (N/A)200,000 .. 500,00000:00 (00:00)Cliffhanger ProductionsCliffhanger Productions
602 Echoes+ Jan 15, 2015 FreeN/A (N/A)50,000 .. 100,00000:00 (00:00)Binary ZooKikiwik Games
603 SC2VN - The eSports Visual Novel Sep 7, 2015 FreeN/A (N/A)100,000 .. 200,00000:00 (00:00)Team ElevenTeam Eleven
604 CaesarIA Jan 20, 2015 FreeN/A (N/A)500,000 .. 1,000,00000:00 (00:00)rdt.32rdt.32
605 ePic Character Generator Nov 5, 2015 FreeN/A (N/A)200,000 .. 500,00000:00 (00:00)Overhead GamesOverhead Games
606 Apotheon Arena Dec 8, 2015 FreeN/A (N/A)200,000 .. 500,00000:00 (00:00)AlientrapAlientrap
607 The Mammoth: A Cave Painting Aug 24, 2015 FreeN/A (N/A)50,000 .. 100,00000:00 (00:00)inbetweengamesinbetweengames
608 Aberoth Jul 17, 2015 FreeN/A (N/A)200,000 .. 500,00000:00 (00:00)Jarbit, Castle art by Yuriy GusevJarbit
609 Pink Hour Oct 28, 2015 FreeN/A (N/A)100,000 .. 200,00000:00 (00:00)Studio PixelPLAYISM
610 AX:EL - Air XenoDawn Dec 4, 2015 N/AN/A (N/A)1,000,000 .. 2,000,00000:00 (00:00)Alex PiolaKISS ltd
611 Among Ripples Jan 22, 2015 N/AN/A (N/A)200,000 .. 500,00000:00 (00:00)Eat Create SleepEat Create Sleep
612 VEGAS Movie Studio 13 Platinum - Steam Powered Feb 5, 2015 N/AN/A (N/A)50,000 .. 100,00000:00 (00:00)MAGIX Software GmbHMAGIX Software GmbH
613 Fausts Alptraum Aug 14, 2015 FreeN/A (N/A)100,000 .. 200,00000:00 (00:00)LaboRatStudioLaboRatStudio
614 Destination Sol Feb 5, 2015 FreeN/A (N/A)500,000 .. 1,000,00000:00 (00:00)MovingBlocksMovingBlocks
615 Space Pilgrim Episode I: Alpha Centauri Dec 14, 2015 FreeN/A (N/A)1,000,000 .. 2,000,00000:00 (00:00)Pilgrim Adventures, GrabTheGames StudiosGrabTheGames, TheGamesFortress
616 FINAL FANTASY V Sep 24, 2015 N/AN/A (N/A)100,000 .. 200,00000:00 (00:00)Square EnixSquare Enix
617 Port of Call Aug 28, 2015 FreeN/A (N/A)100,000 .. 200,00000:00 (00:00)Underdog GamesUnderdog Games
618 METAL SLUG DEFENSE May 1, 2015 FreeN/A (N/A)500,000 .. 1,000,00000:00 (00:00)SNK CORPORATIONSNK CORPORATION
619 Frozen Free Fall: Snowball Fight Sep 15, 2015 N/AN/A (N/A)200,000 .. 500,00000:00 (00:00)SuperVillain StudiosDisney
620 Air Brawl Jun 2, 2015 FreeN/A (N/A)100,000 .. 200,00000:00 (00:00)LandfallLandfall
621 Ultimate Tic-Tac-Toe Apr 28, 2015 FreeN/A (N/A)200,000 .. 500,00000:00 (00:00)Tigerish GamesTigerish Games
622 Frosty Kiss Jan 31, 2015 FreeN/A (N/A)100,000 .. 200,00000:00 (00:00)2Chance Projects, IIchan Eroge Team2Chance Projects
623 Dev Guy May 20, 2015 FreeN/A (N/A)100,000 .. 200,00000:00 (00:00)Daniel Jonathan BourkeProject Tranquil
624 404Sight Apr 16, 2015 FreeN/A (N/A)200,000 .. 500,00000:00 (00:00)Retro Yeti GamesRetro Yeti Games
625 Off-Peak Feb 15, 2015 FreeN/A (N/A)100,000 .. 200,00000:00 (00:00)Cosmo DCosmo D Studios
626 Mortal Online Aug 31, 2015 FreeN/A (N/A)500,000 .. 1,000,00000:00 (00:00)Star Vault ABStar Vault AB
627 Pool Nation FX Lite Dec 7, 2015 FreeN/A (N/A)200,000 .. 500,00000:00 (00:00)Cherry Pop GamesCherry Pop Games
628 Jigoku Kisetsukan: Sense of the Seasons May 12, 2015 FreeN/A (N/A)100,000 .. 200,00000:00 (00:00)EmadEmad
629 Written in the Sky Oct 31, 2015 N/AN/A (N/A)100,000 .. 200,00000:00 (00:00)Unwonted Studios14 Hours Productions
630 Without Within Jan 22, 2015 FreeN/A (N/A)100,000 .. 200,00000:00 (00:00)InvertMouseInvertMouse
631 Seduce Me the Otome Feb 12, 2015 FreeN/A (N/A)200,000 .. 500,00000:00 (00:00)Michaela LawsMichaela Laws
632 Batla May 14, 2015 N/AN/A (N/A)500,000 .. 1,000,00000:00 (00:00)[geim].proAbyss Lights Studio LLP
633 FINAL FANTASY VI Dec 16, 2015 N/AN/A (N/A)200,000 .. 500,00000:00 (00:00)Square EnixSquare Enix
634 RPG MO Aug 18, 2015 FreeN/A (N/A)500,000 .. 1,000,00000:00 (00:00)MarxnetMarxnet
635 Crusaders of the Lost Idols Oct 13, 2015 FreeN/A (N/A)500,000 .. 1,000,00000:00 (00:00)Codename Entertainment Inc.Codename Entertainment Inc.
636 King's Quest Jul 28, 2015 $24.99N/A (N/A)200,000 .. 500,00000:00 (00:00)The Odd GentlemenSierra
637 The Four Kings Casino and Slots Jun 1, 2015 FreeN/A (N/A)500,000 .. 1,000,00000:00 (00:00)Digital Leisure Inc.Digital Leisure Inc.
638 Simply Chess Sep 11, 2015 FreeN/A (N/A)200,000 .. 500,00000:00 (00:00)BlueLine GamesBlueLine Games
639 8BitMMO Jan 26, 2015 FreeN/A (N/A)500,000 .. 1,000,00000:00 (00:00)Archive EntertainmentArchive Entertainment
640 Missing Translation Sep 24, 2015 FreeN/A (N/A)200,000 .. 500,00000:00 (00:00)AlPixel Games, Luis Diaz, Gustavo Santos, Albert Fernandez, Tice ThomasonGamesBoosters
641 VEGA Conflict Dec 14, 2015 FreeN/A (N/A)500,000 .. 1,000,00000:00 (00:00)KIXEYEKIXEYE
642 Saint Seiya: Soldiers' Soul Nov 27, 2015 N/AN/A (N/A)50,000 .. 100,00000:00 (00:00)DIMPSBANDAI NAMCO Entertainment
643 Nomad Jun 26, 2015 FreeN/A (N/A)500,000 .. 1,000,00000:00 (00:00)Diminished StudiosDiminished Studios
644 Dead Realm Aug 3, 2015 N/AN/A (N/A)200,000 .. 500,00000:00 (00:00)Section Studios3BLACKDOT
645 Armored Warfare Oct 8, 2015 FreeN/A (N/A)500,000 .. 1,000,00000:00 (00:00)Obsidian Entertainment, Wishlist GamesWishlist Games
646 Steel Ocean Nov 12, 2015 N/AN/A (N/A)500,000 .. 1,000,00000:00 (00:00)Changyou.com LimitedChangyou.com Limited
647 Strife May 22, 2015 FreeN/A (N/A)500,000 .. 1,000,00000:00 (00:00)S2 GamesS2 Games
648 NBA 2K16 Sep 29, 2015 N/AN/A (N/A)500,000 .. 1,000,00000:00 (00:00)Visual Concepts2K
649 Time Clickers Jul 23, 2015 FreeN/A (N/A)500,000 .. 1,000,00000:00 (00:00)Proton Studio Inc
650 Higurashi When They Cry Hou - Ch.1 Onikakushi May 15, 2015 FreeN/A (N/A)200,000 .. 500,00000:00 (00:00)07th ExpansionMangaGamer
651 the static speaks my name Aug 10, 2015 FreeN/A (N/A)200,000 .. 500,00000:00 (00:00)the whale husbandthe whale husband
652 Lost Lands: A Hidden Object Adventure Sep 24, 2015 FreeN/A (N/A)200,000 .. 500,00000:00 (00:00)FIVE-BN GAMESFIVE-BN GAMES
653 War Trigger 3 Dec 22, 2015 FreeN/A (N/A)1,000,000 .. 2,000,00000:00 (00:00)Rocketeer Games Studio, LLCRocketeer Games Studio, LLC
654 Romero's Aftermath Sep 24, 2015 N/AN/A (N/A)1,000,000 .. 2,000,00000:00 (00:00)Free Reign EntertainmentOP Productions LLC, Free Reign East LLC
655 Steam Link Nov 10, 2015 N/AN/A (N/A)500,000 .. 1,000,00000:00 (00:00)Anima Locus
656 Endless Sky Oct 30, 2015 FreeN/A (N/A)500,000 .. 1,000,00000:00 (00:00)Michael ZahniserMichael Zahniser
657 Minecraft: Story Mode - A Telltale Games Series Oct 13, 2015 N/AN/A (N/A)200,000 .. 500,00000:00 (00:00)Telltale GamesTelltale Games
658 Gear Up Jan 28, 2015 FreeN/A (N/A)1,000,000 .. 2,000,00000:00 (00:00)Doctor Entertainment ABDoctor Entertainment AB
659 Relic Hunters Zero: Remix Aug 18, 2015 FreeN/A (N/A)1,000,000 .. 2,000,00000:00 (00:00)Rogue SnailAkupara Games
660 Carpe Diem Nov 30, 2015 FreeN/A (N/A)200,000 .. 500,00000:00 (00:00)Moonlit WorksMoonlit Works
661 America's Army: Proving Grounds Oct 1, 2015 N/AN/A (N/A)2,000,000 .. 5,000,00000:00 (00:00)U.S. ArmyU.S. Army
662 Dr. Langeskov, The Tiger, and The Terribly Cursed Emerald: A Whirlwind Heist Dec 4, 2015 FreeN/A (N/A)500,000 .. 1,000,00000:00 (00:00)Crows Crows CrowsCrows Crows Crows
663 Freestyle 2: Street Basketball Apr 1, 2015 FreeN/A (N/A)5,000,000 .. 10,000,00000:00 (00:00)JOYCITYJOYCITY
664 MechWarrior Online Solaris 7 Dec 10, 2015 FreeN/A (N/A)2,000,000 .. 5,000,00000:00 (00:00)Piranha Games Inc.Piranha Games Inc.
665 Mitos.is: The Game Jul 29, 2015 FreeN/A (N/A)2,000,000 .. 5,000,00000:00 (00:00)Freakinware StudiosFreakinware Studios
666 Eternal Senia Jun 18, 2015 FreeN/A (N/A)500,000 .. 1,000,00000:00 (00:00)Sanctum GamesSanctum Games
667 Sakura Clicker Jul 29, 2015 FreeN/A (N/A)1,000,000 .. 2,000,00000:00 (00:00)Winged CloudWinged Cloud
668 Spooky's Jump Scare Mansion Jul 28, 2015 FreeN/A (N/A)1,000,000 .. 2,000,00000:00 (00:00)Lag StudiosLag Studios
669 Survarium Apr 2, 2015 N/AN/A (N/A)2,000,000 .. 5,000,00000:00 (00:00)Vostok GamesVostok Games
670 Magic Duels Jul 29, 2015 N/AN/A (N/A)2,000,000 .. 5,000,00000:00 (00:00)Stainless Games Ltd.Wizards of the Coast LLC
671 Transformice Jan 30, 2015 FreeN/A (N/A)2,000,000 .. 5,000,00000:00 (00:00)Atelier 801Atelier 801
672 Emily is Away Nov 20, 2015 FreeN/A (N/A)1,000,000 .. 2,000,00000:00 (00:00)Kyle SeeleyKyle Seeley
673 Just Survive Jan 15, 2015 N/AN/A (N/A)2,000,000 .. 5,000,00000:00 (00:00)Daybreak Game CompanyDaybreak Game Company
674 Fishing Planet Aug 11, 2015 FreeN/A (N/A)2,000,000 .. 5,000,00000:00 (00:00)Fishing Planet LLCFishing Planet LLC
675 AdVenture Capitalist Mar 30, 2015 FreeN/A (N/A)5,000,000 .. 10,000,00000:00 (00:00)Hyper Hippo GamesHyper Hippo Games
676 Clicker Heroes May 13, 2015 FreeN/A (N/A)5,000,000 .. 10,000,00000:00 (00:00)PlaysaurusPlaysaurus
677 Trove Jul 9, 2015 N/AN/A (N/A)2,000,000 .. 5,000,00000:00 (00:00)gamigo US Inc.gamigo US Inc.
678 Life is Strange - Episode 1 Jan 29, 2015 FreeN/A (N/A)5,000,000 .. 10,000,00000:00 (00:00)DONTNOD Entertainment, Feral Interactive (Mac), Feral Interactive (Linux)Square Enix, Feral interactive (Mac), Feral Interactive (Linux)
679 Professor Teaches Word 2013 & 365 Jun 29, 2015 $14.99N/A (N/A)0 .. 20,00000:00 (00:00)Individual SoftwareIndividual Software
680 Deficis Jul 30, 2015 $14.99N/A (N/A)0 .. 20,00000:00 (00:00)Gneu LLCGneu LLC
681 Professor Teaches OneNote 2013 & 365 Jul 22, 2015 $14.99N/A (N/A)0 .. 20,00000:00 (00:00)Individual SoftwareIndividual Software
682 Professor Teaches Outlook 2013 & 365 Jul 22, 2015 $14.99N/A (N/A)0 .. 20,00000:00 (00:00)Individual SoftwareIndividual Software
683 Baxter's Venture: Director's Cut Jul 30, 2015 $0.99N/A (N/A)0 .. 20,00000:00 (00:00)GG-WorksGG-Works
684 Professor Teaches Outlook 2016 Oct 12, 2015 $14.99N/A (N/A)0 .. 20,00000:00 (00:00)Individual SoftwareIndividual Software
685 Professor Teaches Excel 2013 & 365 Jun 29, 2015 $14.99N/A (N/A)0 .. 20,00000:00 (00:00)Individual SoftwareIndividual Software
686 Professor Teaches PowerPoint 2016 Sep 15, 2015 $9.74N/A (N/A)0 .. 20,00000:00 (00:00)Individual SoftwareIndividual Software
687 Temporal Shift Jul 16, 2015 $9.99N/A (N/A)0 .. 20,00000:00 (00:00)Four LightsFour Lights
688 Vol'Talkes - The AI War Feb 25, 2015 $29.99N/A (N/A)0 .. 20,00000:00 (00:00)HyperDrive GamesHyperDrive Games
689 Infinite Game Works Episode 1 Oct 26, 2015 $7.99N/A (N/A)0 .. 20,00000:00 (00:00)Sakura River InteractiveSakura River Interactive
690 Radial Impact Aug 3, 2015 $0.99N/A (N/A)0 .. 20,00000:00 (00:00)Devin SherryDevin Sherry
691 Professor Teaches Access 2013 & 365 Jul 14, 2015 $14.99N/A (N/A)0 .. 20,00000:00 (00:00)Individual SoftwareIndividual Software
692 Fjall Sep 19, 2015 $2.99N/A (N/A)0 .. 20,00000:00 (00:00)dimecoin, BestowDimecoin Games, LLC
693 Fringes of the Empire Nov 16, 2015 $0.99N/A (N/A)0 .. 20,00000:00 (00:00)Lost Astronaut StudiosSelf-Published
694 Save the Creatures Oct 18, 2015 $1.99N/A (N/A)20,000 .. 50,00000:00 (00:00)Michael Porter, Aaron Smith, Andrew ThomasMichael Porter
695 One Bit May 12, 2015 $0.99N/A (N/A)0 .. 20,00000:00 (00:00)VeibynVeibyn
696 Proxyah v3.1 Nov 5, 2015 $3.99N/A (N/A)0 .. 20,00000:00 (00:00)Viktor TimofeevViktor Timofeev
697 Gremlin Invasion: Survivor May 1, 2015 $0.99N/A (N/A)0 .. 20,00000:00 (00:00)CS Squared Games, Among GiantsCS Squared Games
698 Professor Teaches Excel 2016 Sep 15, 2015 $14.99N/A (N/A)0 .. 20,00000:00 (00:00)Individual SoftwareIndividual Software
699 Professor Teaches OneNote 2016 Sep 15, 2015 $14.99N/A (N/A)0 .. 20,00000:00 (00:00)Individual SoftwareIndividual Software
700 Family Tree Heritage Platinum 9 Jul 23, 2015 $29.99N/A (N/A)0 .. 20,00000:00 (00:00)Individual SoftwareIndividual Software
701 Professor Teaches Word 2016 Sep 15, 2015 $9.74N/A (N/A)0 .. 20,00000:00 (00:00)Individual SoftwareIndividual Software
702 Heresy Nov 19, 2015 $19.99N/A (N/A)0 .. 20,00000:00 (00:00)dark made gamesdark made games
703 Perfection of Wisdom Apr 6, 2015 $6.99N/A (N/A)0 .. 20,00000:00 (00:00)14Dimension Enterprise14Dimension Enterprise
704 Unlimited Escape 3 & 4 Double Pack May 21, 2015 $4.99N/A (N/A)0 .. 20,00000:00 (00:00)Carlo D'Apostoli ProjectsStrategy First
705 Valzar Dec 22, 2015 $9.99N/A (N/A)0 .. 20,00000:00 (00:00)Whale NebulaWhale Nebula
706 Egyptian Settlement Gold May 12, 2015 $7.99N/A (N/A)0 .. 20,00000:00 (00:00)magnussoftmagnussoft
707 Production Inc. Dec 31, 2015 $19.99N/A (N/A)0 .. 20,00000:00 (00:00)Solo InstinctSolo Instinct
708 Zxill: A Legend of Time Sep 4, 2015 $6.99N/A (N/A)0 .. 20,00000:00 (00:00)ZXDigital Ltd, Polyquest GamesZXDigital Ltd
709 Unlimited Escape 2 Apr 22, 2015 $3.99N/A (N/A)0 .. 20,00000:00 (00:00)Carlo D'Apostoli ProjectsStrategy First
710 Monkey King Saga Nov 30, 2015 $4.99N/A (N/A)0 .. 20,00000:00 (00:00)T-Rex GamesT-Rex Games
711 Resume Maker for Windows Nov 12, 2015 $12.99N/A (N/A)0 .. 20,00000:00 (00:00)Individual SoftwareIndividual Software
712 RigIT Oct 1, 2015 $8.99N/A (N/A)0 .. 20,00000:00 (00:00)RigITRigIT
713 Hope in Hell Oct 31, 2015 $2.99N/A (N/A)0 .. 20,00000:00 (00:00)Emeryon gamesEmeryon games
714 The Light Empire Dec 2, 2015 $5.99N/A (N/A)0 .. 20,00000:00 (00:00)JemyJemy
715 Nightclub Emporium Aug 7, 2015 $2.99N/A (N/A)20,000 .. 50,00000:00 (00:00)United Independent EntertainmentUnited Independent Entertainment
716 Caribbean Odyssey Nov 12, 2015 $9.99N/A (N/A)0 .. 20,00000:00 (00:00)Imran ArafatReality Gameware
717 Puzzle Expedition Jun 29, 2015 $7.99N/A (N/A)0 .. 20,00000:00 (00:00)Top3LineTop3Line
718 Professor Teaches PowerPoint 2013 & 365 Jul 14, 2015 $9.74N/A (N/A)0 .. 20,00000:00 (00:00)Individual SoftwareIndividual Software
719 Hauntsters Dec 22, 2015 $4.99N/A (N/A)0 .. 20,00000:00 (00:00)Shark Tree StudiosShark Tree Studios
720 UfoPilot : Astro-Creeps Elite May 5, 2015 $4.99N/A (N/A)0 .. 20,00000:00 (00:00)nornware ABnornware AB
721 ScudBuster Dec 18, 2015 $4.99N/A (N/A)0 .. 20,00000:00 (00:00)HyperKat GamesHyperKat Games
722 Professor Teaches Access 2016 Sep 15, 2015 $14.99N/A (N/A)0 .. 20,00000:00 (00:00)Individual SoftwareIndividual Software
723 Mass Vector Nov 24, 2015 $5.99N/A (N/A)0 .. 20,00000:00 (00:00)Moving Pixel GamesMoving Pixel Games
724 Luminoso Apr 17, 2015 $4.99N/A (N/A)0 .. 20,00000:00 (00:00)blizzy Gamesblizzy Games
725 Dungeoncraft Jun 5, 2015 $9.99N/A (N/A)0 .. 20,00000:00 (00:00)ZinnuslZinnusl
726 OVERGRAVITY Jul 24, 2015 $2.99N/A (N/A)0 .. 20,00000:00 (00:00)TinycorpTinycorp
727 Unlimited Escape Feb 5, 2015 $4.99N/A (N/A)0 .. 20,00000:00 (00:00)Carlo D'Apostoli ProjectsStrategy First
728 Coated Aug 25, 2015 $4.99N/A (N/A)0 .. 20,00000:00 (00:00)mamoniem, OwlnightOwlnight
729 Death Pirate Jun 8, 2015 $3.99N/A (N/A)0 .. 20,00000:00 (00:00)Singe StudioSinge Studio
730 Ironkraft - Road to Hell Oct 22, 2015 $9.99N/A (N/A)0 .. 20,00000:00 (00:00)Invoker StudiosInvoker Studios
731 Vortex Jul 17, 2015 $4.99N/A (N/A)0 .. 20,00000:00 (00:00)Displace MediaDisplace Media
732 Datswer Feb 4, 2015 $3.99N/A (N/A)0 .. 20,00000:00 (00:00)Behtam DeveloperBehtam Developer, UK VENUS
733 CHARIOT WARS May 25, 2015 $6.99N/A (N/A)0 .. 20,00000:00 (00:00)OM ENTERTAINMENTOM ENTERTAINMENT
734 Zone 22 Jul 31, 2015 $7.99N/A (N/A)0 .. 20,00000:00 (00:00)Nordic LegacyNordic Legacy
735 Prison Tycoon Alcatraz May 11, 2015 $9.99N/A (N/A)0 .. 20,00000:00 (00:00)ValuSoftCosmi Valusoft
736 Aspectus: Rinascimento Chronicles May 4, 2015 $3.99N/A (N/A)0 .. 20,00000:00 (00:00)DGformDGform
737 DNO Rasa's Journey Jun 1, 2015 $2.99N/A (N/A)0 .. 20,00000:00 (00:00)EZDesignerEZDesigner
738 Dolguth Oct 20, 2015 $5.99N/A (N/A)0 .. 20,00000:00 (00:00)Boiagames20Tab
739 Questria: Rise of the Robot Skullfaces Nov 9, 2015 $9.99N/A (N/A)0 .. 20,00000:00 (00:00)AltImage GamesAltImage Games
740 Virtual Orator May 1, 2015 $199.99N/A (N/A)0 .. 20,00000:00 (00:00)Virtual Human TechnologiesVirtual Human Technologies
741 最強の囲碁 ~名人への道~ / Igo Meijin Jan 30, 2015 $79.99N/A (N/A)0 .. 20,00000:00 (00:00)UNBALANCE CorporationUNBALANCE Corporation
742 Band of Drones Mar 25, 2015 $7.99N/A (N/A)0 .. 20,00000:00 (00:00)Kiritsu GamesKiritsu Games
743 Professor Teaches Windows 8.1 Jun 10, 2015 $9.99N/A (N/A)0 .. 20,00000:00 (00:00)Individual SoftwareIndividual Software
744 The Makeshifter Aug 21, 2015 $8.99N/A (N/A)0 .. 20,00000:00 (00:00)Squirrel PhysicsSquirrel Physics
745 Voxel Blast Oct 22, 2015 $2.99N/A (N/A)0 .. 20,00000:00 (00:00)Ceiba Software and ArtsCeiba Software and Arts
746 Haunted Hotel: Phoenix Collector's Edition Aug 22, 2015 $9.99N/A (N/A)0 .. 20,00000:00 (00:00)Elephant GamesBig Fish Games
747 SuperBike TT Feb 25, 2015 $12.99N/A (N/A)0 .. 20,00000:00 (00:00)Ghost MachineGhost Machine
748 The Ultimate Showdown Sep 16, 2015 N/AN/A (N/A)0 .. 20,00000:00 (00:00)Harrison WaltersSole Propriotership
749 Magnetron Nov 16, 2015 $5.99N/A (N/A)0 .. 20,00000:00 (00:00)Jay-RunJay-Run
750 Call of the Ninja! Feb 16, 2015 $6.99N/A (N/A)0 .. 20,00000:00 (00:00)Lee PageTeraBit Software
751 Oncoming Death Steam Edition Oct 12, 2015 $0.99N/A (N/A)0 .. 20,00000:00 (00:00)David Vogt, Christoph WinklerShit-Happens-Software
752 Revenge: Rhobar's myth Sep 8, 2015 $4.99N/A (N/A)0 .. 20,00000:00 (00:00)Polygon ArtPolygon Art
753 CONTASION 2 Nov 29, 2015 $6.99N/A (N/A)0 .. 20,00000:00 (00:00)Alex WoodcockAlex Woodcock
754 InsanZ - Retro Survival Horror Apr 27, 2015 $6.99N/A (N/A)20,000 .. 50,00000:00 (00:00)SimplexGameStudioSimplexGameStudio
755 The Empty Inn Jul 10, 2015 $3.99N/A (N/A)0 .. 20,00000:00 (00:00)Candlelight StudiosCandlelight Studios
756 The Lost City Of Malathedra Mar 31, 2015 $6.99N/A (N/A)0 .. 20,00000:00 (00:00)Ethereal Darkness InteractiveStrategy First
757 Rock, the Tree Hugger Jul 30, 2015 $4.99N/A (N/A)20,000 .. 50,00000:00 (00:00)Machineman1357, Phanom GamesMachineman1357, Phanom Games
758 Terminal Hacker - Into the Deep Oct 30, 2015 $1.99N/A (N/A)0 .. 20,00000:00 (00:00)SecuritySession.comSecuritySession.com
759 HoD: On open seas Jul 20, 2015 $0.99N/A (N/A)0 .. 20,00000:00 (00:00)Pirate goup mediaPirate group media
760 Luxury Hotel Emporium Aug 7, 2015 $3.99N/A (N/A)0 .. 20,00000:00 (00:00)United Independent EntertainmentUnited Independent Entertainment
761 Evolution II: Fighting for Survival Feb 12, 2015 $1.99N/A (N/A)0 .. 20,00000:00 (00:00)LiveItGames LLCLiveItGames LLC
762 Voodoo Chronicles: The First Sign HD - Director’s Cut Edition May 28, 2015 $6.99N/A (N/A)0 .. 20,00000:00 (00:00)Space Monkey International1C Online Games
763 栄冠は君に レジェンドパック Jan 8, 2015 $34.99N/A (N/A)0 .. 20,00000:00 (00:00)ARTDINKKOMODO
764 Gene Jan 30, 2015 $3.99N/A (N/A)0 .. 20,00000:00 (00:00)Vital Games LtdVital Games Ltd
765 Star Balls Aug 18, 2015 $4.99N/A (N/A)0 .. 20,00000:00 (00:00)Bolder GamesBolder Games
766 Fragmentum Dec 2, 2015 $1.99N/A (N/A)0 .. 20,00000:00 (00:00)Lundar GamesLundar Games
767 Spheritis Jun 4, 2015 $4.99N/A (N/A)0 .. 20,00000:00 (00:00)BluestrikeBluestrike
768 House of Nightmares B-Movie Edition Apr 22, 2015 $0.99N/A (N/A)0 .. 20,00000:00 (00:00)Morphodox StudiosMorphodox Studios
769 Professor Teaches Windows 10 Jul 29, 2015 $14.99N/A (N/A)0 .. 20,00000:00 (00:00)Individual SoftwareIndividual Software
770 TNN Motorsports Hardcore TR Aug 10, 2015 N/AN/A (N/A)0 .. 20,00000:00 (00:00)ASC GamesConsole Classics
771 Axes and Arrows Oct 8, 2015 $2.99N/A (N/A)20,000 .. 50,00000:00 (00:00)The Net ChampsThe Net Champs
772 Zombien Mar 6, 2015 $6.99N/A (N/A)0 .. 20,00000:00 (00:00)Hosted GamesHosted Games
773 Soda Star May 14, 2015 $3.99N/A (N/A)20,000 .. 50,00000:00 (00:00)Tiny UtopiaTiny Utopia
774 Snapshot - DSLR Camera Control Jul 23, 2015 $2.99N/A (N/A)0 .. 20,00000:00 (00:00)Chris HopkinChris Hopkin
775 Blues and Bullets - Digital Comic Jul 22, 2015 $2.99N/A (N/A)0 .. 20,00000:00 (00:00)A Crowd of MonstersA Crowd of Monsters
776 Tick: The Time Based Puzzle Game Aug 20, 2015 $2.99N/A (N/A)0 .. 20,00000:00 (00:00)Fingertip Games UKFingertip Games UK
777 Spectrum: First Light Jul 24, 2015 $9.99N/A (N/A)0 .. 20,00000:00 (00:00)Mido Basim, Danny WeiMido Basim
778 Nirvana: The First Travel Jul 31, 2015 $3.99N/A (N/A)0 .. 20,00000:00 (00:00)Jardel EliasJardel Elias
779 In The Dead Of Night - Urszula's Revenge Dec 18, 2015 $4.99N/A (N/A)0 .. 20,00000:00 (00:00)Axed Game StudioAxed Game Studio
780 Maraiyum: Rise of the Setting Sun Aug 1, 2015 $5.99N/A (N/A)0 .. 20,00000:00 (00:00)Humdrum Software LLCHumdrum Software LLC
781 Wildlife Creative Studio Jan 28, 2015 $6.99N/A (N/A)0 .. 20,00000:00 (00:00)Alternative Software LtdAlternative Software Ltd
782 Toy Wars Invasion May 28, 2015 $11.99N/A (N/A)0 .. 20,00000:00 (00:00)Web Interactive SolutionsWeb Interactive Solutions
783 Geared May 15, 2015 $2.99N/A (N/A)0 .. 20,00000:00 (00:00)Playful Art, LLCPlayful Art, LLC
784 SBX: Invasion Jun 1, 2015 $1.99N/A (N/A)20,000 .. 50,00000:00 (00:00)Jason CarterWakeskater Studio
785 SnarfQuest Tales Sep 15, 2015 $19.99N/A (N/A)0 .. 20,00000:00 (00:00)Cellbloc StudiosCellbloc Studios
786 Fork Truck Challenge Jul 24, 2015 $7.99N/A (N/A)0 .. 20,00000:00 (00:00)Mint Arcade Ltd.Mint Arcade Ltd.
787 Blasted Fortress Jan 8, 2015 $4.99N/A (N/A)0 .. 20,00000:00 (00:00)Wrench LaboratoriesWrench Laboratories
788 STOORM - Full Edition. Apr 28, 2015 N/AN/A (N/A)0 .. 20,00000:00 (00:00)Garage Monkey StudioGarage Monkey Studio
789 Shmup Love Boom Sep 18, 2015 $2.99N/A (N/A)0 .. 20,00000:00 (00:00)Dharker StudiosDharker Studios
790 Legend of Moros May 21, 2015 $4.99N/A (N/A)0 .. 20,00000:00 (00:00)Cannibal InteractiveCannibal Interactive
791 Second Coming: Tactical Training Apr 30, 2015 $4.99N/A (N/A)0 .. 20,00000:00 (00:00)Modern Paradise Media Inc.Modern Paradise Media Inc.
792 Rktcr May 12, 2015 $4.99N/A (N/A)0 .. 20,00000:00 (00:00)TCHOWTCHOW
793 Ongaku May 29, 2015 $2.99N/A (N/A)0 .. 20,00000:00 (00:00)SmashMouth Games LtdSmashMouth Games Ltd
794 Knight & Damsel Aug 20, 2015 $9.99N/A (N/A)0 .. 20,00000:00 (00:00)MK-ULTRA GamesMK-ULTRA Games
795 Prometheus - The Fire Thief Apr 20, 2015 $4.99N/A (N/A)0 .. 20,00000:00 (00:00)Magical HackersMagical Hackers
796 Floors of Discomfort May 26, 2015 $1.99N/A (N/A)0 .. 20,00000:00 (00:00)Three Prong ProductionsThree Prong Productions
797 Exostorm May 15, 2015 $3.99N/A (N/A)0 .. 20,00000:00 (00:00)Midnight Oil Games, LLCMidnight Oil Games, LLC
798 Mystery Trackers: Nightsville Horror Collector's Edition May 28, 2015 $9.99N/A (N/A)0 .. 20,00000:00 (00:00)Elephant GamesBig Fish Games
799 Mass Destruction Aug 24, 2015 $8.99N/A (N/A)0 .. 20,00000:00 (00:00)NMS SoftwareConsole Classics
800 Actua Golf 3 Aug 31, 2015 N/AN/A (N/A)0 .. 20,00000:00 (00:00)UrbanscanConsole Classics
801 Battletank LOBA Mar 17, 2015 $9.99N/A (N/A)0 .. 20,00000:00 (00:00)Five Archers GamesStrategy First
802 gShift Aug 25, 2015 $0.99N/A (N/A)0 .. 20,00000:00 (00:00)deadweight gamesNEXUS Studios, Inc.
803 Siege of Turtle Enclave Feb 13, 2015 $4.99N/A (N/A)0 .. 20,00000:00 (00:00)The Conjurer's TowerThe Conjurer's Tower
804 Catorize Nov 11, 2015 $2.99N/A (N/A)0 .. 20,00000:00 (00:00)Anima LocusAnima Locus
805 Spellbind Mar 17, 2015 $9.99N/A (N/A)0 .. 20,00000:00 (00:00)Point2Point EntertainmentStrategy First
806 Man Alive May 25, 2015 $4.99N/A (N/A)0 .. 20,00000:00 (00:00)Global Empire SoftGlobal Empire Soft
807 QuestEvent Sep 9, 2015 $2.99N/A (N/A)0 .. 20,00000:00 (00:00)FivangFivang
808 SLIDE: platformer Jul 16, 2015 $4.99N/A (N/A)0 .. 20,00000:00 (00:00)APAS gamesAPAS games
809 Lucid Awakening 2 Jan 7, 2015 $8.99N/A (N/A)0 .. 20,00000:00 (00:00)Momiji StudiosMomiji Studios
810 FALL Dec 17, 2015 N/AN/A (N/A)0 .. 20,00000:00 (00:00)NorthbrainNorthbrain
811 Raining Coins Jan 18, 2015 $3.99N/A (N/A)0 .. 20,00000:00 (00:00)Crazysoft LimitedCrazysoft Limited
812 Rothschild: The Sheep Will Wake Nov 23, 2015 $9.99N/A (N/A)0 .. 20,00000:00 (00:00)Loudpak StudiosLoudpak Studios
813 History in Letters - The Eternal Alchemist Dec 8, 2015 $7.99N/A (N/A)0 .. 20,00000:00 (00:00)Z-SoftwareZ-Software GmbH
814 Nature Defenders Dec 21, 2015 $4.99N/A (N/A)0 .. 20,00000:00 (00:00)Nordic Mist GamesNordic Mist Games
815 CastleAbra Jun 5, 2015 $0.99N/A (N/A)20,000 .. 50,00000:00 (00:00)CastleAbra StudiosCastleAbra Studios
816 The Logomancer Aug 4, 2015 $3.99N/A (N/A)0 .. 20,00000:00 (00:00)Jeffrey Nordin, Justin NordinJeffrey Nordin
817 The Worm Sep 29, 2015 $2.99N/A (N/A)0 .. 20,00000:00 (00:00)Carlo D'Apostoli ProjectsStrategy First
818 GravBlocks Dec 16, 2015 $1N/A (N/A)0 .. 20,00000:00 (00:00)From Nothing Game StudiosFrom Nothing Game Studios
819 Cell HD: emergence Feb 19, 2015 $5.99N/A (N/A)0 .. 20,00000:00 (00:00)New Life Interactive, LLCNew Life Interactive, LLC
820 Chronoclysm Nov 12, 2015 $4.99N/A (N/A)0 .. 20,00000:00 (00:00)Zed-exZed-ex
821 Doomed'n Damned Jul 13, 2015 $5.99N/A (N/A)0 .. 20,00000:00 (00:00)Arc-genArc-gen
822 INIT. Aug 19, 2015 $0.99N/A (N/A)0 .. 20,00000:00 (00:00)Narrow MonolithNarrow Monolith
823 Purgatory: War of the Damned Feb 11, 2015 $14.99N/A (N/A)0 .. 20,00000:00 (00:00)Ironsun StudiosKISS ltd
824 Witches, Heroes and Magic Jun 29, 2015 $7.99N/A (N/A)0 .. 20,00000:00 (00:00)Michael SwanAweSwan
825 Super Space Meltdown Jul 31, 2015 $3.99N/A (N/A)0 .. 20,00000:00 (00:00)Polyquest Games, ZXDigital LtdZXDigital Ltd
826 The Legend of Candlewind: Nights & Candles Feb 12, 2015 $9.99N/A (N/A)20,000 .. 50,00000:00 (00:00)Atmosphere Entertainment Studios2tainment GmbH
827 Drone Zero Gravity Oct 2, 2015 $9.99N/A (N/A)0 .. 20,00000:00 (00:00)Isaac NicholsIsaac Nichols
828 Icebound Aug 5, 2015 $14.99N/A (N/A)0 .. 20,00000:00 (00:00)Fastermind GamesFastermind Games
829 Mysteries & Nightmares: Morgiana Apr 13, 2015 $7.99N/A (N/A)0 .. 20,00000:00 (00:00)Little Games CompanyLittle Games Company
830 Amos From Outer Space Oct 5, 2015 $2.99N/A (N/A)0 .. 20,00000:00 (00:00)Poisson Rouge Interactica ltdPoisson Rouge Interactica ltd
831 Quantum Lock Dec 14, 2015 $5.99N/A (N/A)0 .. 20,00000:00 (00:00)FAT BOMB STUDIOS, LLCFAT BOMB STUDIOS, LLC
832 Birth of Shadows Nov 5, 2015 $4.99N/A (N/A)0 .. 20,00000:00 (00:00)Precision Games, LLCPrecision Games, LLC
833 Celestrion Dec 7, 2015 $0.99N/A (N/A)0 .. 20,00000:00 (00:00)dSky9, Inc.dSky9, Inc.
834 عالم أريب Nov 2, 2015 $54.99N/A (N/A)0 .. 20,00000:00 (00:00)Remal ITRemal IT
835 MicroRC Simulation Dec 15, 2015 $1.99N/A (N/A)0 .. 20,00000:00 (00:00)Minindustries Game FactoryMinindustries Game Factory
836 Brain Guzzler: The End Is Nigh May 14, 2015 $0.99N/A (N/A)0 .. 20,00000:00 (00:00)Flaming Pumpkin LtdFlaming Pumpkin Ltd
837 StartBolita Jul 30, 2015 $9.99N/A (N/A)20,000 .. 50,00000:00 (00:00)549gamestudio549gamestudio
838 Tower of Eglathia Apr 6, 2015 $3.99N/A (N/A)0 .. 20,00000:00 (00:00)Lord EglathiaEglathia Games
839 Heart of Ember CH1 Jul 27, 2015 $1.99N/A (N/A)0 .. 20,00000:00 (00:00)Animation CatalystAnimation Catalyst
840 Goggles - World of Vaporia Oct 9, 2015 $7.99N/A (N/A)20,000 .. 50,00000:00 (00:00)Bit2Good UgBit2Good Ug
841 Funtoon's World May 1, 2015 $4.99N/A (N/A)0 .. 20,00000:00 (00:00)Yash Future Tech Solutions Pvt LtdYash Future Tech Solutions Pvt Ltd
842 Starlord Nov 13, 2015 $6.99N/A (N/A)0 .. 20,00000:00 (00:00)Third Millenium SoftwareAtari, Nightdive Studios
843 Fatty Maze's Adventures Feb 19, 2015 $5.99N/A (N/A)0 .. 20,00000:00 (00:00)Five CubedT.G.S. TRUE GAMES STUDIO LIMITED
844 Wicked Witches Nov 27, 2015 $9.99N/A (N/A)0 .. 20,00000:00 (00:00)Ectoplasm Studio Inc.Ectoplasm Studio Inc.
845 Rotieer Mar 5, 2015 $2.99N/A (N/A)0 .. 20,00000:00 (00:00)Enzo WhyteEnzo Whyte
846 Mystery Maze Of Balthasar Castle Jul 10, 2015 $4.99N/A (N/A)0 .. 20,00000:00 (00:00)Caipirinha Games, DevQ1Libredia
847 TOTM Feb 3, 2015 $7.99N/A (N/A)0 .. 20,00000:00 (00:00)Juniper GamesJuniper GmbH
848 Hatland Adventures Feb 3, 2015 $2.99N/A (N/A)0 .. 20,00000:00 (00:00)Fractal AlligatorFractal Alligator
849 Martial Law May 26, 2015 N/AN/A (N/A)0 .. 20,00000:00 (00:00)DropDGamesDropDGames
850 Soccer Pinball Thrills Jun 26, 2015 $2.99N/A (N/A)0 .. 20,00000:00 (00:00)Fancy Bytes, ReactorUnited Independent Entertainment
851 Trucker 2 Aug 14, 2015 $2.99N/A (N/A)0 .. 20,00000:00 (00:00)SildenPlay Publishing
852 Flight Unlimited Las Vegas Jul 8, 2015 $2.99N/A (N/A)0 .. 20,00000:00 (00:00)Flight Systems LLCFlight Systems LLC
853 Invisible Apartment 2 Sep 24, 2015 $4.99N/A (N/A)0 .. 20,00000:00 (00:00)Milan Kazarka, Jeroen van OostenVysoko Anime Production
854 Warlock's Citadel Oct 9, 2015 N/AN/A (N/A)0 .. 20,00000:00 (00:00)Byte-UP Co., ltd.Byte-UP Co., ltd.
855 Dr. Bulbaceous Nov 19, 2015 $3.99N/A (N/A)0 .. 20,00000:00 (00:00)WetgenesWetgenes
856 inSynch Sep 30, 2015 $4.99N/A (N/A)0 .. 20,00000:00 (00:00)Them GamesThem Games
857 Christmas Mahjong 2 Dec 10, 2015 $4.99N/A (N/A)0 .. 20,00000:00 (00:00)Creobit8floor
858 Lighthockey Oct 30, 2015 $1.99N/A (N/A)0 .. 20,00000:00 (00:00)Aries-LenovAries-Lenov
859 Nulldrifters Dec 14, 2015 $1.99N/A (N/A)0 .. 20,00000:00 (00:00)Cliax GamesCliax Games
860 My Family Creative Studio Jan 28, 2015 $6.99N/A (N/A)0 .. 20,00000:00 (00:00)Alternative Software LtdAlternative Software Ltd
861 Janky Tanks Feb 12, 2015 $4.99N/A (N/A)0 .. 20,00000:00 (00:00)Hyper Hippo GamesHyper Hippo Games
862 Troubles Land Sep 11, 2015 $4.99N/A (N/A)0 .. 20,00000:00 (00:00)ENKSoftENKSoft
863 Gamefuel Driver Control Dec 10, 2015 N/AN/A (N/A)20,000 .. 50,00000:00 (00:00)Auslogics SoftwareConsole Classics
864 Vector Assault Dec 10, 2015 $4.99N/A (N/A)20,000 .. 50,00000:00 (00:00)WizByte GamesWizByte Games
865 Unheard Screams - King Leopold II's Rule Over The Congo May 11, 2015 $2.99N/A (N/A)0 .. 20,00000:00 (00:00)LocomotivahLocomotivah
866 ReLoaded Jul 24, 2015 N/AN/A (N/A)0 .. 20,00000:00 (00:00)UrbanscanConsole Classics
867 Professor Why: The Quantum Eye Dec 1, 2015 $9.99N/A (N/A)0 .. 20,00000:00 (00:00)Professor WhyProfessor Why
868 Dexterity Ball 3D Dec 7, 2015 $6.99N/A (N/A)0 .. 20,00000:00 (00:00)Quandary Solutions LTDQuandary Solutions LTD
869 Super Pixalo Feb 3, 2015 $0.99N/A (N/A)0 .. 20,00000:00 (00:00)Philip RoyerPhilip Royer
870 Pocket God vs Desert Ashes Aug 19, 2015 $4.99N/A (N/A)0 .. 20,00000:00 (00:00)Nine Tales Digital, Bolt CreativeNine Tales Digital
871 Two Steps Back Aug 6, 2015 $2.99N/A (N/A)0 .. 20,00000:00 (00:00)Kristen CheelyKristen Cheely
872 Fruits Inc. Deluxe Pack Feb 19, 2015 $5.99N/A (N/A)0 .. 20,00000:00 (00:00)Manifesto Game StudioStrategy First
873 The Glow Dec 10, 2015 $3.99N/A (N/A)0 .. 20,00000:00 (00:00)Brainwashing gamesBrainwashing games
874 Red Bit Ninja May 4, 2015 $4.99N/A (N/A)0 .. 20,00000:00 (00:00)Seven Sails GamesSeven Sails Games
875 Russian Front Jul 23, 2015 $14.99N/A (N/A)20,000 .. 50,00000:00 (00:00)Electric RuneHunted Cow Games
876 You Are Not The Hero Jun 2, 2015 $14.99N/A (N/A)0 .. 20,00000:00 (00:00)ToMorning ProductionsToMorning Productions
877 TAKEN Jul 7, 2015 $1.99N/A (N/A)0 .. 20,00000:00 (00:00)Undead Yeti SoftwareMath Nerd Productions, LLC
878 BEARZERKERS Oct 23, 2015 $12.99N/A (N/A)0 .. 20,00000:00 (00:00)WildgrassWildgrass
879 The Electric Shocktopus Jan 25, 2015 $6.99N/A (N/A)0 .. 20,00000:00 (00:00)TestTubeGamesTestTubeGames
880 Haunted Hotel: Eternity Collector's Edition May 27, 2015 $9.99N/A (N/A)20,000 .. 50,00000:00 (00:00)Elephant GamesBig Fish Games
881 Grim Tales: The Final Suspect Collector's Edition May 17, 2015 $9.99N/A (N/A)0 .. 20,00000:00 (00:00)Elephant GamesBig Fish Games
882 Snails May 1, 2015 FreeN/A (N/A)20,000 .. 50,00000:00 (00:00)Jorge Lima, Alexandre Fontoura2Brains Games
883 Steamalot: Epoch's Journey Aug 31, 2015 $4.99N/A (N/A)0 .. 20,00000:00 (00:00)Risen Phoenix StudiosRisen Phoenix Studios
884 Dawn of the Plow Nov 3, 2015 $3.99N/A (N/A)0 .. 20,00000:00 (00:00)Dan FitzGerald, TrichotomyDan FitzGerald, Trichotomy
885 Everything is Black and White Apr 23, 2015 $1.99N/A (N/A)0 .. 20,00000:00 (00:00)Thomas GwaltneyThomas Gwaltney
886 Quatro Luzes Nov 15, 2015 $5.99N/A (N/A)0 .. 20,00000:00 (00:00)Jardel EliasJardel Elias
887 Freedom Poopie Nov 20, 2015 $2.99N/A (N/A)0 .. 20,00000:00 (00:00)Electroplasmatic GamesElectroplasmatic Games
888 Carrotting Brain Oct 23, 2015 $8.99N/A (N/A)0 .. 20,00000:00 (00:00)Raving BotsRaving Bots
889 Challenge of the Five Realms: Spellbound in the World of Nhagardia Apr 1, 2015 $6.99N/A (N/A)0 .. 20,00000:00 (00:00)MicroProse Software, IncAtari, Nightdive Studios
890 Super Goo Goo Apr 16, 2015 $2.99N/A (N/A)0 .. 20,00000:00 (00:00)Greg Lobanov
891 WolfWars Jan 2, 2015 $2.99N/A (N/A)0 .. 20,00000:00 (00:00)Peter HrdyPeter Hrdy
892 Hunter Gatherer Mar 24, 2015 $1.99N/A (N/A)0 .. 20,00000:00 (00:00)Hunter Gatherer GamesHunter Gatherer Games
893 Downpour May 14, 2015 $0.99N/A (N/A)0 .. 20,00000:00 (00:00)Modesto A. RabenaDivergent Game Studio
894 Atlantic Quest Solitaire Jun 22, 2015 $8.99N/A (N/A)0 .. 20,00000:00 (00:00)familyplay
895 Choice of the Petal Throne Apr 10, 2015 $4.99N/A (N/A)0 .. 20,00000:00 (00:00)Choice of GamesChoice of Games
896 Galaxy Union Jun 1, 2015 $4.99N/A (N/A)20,000 .. 50,00000:00 (00:00)cybercriticscybercritics
897 Judgement Sep 15, 2015 $4.99N/A (N/A)0 .. 20,00000:00 (00:00)Nathan Archer, Luke Brown, Dan KramerNewfa Games
898 Orc Slayer Nov 5, 2015 $1.99N/A (N/A)0 .. 20,00000:00 (00:00)Cooply SolutionsCooply Solutions
899 Lonath Online Oct 16, 2015 N/AN/A (N/A)0 .. 20,00000:00 (00:00)4NetGames4NetGames
900 MagNets Jan 30, 2015 $7.99N/A (N/A)0 .. 20,00000:00 (00:00)Total MonkeryTotal Monkery
901 Jaques Roque Apr 1, 2015 $8.99N/A (N/A)0 .. 20,00000:00 (00:00)Thomas Schreiter, Dirk Schreiter, Jörg Winterstein, Peer Draeger, Gereon BartelAugusta Software GmbH
902 Mahjong Magic Journey 3 Dec 12, 2015 $2.99N/A (N/A)20,000 .. 50,00000:00 (00:00)Creobit8floor
903 Bass Blocks Sep 15, 2015 $4.99N/A (N/A)0 .. 20,00000:00 (00:00)Paul CooneyPaul Cooney
904 Dissonance: An Interactive Novelette Dec 1, 2015 $0.99N/A (N/A)0 .. 20,00000:00 (00:00)Philip RoyerPhilip Royer
905 Con Amore Nov 28, 2015 $4.99N/A (N/A)0 .. 20,00000:00 (00:00)Team TajuWronghut
906 Knight of the Hamsters Apr 15, 2015 $0.99N/A (N/A)0 .. 20,00000:00 (00:00)Johnny Death GamesRed Fly Studio
907 Tile Rider Jun 4, 2015 $3.99N/A (N/A)0 .. 20,00000:00 (00:00)7 Soft Pillows7 Soft Pillows
908 Louie Cooks Nov 10, 2015 $4.99N/A (N/A)0 .. 20,00000:00 (00:00)starlit studios, http://starlit-studio.com/starlit studios, http://starlit-studio.com/
909 Poppy Kart Oct 9, 2015 $4.99N/A (N/A)0 .. 20,00000:00 (00:00)Stephane Graziano, Franck Graziano, Mathieu LamarcheWebrox
910 The Forgotten Forest Nov 11, 2015 $0.99N/A (N/A)0 .. 20,00000:00 (00:00)Dylan WentzDylan Wentz
911 ATLAS レジェンドパック Jan 8, 2015 $24.99N/A (N/A)0 .. 20,00000:00 (00:00)ARTDINKKOMODO
912 Diamond Deeps Jun 1, 2015 $4.99N/A (N/A)0 .. 20,00000:00 (00:00)BIT-GENBIT-GEN
913 Icarus-X: Tides of Fire Jun 24, 2015 $4.99N/A (N/A)0 .. 20,00000:00 (00:00)The QuadsphereThe Quadsphere
914 Invisible Apartment Zero Sep 24, 2015 $3.99N/A (N/A)0 .. 20,00000:00 (00:00)Jeroen van Oosten, Milan KazarkaVysoko Anime Production
915 Fury Of The Gods Jun 4, 2015 $2.99N/A (N/A)0 .. 20,00000:00 (00:00)Spectral GamesLibredia
916 Paparazzi Feb 17, 2015 $1.99N/A (N/A)0 .. 20,00000:00 (00:00)Pringo Dingo GamesPringo Dingo Games
917 Rooftop Cop Mar 2, 2015 $2.99N/A (N/A)0 .. 20,00000:00 (00:00)Lawra Suits ClarkIndependent
918 Eisenbahn X Jun 8, 2015 $39.99N/A (N/A)0 .. 20,00000:00 (00:00)TREND, SoftproKoch Media
919 iso-Sphere Nov 13, 2015 $4.99N/A (N/A)0 .. 20,00000:00 (00:00)Mighty Fox StudioMighty Fox Studio
920 3d Engineers Feb 10, 2015 $5.99N/A (N/A)0 .. 20,00000:00 (00:00)Robert DahlenburgDahlenburg
921 Break the Cube Jan 26, 2015 $0.99N/A (N/A)0 .. 20,00000:00 (00:00)Raxi PetrovRaxi Petrov
922 Relativity Wars - A Science Space RTS Apr 10, 2015 $5.99N/A (N/A)20,000 .. 50,00000:00 (00:00)Fungameco LtdFungameco Ltd
923 3d Bridges Mar 23, 2015 $3.99N/A (N/A)0 .. 20,00000:00 (00:00)Robert DahlenburgDahlenburg
924 Tactical Soccer The New Season Nov 20, 2015 $9.99N/A (N/A)0 .. 20,00000:00 (00:00)EGCLKISS ltd
925 BattleQuiz Sep 3, 2015 $2.99N/A (N/A)0 .. 20,00000:00 (00:00)Rhema GroupPlay sp. z o. o.
926 CHAOS - In the Darkness Oct 7, 2015 $7.99N/A (N/A)0 .. 20,00000:00 (00:00)4Realms4Realms
927 Island Flight Simulator Apr 17, 2015 $6.99N/A (N/A)0 .. 20,00000:00 (00:00)Caipirinha GamesLibredia
928 ABD: A Beautiful Day Aug 14, 2015 $24.99N/A (N/A)0 .. 20,00000:00 (00:00)Robert Bonner, Jack Hanley, Ben Rawles, Boris BlosseGag A Maggot Entertainment, LLC.
929 Caffeine Oct 12, 2015 $10.99N/A (N/A)0 .. 20,00000:00 (00:00)Incandescent ImagingIncandescent Imaging
930 One Final Chaos Oct 21, 2015 $4.99N/A (N/A)0 .. 20,00000:00 (00:00)Pusselbit, Sweet Studio LabsA Sweet Studio
931 Daily Espada Sep 30, 2015 $9.99N/A (N/A)0 .. 20,00000:00 (00:00)PidrohPidroh
932 The BoX Dec 7, 2015 $2.99N/A (N/A)0 .. 20,00000:00 (00:00)White Clover WorldsWhite Clover Inc.
933 Impulse Revolution Sep 9, 2015 $6.99N/A (N/A)0 .. 20,00000:00 (00:00)MandlebarMandlebar
934 Professor Why Chemistry 1 Oct 13, 2015 $9.99N/A (N/A)0 .. 20,00000:00 (00:00)Professor WhyProfessor Why
935 Decromancer Oct 13, 2015 $9.99N/A (N/A)0 .. 20,00000:00 (00:00)UNIT9UNIT9
936 Haunted Hotel: The X Collector's Edition Nov 12, 2015 $9.99N/A (N/A)0 .. 20,00000:00 (00:00)Elephant GamesBig Fish Games
937 Sun Dogs Oct 29, 2015 $9.99N/A (N/A)0 .. 20,00000:00 (00:00)Royal PolygonRoyal Polygon
938 Jane's Realty Oct 21, 2015 $2.99N/A (N/A)0 .. 20,00000:00 (00:00)QumaronQumaron
939 Parallels Nov 13, 2015 $0.99N/A (N/A)0 .. 20,00000:00 (00:00)RisingHighRisingHigh
940 Signal to Noise Nov 20, 2015 $4.99N/A (N/A)0 .. 20,00000:00 (00:00)Solanimus Inc.Solanimus Inc.
941 SkyScrappers Oct 15, 2015 $9.99N/A (N/A)0 .. 20,00000:00 (00:00)Ground ShatterGround Shatter
942 Hostile Dimension Jun 25, 2015 $1.99N/A (N/A)0 .. 20,00000:00 (00:00)Alrauna StudiosPlay sp. z o. o.
943 Bernie Needs Love Aug 21, 2015 $2.99N/A (N/A)0 .. 20,00000:00 (00:00)Protomni MultimediaProtomni Multimedia
944 Isaac the Adventurer Mar 2, 2015 $2.99N/A (N/A)0 .. 20,00000:00 (00:00)Artisiti, Studio VrtinecArtisiti
945 Amygdala Jul 15, 2015 $9.99N/A (N/A)0 .. 20,00000:00 (00:00)MachineSpiritMachineSpirit
946 Karma Jul 14, 2015 $0.99N/A (N/A)0 .. 20,00000:00 (00:00)WnMStudioWnMStudio
947 D/Generation HD Oct 23, 2015 $9.99N/A (N/A)0 .. 20,00000:00 (00:00)West Coast SoftwareWest Coast Software
948 Box Out! May 4, 2015 $6.99N/A (N/A)0 .. 20,00000:00 (00:00)Da Picky MonkeyDa Picky Monkey
949 Alchemist Penguin Jun 6, 2015 $1.99N/A (N/A)0 .. 20,00000:00 (00:00)Foot in the Box, LLCFoot in the Box, LLC
950 Bleeding Blocks Sep 5, 2015 $1.99N/A (N/A)0 .. 20,00000:00 (00:00)Killer Teapot GamesKiller Teapot Games
951 Destructamundo Jan 28, 2015 $4.99N/A (N/A)0 .. 20,00000:00 (00:00)MiniVisionsChoice Provisions
952 Pavel Quest May 13, 2015 N/AN/A (N/A)0 .. 20,00000:00 (00:00)ElevenSeventy, LLCElevenSeventy, LLC
953 Titanis Jun 8, 2015 $4.99N/A (N/A)0 .. 20,00000:00 (00:00)Silver Goblet GamesSilver Goblet Games
954 The Eigengrau Menagerie Jun 4, 2015 N/AN/A (N/A)0 .. 20,00000:00 (00:00)Ozzie SneddonLibrarium Studios
955 Helena The 3rd May 1, 2015 $0.99N/A (N/A)0 .. 20,00000:00 (00:00)Only Human StudiosOnly Human Studios
956 Phineas and Ferb: New Inventions Feb 24, 2015 $19.99N/A (N/A)0 .. 20,00000:00 (00:00)PIPE StudioDisney
957 Ride the Bullet May 22, 2015 $3.99N/A (N/A)0 .. 20,00000:00 (00:00)Jordan SendarJordan Sendar
958 The Hole Story Jul 13, 2015 $4.99N/A (N/A)0 .. 20,00000:00 (00:00)LearnDistrict Inc., The NegativesLearnDistrict Inc.
959 A-Men 2 Jun 24, 2015 $8.99N/A (N/A)0 .. 20,00000:00 (00:00)Bloober Team SABloober Team SA
960 Raise Your Own Clone Oct 13, 2015 $0.99N/A (N/A)20,000 .. 50,00000:00 (00:00)Tenth&Hess GamesCoaguCo Industries
961 Angels That Kill - The Final Cut Nov 20, 2015 $4.99N/A (N/A)0 .. 20,00000:00 (00:00)Rising Sun InteractiveRising Sun Interactive
962 Shiny Gauntlet Oct 1, 2015 $0.99N/A (N/A)0 .. 20,00000:00 (00:00)SpritewrenchSpritewrench
963 Our Nation's Miner Dec 22, 2015 $5.99N/A (N/A)0 .. 20,00000:00 (00:00)Curtis HoltCurtis Holt
964 Industry Transporters Aug 31, 2015 $9.99N/A (N/A)0 .. 20,00000:00 (00:00)Markus FickMK game production
965 Ice Cream Surfer Jun 22, 2015 $2.99N/A (N/A)0 .. 20,00000:00 (00:00)Dolores EntertainmentDolores Entertainment
966 Jurassic Island: The Dinosaur Zoo Jun 11, 2015 $3.99N/A (N/A)0 .. 20,00000:00 (00:00)FramelinenetworkFramelinenetwork
967 Aqua Panic ! Nov 9, 2015 $7.99N/A (N/A)0 .. 20,00000:00 (00:00)Eko SoftwareEko Software
968 Vindicator: Uprising Jul 3, 2015 $2.99N/A (N/A)0 .. 20,00000:00 (00:00)GamePhaseGamePhase
969 JamG Jul 6, 2015 $9.99N/A (N/A)0 .. 20,00000:00 (00:00)Ernő KirályErnő Király
970 RED Fuse: Rolling Explosive Device Sep 16, 2015 $4.99N/A (N/A)0 .. 20,00000:00 (00:00)Meteor ShockMeteor Shock
971 XO-Planets Oct 23, 2015 $3.99N/A (N/A)0 .. 20,00000:00 (00:00)BohfamBohfam
972 Marble Muse Aug 14, 2015 $4.99N/A (N/A)0 .. 20,00000:00 (00:00)Ketos Games, Shiny Snail LLCShiny Snail LLC
973 Erwin's Timewarp Sep 21, 2015 $9.99N/A (N/A)0 .. 20,00000:00 (00:00)JayanamJayanam
974 SodaCity Dec 8, 2015 $9.99N/A (N/A)0 .. 20,00000:00 (00:00)Tochas StudiosTochas Studios
975 When In Rome Oct 29, 2015 $2.49N/A (N/A)0 .. 20,00000:00 (00:00)QumaronQumaron
976 Superstar Dance Club Aug 4, 2015 $4.99N/A (N/A)0 .. 20,00000:00 (00:00)Atomic PlanetPiko Interactive LLC, Bleem.Net
977 Tidal Affair: Before The Storm Nov 24, 2015 $9.99N/A (N/A)0 .. 20,00000:00 (00:00)OvercurfewOvercurfew
978 The Quivering Jan 28, 2015 $3.99N/A (N/A)20,000 .. 50,00000:00 (00:00)Charybdis LtdAlternative Software Ltd
979 Panda School Browser May 22, 2015 $2.99N/A (N/A)0 .. 20,00000:00 (00:00)Wiseman SoftworksWiseman Softworks
980 Frizzy Dec 23, 2015 $2.99N/A (N/A)0 .. 20,00000:00 (00:00)Team FrizzTeam Frizz
981 Slinki Apr 15, 2015 $0.99N/A (N/A)20,000 .. 50,00000:00 (00:00)Titan Forged GamesTitan Forged Games
982 Reigning Cats Aug 28, 2015 $1.99N/A (N/A)0 .. 20,00000:00 (00:00)Myra D'AnnMyra D'Ann
983 Deliverance Aug 31, 2015 $4.99N/A (N/A)0 .. 20,00000:00 (00:00)TBDTS GamesTBDTS Games
984 Owys Aug 25, 2015 $0.99N/A (N/A)0 .. 20,00000:00 (00:00)Gameware StudiosGameware Studios
985 Solar System Conflict Apr 6, 2015 $9.99N/A (N/A)0 .. 20,00000:00 (00:00)UnexEvoUnexEvo
986 Fantastic Pinball Thrills Jun 26, 2015 $3.99N/A (N/A)20,000 .. 50,00000:00 (00:00)Fancy Bytes, ReactorUnited Independent Entertainment
987 Human Extinction Simulator Jan 21, 2015 $19.99N/A (N/A)20,000 .. 50,00000:00 (00:00)Machine 22Machine 22
988 Hush Jul 29, 2015 $9.99N/A (N/A)0 .. 20,00000:00 (00:00)Game Studio 78Game Studio 78
989 Kagura Douchuuki Oct 22, 2015 $13.99N/A (N/A)0 .. 20,00000:00 (00:00)DebonosuWorks Inc.DebonosuWorks Inc.
990 Miko Gakkou Monogatari: Kaede Episode Aug 16, 2015 $8.99N/A (N/A)0 .. 20,00000:00 (00:00)xinoroxinoro
991 Project Green Beat Jan 16, 2015 $4.99N/A (N/A)0 .. 20,00000:00 (00:00)SeattleEggIndie Game - None
992 Ghost in the Machine Apr 22, 2015 $4.99N/A (N/A)0 .. 20,00000:00 (00:00)Michael J. Moffitt, Julian J. HammersteinPolar Bunny Ltd
993 Never Ending Night Sep 30, 2015 $0.99N/A (N/A)0 .. 20,00000:00 (00:00)Dot DreamDot Dream
994 Tkl Online Jan 27, 2015 $7.99N/A (N/A)0 .. 20,00000:00 (00:00)KURONEKO SOFTKURONEKO SOFT
995 NeXus: One Core Feb 26, 2015 $4.99N/A (N/A)20,000 .. 50,00000:00 (00:00)Hyde GamesBulkyPix
996 Usagi Yojimbo: Way of the Ronin Jan 30, 2015 $4.99N/A (N/A)0 .. 20,00000:00 (00:00)HappyGiantHappyGiant
997 ROGUS - Kingdom of The Lost Souls Jun 30, 2015 $4.99N/A (N/A)0 .. 20,00000:00 (00:00)IronDrop StudiosIronDrop Studios
998 Red Goblin: Cursed Forest May 15, 2015 $4.99N/A (N/A)20,000 .. 50,00000:00 (00:00)Eerie GamesFlying Interactive
999 Space Thinger Sep 25, 2015 $0.99N/A (N/A)0 .. 20,00000:00 (00:00)WytchlightWytchlight
1000 Hidden Mysteries: Civil War Aug 11, 2015 $4.99N/A (N/A)0 .. 20,00000:00 (00:00)Gunnar GamesGameMill Entertainment
1001 Terraformer Expedition to Mars Nov 20, 2015 $24.99N/A (N/A)0 .. 20,00000:00 (00:00)Vermont Software Studios,LLCVermont Software Studios,LLC
1002 Run Run And Die Sep 11, 2015 $1.99N/A (N/A)0 .. 20,00000:00 (00:00)Pixel Bones StudioHeadup
1003 Countless Rooms of Death Jan 9, 2015 $0.99N/A (N/A)20,000 .. 50,00000:00 (00:00)HCP GamesHCPGames
1004 Epic Showdown Oct 27, 2015 $4.99N/A (N/A)0 .. 20,00000:00 (00:00)NalokiNaloki
1005 World of Cinema - Movie Tycoon Apr 2, 2015 $4.99N/A (N/A)0 .. 20,00000:00 (00:00)Pepi GamesPepi Games
1006 MotorSport Revolution Jan 15, 2015 $14.99N/A (N/A)0 .. 20,00000:00 (00:00)Ghost MachineGhost Machine
1007 10 Years After Jan 30, 2015 $5.99N/A (N/A)0 .. 20,00000:00 (00:00)Rock Paper GamesRock Paper Games
1008 Expander Dec 1, 2015 $2.99N/A (N/A)0 .. 20,00000:00 (00:00)All Civilized PlanetsAll Civilized Planets
1009 BADBLOOD Nov 13, 2015 $7.99N/A (N/A)0 .. 20,00000:00 (00:00)Winnie SongWSONG LLC
1010 Pixel: ru² Mar 6, 2015 $9.99N/A (N/A)0 .. 20,00000:00 (00:00)C63 IndustriesC63 Industries
1011 Operation KREEP Oct 31, 2015 $2.99N/A (N/A)0 .. 20,00000:00 (00:00)Magic Item TechMagic Item Tech
1012 Buggy Jul 6, 2015 N/AN/A (N/A)0 .. 20,00000:00 (00:00)UrbanscanConsole Classics
1013 StandPoint Mar 5, 2015 $9.99N/A (N/A)0 .. 20,00000:00 (00:00)Unruly AttractionsBANDAI NAMCO Entertainment, United Independent Entertainment
1014 Space Robot Samurai Zombie Slayer May 21, 2015 $1.99N/A (N/A)0 .. 20,00000:00 (00:00)Brandon BrizziBrandon Brizzi
1015 StaudSoft's Synthetic World Beta Feb 9, 2015 $9.99N/A (N/A)0 .. 20,00000:00 (00:00)StaudSoftStaudSoft
1016 Barter Empire Feb 6, 2015 $4.99N/A (N/A)0 .. 20,00000:00 (00:00)Mayhem Games USAMayhem Games USA
1017 Omnipresent Sep 28, 2015 $3.99N/A (N/A)0 .. 20,00000:00 (00:00)Starkey IndustriesStarkey Industries
1018 Rise of Keepers Dec 4, 2015 $12.99N/A (N/A)0 .. 20,00000:00 (00:00)Samaritan StudiosSamaritan Studios
1019 Barbarian Brawl Feb 12, 2015 $4.99N/A (N/A)0 .. 20,00000:00 (00:00)ThrillionThrillion
1020 DGU: Death God University Jul 15, 2015 $9.99N/A (N/A)0 .. 20,00000:00 (00:00)DSK Studios Pvt. LtdKPL
1021 Go To Bed: Survive The Night Oct 28, 2015 $4.99N/A (N/A)0 .. 20,00000:00 (00:00)Touchfight Games LLCTouchfight Games LLC
1022 Assault Corps 2 Jul 15, 2015 $2.99N/A (N/A)0 .. 20,00000:00 (00:00)AOS GAMEAOS GAME
1023 Car Washer: Summer of the Ninja Nov 4, 2015 $4.99N/A (N/A)0 .. 20,00000:00 (00:00)Pen and Sword GamesPen and Sword Games
1024 Shrooms May 8, 2015 $14.99N/A (N/A)0 .. 20,00000:00 (00:00)Immersive DouroImmersive Douro
1025 Hot Pinball Thrills Jun 26, 2015 $2.99N/A (N/A)0 .. 20,00000:00 (00:00)Fancy Bytes, ReactorUnited Independent Entertainment
1026 Word Wonders: The Tower of Babel May 8, 2015 $3.99N/A (N/A)0 .. 20,00000:00 (00:00)Chimera EntertainmentGAMES in FLAMES, Chimera Entertainment
1027 Pizzarian Feb 3, 2015 $3.99N/A (N/A)0 .. 20,00000:00 (00:00)Alex JedraszczakAlex Jedraszczak
1028 Friendship Club Mar 24, 2015 $11.99N/A (N/A)0 .. 20,00000:00 (00:00)Force Of Habit, Clockwork CuckooForce Of Habit
1029 Super Mega Bob Dec 3, 2015 $2.99N/A (N/A)0 .. 20,00000:00 (00:00)JenitoJenito
1030 Furfly Dec 18, 2015 $4.99N/A (N/A)0 .. 20,00000:00 (00:00)SMD Gaming StudioSMD Gaming Studio
1031 Thundering Skies May 12, 2015 $0.99N/A (N/A)20,000 .. 50,00000:00 (00:00)Flat VoxelFlat Voxel
1032 Hyperspeed Apr 1, 2015 $6.99N/A (N/A)0 .. 20,00000:00 (00:00)MicroProse Software, IncAtari, Nightdive Studios
1033 Déjà Vu II: MacVenture Series Jan 26, 2015 $2.99N/A (N/A)0 .. 20,00000:00 (00:00)ZojoiZojoi
1034 Beatbuddy: On Tour Dec 4, 2015 $6.99N/A (N/A)0 .. 20,00000:00 (00:00)ThreaksThreaks
1035 SCHAR: Blue Shield Alliance Mar 3, 2015 $3.99N/A (N/A)0 .. 20,00000:00 (00:00)Brainshape GamesBA Productions LLC
1036 Starlight Tactics Apr 7, 2015 $9.99N/A (N/A)0 .. 20,00000:00 (00:00)Escape Hatch Entertainment,LLCEscape Hatch Entertainment, LLC
1037 Dorke and Ymp Oct 4, 2015 $2.44N/A (N/A)0 .. 20,00000:00 (00:00)Norse, Piko InteractivePiko Interactive LLC, Bleem!
1038 The Curse of Nordic Cove Apr 23, 2015 $0.99N/A (N/A)0 .. 20,00000:00 (00:00)On The Level Game StudiosOn The Level Game Studios
1039 Ghost Cleaner Nov 5, 2015 $5.99N/A (N/A)0 .. 20,00000:00 (00:00)LookAtMyGameLookAtMyGame, Plug In Digital
1040 Knights of the Sky Apr 1, 2015 $6.99N/A (N/A)0 .. 20,00000:00 (00:00)MicroProse Software, IncNightdive Studios, Atari
1041 Get Over Here Aug 20, 2015 $8.99N/A (N/A)0 .. 20,00000:00 (00:00)Reload Games StudioStrategy First
1042 Red Crow Mysteries: Legion May 28, 2015 $9.99N/A (N/A)50,000 .. 100,00000:00 (00:00)Cateia GamesCateia Games
1043 Dream Factory Nov 2, 2015 $9.99N/A (N/A)20,000 .. 50,00000:00 (00:00)The TambourineThe Tambourine
1044 The Tower Aug 15, 2015 $0.99N/A (N/A)20,000 .. 50,00000:00 (00:00)Narrow MonolithNarrow Monolith
1045 Moonstrider Sep 30, 2015 $11.99N/A (N/A)0 .. 20,00000:00 (00:00)Triple LasersTriple Lasers
1046 SUMICO - The Numbers Game Jul 3, 2015 $4.99N/A (N/A)0 .. 20,00000:00 (00:00)LudomotionLudomotion
1047 Space Xonix Sep 17, 2015 $0.99N/A (N/A)0 .. 20,00000:00 (00:00)SRF GamesSRF Games
1048 VROOM: Aerie Jun 24, 2015 $3.49N/A (N/A)0 .. 20,00000:00 (00:00)VROOMVROOM
1049 Voyage to Farland Jun 2, 2015 $0.98N/A (N/A)0 .. 20,00000:00 (00:00)Peculiar GamesPeculiar Games
1050 SCS deORBIT Aug 17, 2015 $0.99N/A (N/A)0 .. 20,00000:00 (00:00)Zero DollarzZero Dollarz
1051 Evil Hazard Sep 16, 2015 $2.99N/A (N/A)20,000 .. 50,00000:00 (00:00)Pixel Blitz StudiosPixel Blitz Studios
1052 Green Moon May 15, 2015 $6.99N/A (N/A)0 .. 20,00000:00 (00:00)Absolutist Ltd.Absolutist Ltd.
1053 Gamer Simulator Sep 22, 2015 $0.99N/A (N/A)0 .. 20,00000:00 (00:00)Punk Games StudioPunk Games Studio
1054 Navpoint Sep 23, 2015 $4.99N/A (N/A)0 .. 20,00000:00 (00:00)Ross EdgarPlug In Digital
1055 Mad Snowboarding Sep 8, 2015 $4.99N/A (N/A)0 .. 20,00000:00 (00:00)Denis LapinerDenis Lapiner
1056 Nightmare on Azathoth Oct 30, 2015 $0.99N/A (N/A)0 .. 20,00000:00 (00:00)Modesto RabenaDivergent Game Studio
1057 Spirit Run - Fire vs. Ice Feb 12, 2015 $1.99N/A (N/A)0 .. 20,00000:00 (00:00)LunagamesLibredia
1058 DRIFT 84 Jul 14, 2015 $2.99N/A (N/A)0 .. 20,00000:00 (00:00)Reventador GamesReventador Games
1059 Elements: Epic Heroes Dec 21, 2015 $6.99N/A (N/A)0 .. 20,00000:00 (00:00)Zadzen Games Ltd.Zadzen Games Ltd.
1060 Dark Gates Jan 26, 2015 $3.99N/A (N/A)0 .. 20,00000:00 (00:00)DFour GamesDFour Games
1061 Big Journey to Home Aug 20, 2015 $2.99N/A (N/A)20,000 .. 50,00000:00 (00:00)The Light Sword TeamThe Light Sword Team
1062 Taken Souls: Blood Ritual Collector's Edition Mar 23, 2015 $6.99N/A (N/A)20,000 .. 50,00000:00 (00:00)Space Monkey InternationalShaman Games Studio
1063 Damned Nation Reborn Feb 12, 2015 $12.99N/A (N/A)0 .. 20,00000:00 (00:00)SinisterSinister
1064 Once Bitten, Twice Dead! Jul 17, 2015 N/AN/A (N/A)20,000 .. 50,00000:00 (00:00)GamestartersGamestarters Publisher, Gamestarter's
1065 Shades of Black Sep 9, 2015 $11.99N/A (N/A)0 .. 20,00000:00 (00:00)MDNA GamesTri Synergy, Inc.
1066 Ludoku May 25, 2015 $4.99N/A (N/A)0 .. 20,00000:00 (00:00)Ludomo GamestudioLudomo Gamestudio
1067 Daydreamer: Awakened Edition Aug 21, 2015 $10.99N/A (N/A)0 .. 20,00000:00 (00:00)RolandStudiosRolandStudios
1068 Carnivore Land Sep 15, 2015 $7.99N/A (N/A)0 .. 20,00000:00 (00:00)dwCrewdwCrew
1069 Little Cells Jun 4, 2015 $3.99N/A (N/A)0 .. 20,00000:00 (00:00)Fully BuggedFully Bugged
1070 Inventioneers Oct 5, 2015 $6.99N/A (N/A)0 .. 20,00000:00 (00:00)FilimundusFilimundus
1071 Traps N' Gemstones Apr 16, 2015 $4.99N/A (N/A)0 .. 20,00000:00 (00:00)Donut GamesDonut Games
1072 Cheats 4 Hire Jun 25, 2015 $4.99N/A (N/A)0 .. 20,00000:00 (00:00)Travian Games GmbHTravian Games GmbH
1073 Piloteer Sep 25, 2015 $2.99N/A (N/A)0 .. 20,00000:00 (00:00)Fixpoint ProductionsFixpoint Productions
1074 ORBIT Sep 30, 2015 $6.99N/A (N/A)0 .. 20,00000:00 (00:00)4Bit Games4Bit Games
1075 Wildlife Park - Wild Creatures Apr 1, 2015 $5.99N/A (N/A)0 .. 20,00000:00 (00:00)b-alive gmbhb-alive gmbh
1076 Haywire on Fuel Station Zeta Sep 24, 2015 $3.99N/A (N/A)20,000 .. 50,00000:00 (00:00)Mad Goblin GamesMad Goblin Games
1077 Mondrian - Abstraction in Beauty Sep 21, 2015 $4.99N/A (N/A)0 .. 20,00000:00 (00:00)Lantana GamesLantana Games
1078 ASDAD: All-Stars Dungeons and Diamonds Oct 1, 2015 $4.99N/A (N/A)0 .. 20,00000:00 (00:00)Giant Enemy LabsGiant Enemy Labs
1079 PD Howler 9.6 Digital Painter and Visual FX box Mar 11, 2015 $4.99N/A (N/A)0 .. 20,00000:00 (00:00)Daniel Ritchie - PDHowler.com, Philip Staiger - TheBest3D.comKPL
1080 Hills Of Glory 3D May 28, 2015 $4.99N/A (N/A)0 .. 20,00000:00 (00:00)AMA, Mando ProductionsPlug In Digital
1081 Demigods Oct 13, 2015 N/AN/A (N/A)0 .. 20,00000:00 (00:00)QumaronQumaron
1082 The Way of the Pixelated Fist Apr 27, 2015 $0.99N/A (N/A)0 .. 20,00000:00 (00:00)Blaze EpicBlaze Epic
1083 Rumble Oct 14, 2015 $1.99N/A (N/A)20,000 .. 50,00000:00 (00:00)OverflowOverflow
1084 Go Home - Rage incoming Aug 2015 $1.99N/A (N/A)20,000 .. 50,00000:00 (00:00)Synter GamesSynter Games
1085 Arkhelom 3D May 29, 2015 $3.99N/A (N/A)0 .. 20,00000:00 (00:00)DreamsSoftGamesDreamsSoftGames
1086 Undead Shadows Feb 2, 2015 $3.99N/A (N/A)0 .. 20,00000:00 (00:00)Ignition Games Inc.Ignition Games Inc.
1087 Light Bound Apr 23, 2015 $9.99N/A (N/A)0 .. 20,00000:00 (00:00)Garden Knight GamesGarden Knight Games
1088 Mos Speedrun 2 Sep 3, 2015 $3.99N/A (N/A)0 .. 20,00000:00 (00:00)PhysmoPhysmo
1089 ルナティックドーン レジェンドパック Jan 8, 2015 $34.99N/A (N/A)0 .. 20,00000:00 (00:00)ARTDINKKOMODO
1090 articy:draft 3 - Flex License Oct 5, 2015 N/AN/A (N/A)0 .. 20,00000:00 (00:00)Articy SoftwareArticy Software
1091 SEAL Team 12 Mar 18, 2015 $1.99N/A (N/A)0 .. 20,00000:00 (00:00)Social Loner StudiosSocial Loner Studios
1092 Trigger Saint Oct 9, 2015 $6.99N/A (N/A)0 .. 20,00000:00 (00:00)Aaron ArcandUndergroundies
1093 All Fall Down Oct 16, 2015 FreeN/A (N/A)0 .. 20,00000:00 (00:00)khos85khos85
1094 Nandeyanen!? - The 1st Sûtra Jul 22, 2015 $1.99N/A (N/A)0 .. 20,00000:00 (00:00)Tchagata GamesTchagata Games
1095 Hoven the Sages Spinel Aug 31, 2015 $1.99N/A (N/A)20,000 .. 50,00000:00 (00:00)Bradley Elam, Colton BoneHoven Indies
1096 TableTop Cricket Feb 25, 2015 $9.99N/A (N/A)0 .. 20,00000:00 (00:00)Big Ant StudiosBig Ant Studios
1097 The Language Game Jul 9, 2015 $0.99N/A (N/A)0 .. 20,00000:00 (00:00)Tap To WinTap To Win
1098 Expert Rifleman - Reloaded Aug 14, 2015 $2.24N/A (N/A)0 .. 20,00000:00 (00:00)BattleByteBattleByte
1099 Pirates vs Corsairs: Davy Jones's Gold Mar 16, 2015 $4.99N/A (N/A)20,000 .. 50,00000:00 (00:00)Little World StudioM.INDIE
1100 The Little Crane That Could Apr 27, 2015 $11.99N/A (N/A)0 .. 20,00000:00 (00:00)Game Studio Abraham Stolk Inc.Game Studio Abraham Stolk Inc.
1101 But to Paint a Universe Jan 15, 2015 $4.99N/A (N/A)0 .. 20,00000:00 (00:00)Mårten JonssonJMJ Interactive
1102 Gunslugs 2 Jan 14, 2015 $8.99N/A (N/A)0 .. 20,00000:00 (00:00)OrangepixelOrangepixel
1103 Don'Yoku Jun 29, 2015 $3.99N/A (N/A)0 .. 20,00000:00 (00:00)Dark-Spot StudioDark-Spot Studio
1104 Trap Them - Sniper Edition Oct 9, 2015 $3.99N/A (N/A)20,000 .. 50,00000:00 (00:00)Juri SchupiloJuri Schupilo
1105 MadOut Ice Storm Sep 4, 2015 $6.99N/A (N/A)0 .. 20,00000:00 (00:00)Nuligine, MadOut GamesNuligine, MadOut Games
1106 Crystal Towers 2 XL Aug 11, 2015 $7.99N/A (N/A)0 .. 20,00000:00 (00:00)David NewtonDavid Newton
1107 Country Tales Aug 27, 2015 $9.99N/A (N/A)0 .. 20,00000:00 (00:00)Cateia GamesCateia Games
1108 Bocce Revolution Oct 23, 2015 $4.99N/A (N/A)0 .. 20,00000:00 (00:00)DysotekDysotek
1109 Lightbender Dec 17, 2015 $2.99N/A (N/A)0 .. 20,00000:00 (00:00)Math Nerd Productions, LLCMath Nerd Productions, LLC
1110 Mysterious Space May 15, 2015 $10N/A (N/A)0 .. 20,00000:00 (00:00)Ben Hendel-Doyingbenmakesgames.com
1111 Unfair Jousting Fair Sep 3, 2015 $4.99N/A (N/A)0 .. 20,00000:00 (00:00)RodajaRodaja
1112 Sakura Day Mahjong Jul 15, 2015 $0.74N/A (N/A)0 .. 20,00000:00 (00:00)Creobit8floor
1113 Hacker Evolution Source Code May 11, 2015 $9.99N/A (N/A)0 .. 20,00000:00 (00:00)exosyphen studiosexosyphen studios
1114 Metro Warp Aug 5, 2015 $4.99N/A (N/A)20,000 .. 50,00000:00 (00:00)Another YetiAnother Yeti
1115 Robot Exploration Squad Sep 16, 2015 $2.99N/A (N/A)0 .. 20,00000:00 (00:00)Jack DolabanyDolaSoft
1116 Lucadian Chronicles Oct 15, 2015 N/AN/A (N/A)0 .. 20,00000:00 (00:00)Dark Roast EntertainmentDark Roast Entertainment
1117 The Sheltered Apr 23, 2015 $8.99N/A (N/A)20,000 .. 50,00000:00 (00:00)Benjamin FamigliettiSA Industry
1118 Shoot 'Em Up Kit Jun 5, 2015 $39.99N/A (N/A)0 .. 20,00000:00 (00:00)Tall StudiosTall Studios
1119 Crossbow Warrior - The Legend of William Tell Dec 10, 2015 $4.99N/A (N/A)0 .. 20,00000:00 (00:00)MobyDick GamesScherrer Medien GmbH
1120 Yasai Ninja Jul 21, 2015 $3.99N/A (N/A)0 .. 20,00000:00 (00:00)Recotechnology S.L.Recotechnology S.L.
1121 Infect and Destroy Jan 29, 2015 $6.99N/A (N/A)0 .. 20,00000:00 (00:00)FarrugiaSoftFarrugiaSoft
1122 Networm Oct 27, 2015 $1.99N/A (N/A)0 .. 20,00000:00 (00:00)Cuddly Zombie GamesCuddly Zombie Games
1123 InnerCube Feb 13, 2015 $3.99N/A (N/A)20,000 .. 50,00000:00 (00:00)Schell GamesSchell Games
1124 ZombieZoid Zenith Sep 30, 2015 $5.99N/A (N/A)0 .. 20,00000:00 (00:00)Adhoc GamesAdhoc Games
1125 Deity Quest Jan 20, 2015 $9.99N/A (N/A)0 .. 20,00000:00 (00:00)Fancy Fish GamesFancy Fish Games
1126 Baseball Riot Dec 9, 2015 $4.99N/A (N/A)0 .. 20,00000:00 (00:00)10tons Ltd10tons Ltd
1127 Spud! Mar 3, 2015 $3.99N/A (N/A)0 .. 20,00000:00 (00:00)Charybdis LtdAlternative Software Ltd
1128 Tenshu General Dec 1, 2015 $5.99N/A (N/A)0 .. 20,00000:00 (00:00)SmartArt Game StudioTenshu General
1129 Let There Be Life Feb 13, 2015 $5.99N/A (N/A)0 .. 20,00000:00 (00:00)Backward pieSBackward pieS
1130 Undercover Missions: Operation Kursk K-141 Dec 11, 2015 $9.99N/A (N/A)0 .. 20,00000:00 (00:00)The Game Species
1131 Just Alone Jul 28, 2015 $12.99N/A (N/A)0 .. 20,00000:00 (00:00)EvergreenEvergreen
1132 Age of Castles: Warlords May 15, 2015 $2.99N/A (N/A)0 .. 20,00000:00 (00:00)Anarchy EnterprisesAnarchy Enterprises
1133 GunWorld Feb 11, 2015 $1.99N/A (N/A)0 .. 20,00000:00 (00:00)m07gamesm07games
1134 SHOFER Race Driver Jun 30, 2015 $8.99N/A (N/A)0 .. 20,00000:00 (00:00)Zhoori Maang EntertainmentZhoori Maang Entertainment
1135 Fractured Soul Feb 5, 2015 $9.99N/A (N/A)0 .. 20,00000:00 (00:00)Endgame StudiosEndgame Studios
1136 Gulf of Aden - Task Force Somalia Dec 14, 2015 $8.99N/A (N/A)0 .. 20,00000:00 (00:00)BlewScreenBlewScreen
1137 Super Snow Fight Nov 24, 2015 $4.99N/A (N/A)0 .. 20,00000:00 (00:00)Patrick GodPatrick God
1138 Curse of the Assassin May 12, 2015 $4.99N/A (N/A)0 .. 20,00000:00 (00:00)Tin Man GamesTin Man Games
1139 The Grave Digger Apr 29, 2015 $5.99N/A (N/A)0 .. 20,00000:00 (00:00)Home Groan GamesHome Groan Games
1140 APT Aug 27, 2015 $14.99N/A (N/A)0 .. 20,00000:00 (00:00)RIP Studios LLCRIP Studios LLC
1141 The Viceroy Jul 28, 2015 $19.99N/A (N/A)0 .. 20,00000:00 (00:00)Goatee GamesGoatee Games
1142 Unfinished - An Artist's Lament Aug 4, 2015 $4.99N/A (N/A)0 .. 20,00000:00 (00:00)Dust Scratch GamesDust Scratch Games
1143 Musclecar Online Feb 12, 2015 $5.99N/A (N/A)0 .. 20,00000:00 (00:00)Psychic SoftwarePsychic Software
1144 Build 'n Bump Jul 22, 2015 $3.99N/A (N/A)50,000 .. 100,00000:00 (00:00)Roppy Chop StudiosRoppy Chop Studios
1145 Soul Locus Apr 30, 2015 $9.99N/A (N/A)0 .. 20,00000:00 (00:00)Fat Loot GamesFat Loot Games
1146 Geocore Jul 31, 2015 $2.99N/A (N/A)0 .. 20,00000:00 (00:00)Anarchy InteractiveAnarchy Interactive
1147 The Journey Back Aug 12, 2015 $2.99N/A (N/A)20,000 .. 50,00000:00 (00:00)Erwin WolfMarWin Studios
1148 Superstatic Sep 15, 2015 $4.99N/A (N/A)0 .. 20,00000:00 (00:00)Sleepy StudiosSleepy Studios
1149 Threads of Destiny Dec 4, 2015 $4.99N/A (N/A)20,000 .. 50,00000:00 (00:00)Warfare StudiosWarfare Studios
1150 The Last Dogma - Wilder Wein Edition Jun 30, 2015 $6.99N/A (N/A)0 .. 20,00000:00 (00:00)Sasha DarkoSasha Darko
1151 Forest Warrior Jun 25, 2015 $3.99N/A (N/A)0 .. 20,00000:00 (00:00)Inferno StudioPlug In Digital
1152 MadOut Jun 5, 2015 $9.99N/A (N/A)0 .. 20,00000:00 (00:00)Nuligine, MadOut GamesNuligine, MadOut Games
1153 Spellcrafter May 4, 2015 $4.99N/A (N/A)0 .. 20,00000:00 (00:00)Jujubee S.A.Jujubee S.A.
1154 Sim Junta Aug 18, 2015 $1.99N/A (N/A)0 .. 20,00000:00 (00:00)Icehole GamesStrategy First
1155 500 Years Act 1 Apr 15, 2015 $0.99N/A (N/A)0 .. 20,00000:00 (00:00)Poorwill GamesPoorwill Games
1156 The Asskickers-Steam Edition Feb 6, 2015 $9.99N/A (N/A)0 .. 20,00000:00 (00:00)AGO GamesAGO Games
1157 One Final Breath Sep 28, 2015 N/AN/A (N/A)0 .. 20,00000:00 (00:00)Dark Day InteractiveDark Day Interactive
1158 Reverse x Reverse Dec 10, 2015 $9.99N/A (N/A)0 .. 20,00000:00 (00:00)desunoyaSekai Project
1159 Rainbow Hero Mar 19, 2015 $4.99N/A (N/A)0 .. 20,00000:00 (00:00)Pixel ElephantBigger Boat
1160 Color Guardians May 12, 2015 $14.99N/A (N/A)0 .. 20,00000:00 (00:00)Fair Play LabsNiffler Ltd.
1161 Daemon Detective Gaiden Aug 14, 2015 N/AN/A (N/A)0 .. 20,00000:00 (00:00)YalDegica
1162 Dungeon Highway Mar 23, 2015 $3.99N/A (N/A)0 .. 20,00000:00 (00:00)SubstantialSubstantial
1163 Zeuxis : procedural texture generator Jun 2, 2015 $6.99N/A (N/A)0 .. 20,00000:00 (00:00)Martin VeilleuxMartin Veilleux
1164 Deathless: The City's Thirst Oct 23, 2015 $4.99N/A (N/A)0 .. 20,00000:00 (00:00)Choice of GamesChoice of Games
1165 Fairspace Oct 21, 2015 $8.99N/A (N/A)0 .. 20,00000:00 (00:00)Sub Orbital SoftwareSub Orbital Software
1166 ORBITOR Aug 21, 2015 $14.99N/A (N/A)0 .. 20,00000:00 (00:00)Evil AliensEvil Aliens
1167 VROOM: Galleon Oct 27, 2015 $6.99N/A (N/A)0 .. 20,00000:00 (00:00)VROOMVROOM
1168 Sentris Aug 12, 2015 $14.99N/A (N/A)0 .. 20,00000:00 (00:00)Timbre InteractiveTimbre Interactive
1169 Nicolas Eymerich The Inquisitor Book II : The Village Jan 22, 2015 $9.99N/A (N/A)0 .. 20,00000:00 (00:00)IV Productions, Trinity TeamIV Productions, Trinity Team
1170 Dale Hardshovel HD Sep 22, 2015 $3.99N/A (N/A)100,000 .. 200,00000:00 (00:00)phime studio LLCphime studio LLC
1171 Zombie Killtime Aug 4, 2015 $1.99N/A (N/A)0 .. 20,00000:00 (00:00)Nicholas MalloryNicholas Mallory
1172 Ninjahtic Mind Tricks Jul 16, 2015 $1.99N/A (N/A)0 .. 20,00000:00 (00:00)Blaze EpicBlaze Epic
1173 Lightrise Dec 21, 2015 FreeN/A (N/A)0 .. 20,00000:00 (00:00)Bulkhead Studios CorporationBulkhead Studios Corporation
1174 A Mass of Dead Jul 15, 2015 $4.99N/A (N/A)0 .. 20,00000:00 (00:00)Dev ArcDev Arc
1175 Not without my donuts Apr 28, 2015 $1.99N/A (N/A)0 .. 20,00000:00 (00:00)Ben Aprigliano, Stefan EversEvilized productions, Different donut
1176 3D Paraglider Aug 3, 2015 FreeN/A (N/A)0 .. 20,00000:00 (00:00)khos85khos85
1177 Mars Colony: Frontier Sep 25, 2015 $4.99N/A (N/A)0 .. 20,00000:00 (00:00)HyperKat GamesHyperKat Games
1178 Pirate's Life Apr 17, 2015 $4.99N/A (N/A)0 .. 20,00000:00 (00:00)Team EyepatchNone
1179 A.I. Invasion Sep 30, 2015 $9.99N/A (N/A)0 .. 20,00000:00 (00:00)GameArt Studio GmbHGameArt Studio GmbH
1180 Outpost 13 Oct 26, 2015 $0.99N/A (N/A)0 .. 20,00000:00 (00:00)Cantina Games and Entertainment, Inc.Cantina Games and Entertainment, Inc.
1181 Legends of Dawn Reborn Oct 20, 2015 $29.99N/A (N/A)20,000 .. 50,00000:00 (00:00)DreamatrixDreamatrix
1182 Cloudrift Oct 30, 2015 $6.99N/A (N/A)0 .. 20,00000:00 (00:00)friendlyOctopusfriendlyOctopus
1183 Melter Man Sep 18, 2015 $1.99N/A (N/A)0 .. 20,00000:00 (00:00)Husky Swim TeamRMM Studios, LLC
1184 Volvox Dec 7, 2015 $9.99N/A (N/A)0 .. 20,00000:00 (00:00)NeoteniaNeotenia
1185 Getsuei Gakuen -kou- Nov 3, 2015 $24.99N/A (N/A)0 .. 20,00000:00 (00:00)Arc System WorksArc System Works
1186 Kaiju Panic Oct 9, 2015 $9.99N/A (N/A)0 .. 20,00000:00 (00:00)Mechabit LtdMechabit Ltd
1187 Throbax TD Nov 5, 2015 FreeN/A (N/A)0 .. 20,00000:00 (00:00)Unterrainer Informatik OGUnterrainer Informatik OG
1188 Aveyond 3-3: The Lost Orb Jan 16, 2015 $9.99N/A (N/A)0 .. 20,00000:00 (00:00)Amaranth Games, LLCKOMODO
1189 Selective Jump: Once Again With Feeling Apr 20, 2015 $4.99N/A (N/A)0 .. 20,00000:00 (00:00)Nekomura GamesNekomura Games
1190 Skyflower Jun 25, 2015 $2.99N/A (N/A)20,000 .. 50,00000:00 (00:00)The Taco Heaven
1191 Vagrant Hearts 2 May 20, 2015 $6.99N/A (N/A)50,000 .. 100,00000:00 (00:00)Warfare StudiosWarfare Studios
1192 Illuminascii Aug 11, 2015 $10.99N/A (N/A)0 .. 20,00000:00 (00:00)DDD WaresDDD Wares
1193 Blowy Fish Sep 25, 2015 $1.99N/A (N/A)20,000 .. 50,00000:00 (00:00)One Man Band GamesOne Man Band Games
1194 Ashes of Immortality II Aug 28, 2015 $6.99N/A (N/A)50,000 .. 100,00000:00 (00:00)Warfare StudiosWarfare Studios
1195 Battle For The Sun Jul 22, 2015 $4.99N/A (N/A)0 .. 20,00000:00 (00:00)Appsolutely StudiosAppsolutely Studios
1196 Corona MotorSport Mar 13, 2015 $9.99N/A (N/A)0 .. 20,00000:00 (00:00)LucasGameLucasGame
1197 March of Industry: Very Capitalist Factory Simulator Entertainments Oct 7, 2015 $9.99N/A (N/A)0 .. 20,00000:00 (00:00)Archive EntertainmentArchive Entertainment
1198 CortexGear: AngryDroids Sep 24, 2015 $5.99N/A (N/A)100,000 .. 200,00000:00 (00:00)JH12world, Jordan BenoitJH12world
1199 WE ARE DOOMED Apr 21, 2015 $9.99N/A (N/A)20,000 .. 50,00000:00 (00:00)Vertex PopVertex Pop
1200 Bit Shifter Nov 2, 2015 $14.99N/A (N/A)0 .. 20,00000:00 (00:00)Plastic GamesPlastic Games
1201 Hypnosis Jan 28, 2015 $6.99N/A (N/A)0 .. 20,00000:00 (00:00)NevosoftBest Place Apps
1202 Xenocide Aug 28, 2015 $2.99N/A (N/A)0 .. 20,00000:00 (00:00)Confused GeniusSpawn Point OSK
1203 Gran Vitreous May 20, 2015 $4.99N/A (N/A)0 .. 20,00000:00 (00:00)Heliocentric StudiosHeliocentric Studios
1204 Color Assembler Jun 3, 2015 $4.99N/A (N/A)0 .. 20,00000:00 (00:00)Purple NebulaPurple Nebula
1205 Edolie Feb 27, 2015 $9.99N/A (N/A)0 .. 20,00000:00 (00:00)Eridani GamesKOMODO
1206 Match 3 Revolution Sep 11, 2015 $3.99N/A (N/A)20,000 .. 50,00000:00 (00:00)DreamsSoftGamesDreamsSoftGames
1207 Break_In Apr 29, 2015 $9.99N/A (N/A)0 .. 20,00000:00 (00:00)Craig GibbsCraig Gibbs
1208 Al Emmo's Postcards from Anozira Jun 2, 2015 $4.99N/A (N/A)20,000 .. 50,00000:00 (00:00)Himalaya StudiosHimalaya Studios
1209 Hatch and Slay Dec 22, 2015 N/AN/A (N/A)20,000 .. 50,00000:00 (00:00)Myrolit StudiosMyrolit Studios
1210 ZombieRun Jun 3, 2015 $2.99N/A (N/A)0 .. 20,00000:00 (00:00)Guerrilla BanditGuerrilla Bandit
1211 D Series OFF ROAD Driving Simulation May 19, 2015 $7.99N/A (N/A)0 .. 20,00000:00 (00:00)devotiddevotid Media
1212 ENIGMA : An Illusion Named Family Mar 19, 2015 $4.99N/A (N/A)20,000 .. 50,00000:00 (00:00)AV media labAV media lab
1213 Machineers - Episode 1: Tivoli Town May 15, 2015 $4.99N/A (N/A)0 .. 20,00000:00 (00:00)Lohika GamesLohika Games
1214 Way to Go! Jun 8, 2015 $4.99N/A (N/A)0 .. 20,00000:00 (00:00)Makivision GamesMakivision Games
1215 Hack Run ZERO Jul 13, 2015 $2.99N/A (N/A)0 .. 20,00000:00 (00:00)i273 LLCi273 LLC
1216 High Strangeness May 6, 2015 $4.99N/A (N/A)0 .. 20,00000:00 (00:00)Barnyard Intelligence Games, Crystal LabsBarnyard Intelligence Games
1217 Megatect Nov 4, 2015 $7.99N/A (N/A)0 .. 20,00000:00 (00:00)Jaunty AnticsJaunty Antics
1218 Deadlands Noir - That Old Time Religion Jul 3, 2015 $1.99N/A (N/A)0 .. 20,00000:00 (00:00)SmiteWorks USA, LLCSmiteWorks USA, LLC
1219 JUMP Jul 30, 2015 $9.99N/A (N/A)0 .. 20,00000:00 (00:00)Endeavor One Inc.Endeavor One Inc.
1220 XenoBloom Sep 23, 2015 $4.99N/A (N/A)0 .. 20,00000:00 (00:00)IBOLOGY LLCIBOLOGY LLC
1221 Vicky Saves the Big Dumb World Oct 1, 2015 $0.99N/A (N/A)0 .. 20,00000:00 (00:00)DumbfoundedDumbfounded
1222 1942: The Pacific Air War Apr 1, 2015 $6.99N/A (N/A)0 .. 20,00000:00 (00:00)MicroProse Software, IncAtari, Nightdive Studios
1223 Giana Sisters: Dream Runners Aug 26, 2015 $9.99N/A (N/A)0 .. 20,00000:00 (00:00)Black Forest GamesEuroVideo Medien
1224 Veteran Combat Feb 16, 2015 $1.99N/A (N/A)20,000 .. 50,00000:00 (00:00)CyberphobXCyberphobX
1225 Apollo4x May 5, 2015 $4.99N/A (N/A)50,000 .. 100,00000:00 (00:00)Digital EntertainmentVolens Nolens Games
1226 Princess Kaguya: Legend of the Moon Warrior Aug 4, 2015 $10.99N/A (N/A)0 .. 20,00000:00 (00:00)Zoo CorporationZoo Corporation
1227 Second Warfare Jun 22, 2015 $14.99N/A (N/A)0 .. 20,00000:00 (00:00)Kobra StudioKobra Studio
1228 Professional Lumberjack 2015 Mar 5, 2015 $19.99N/A (N/A)50,000 .. 100,00000:00 (00:00)PlayWay S.A.BANDAI NAMCO Entertainment, United Independent Entertainment
1229 quadrant May 1, 2015 $3.99N/A (N/A)0 .. 20,00000:00 (00:00)undefundef
1230 PING 1.5+ Aug 13, 2015 FreeN/A (N/A)0 .. 20,00000:00 (00:00)Nami TentouNami Tentou
1231 Where Angels Cry: Tears of the Fallen Collector's Edition Nov 9, 2015 $14.99N/A (N/A)0 .. 20,00000:00 (00:00)Cateia GamesCateia Games
1232 DSY: Don't Shoot Yourself Apr 10, 2015 $4.99N/A (N/A)0 .. 20,00000:00 (00:00)Silverware Games, Inc.Silverware Games, Inc.
1233 Autumn Park Mini Golf Apr 2, 2015 $1.99N/A (N/A)0 .. 20,00000:00 (00:00)Serious TangentsSerious Tangents
1234 Capsule Force Aug 25, 2015 $4.99N/A (N/A)0 .. 20,00000:00 (00:00)klobit LLCIron Galaxy Studios
1235 Devouring Stars Jul 3, 2015 $9.99N/A (N/A)0 .. 20,00000:00 (00:00)NerialBulkyPix
1236 Dr.Green Jan 2, 2015 $2.99N/A (N/A)0 .. 20,00000:00 (00:00)Johan AronssonJohan Aronsson
1237 Sherlock Holmes Consulting Detective: The Case of the Tin Soldier Jun 8, 2015 $3.99N/A (N/A)20,000 .. 50,00000:00 (00:00)ZojoiZojoi
1238 Centauri Sector Jun 24, 2015 $4.99N/A (N/A)0 .. 20,00000:00 (00:00)GNeguceanuGNeguceanu
1239 Inevitability Aug 24, 2015 $4.99N/A (N/A)0 .. 20,00000:00 (00:00)SFS StudiosSFS Studios
1240 Ancestory Oct 13, 2015 FreeN/A (N/A)0 .. 20,00000:00 (00:00)Kajak GamesKajak Games
1241 Sunken Dec 3, 2015 FreeN/A (N/A)0 .. 20,00000:00 (00:00)Hit the CrowJenito
1242 GeoVox May 22, 2015 $24.99N/A (N/A)0 .. 20,00000:00 (00:00)Axis Game Factory, Inc.Axis Game Factory, Inc.
1243 A.R.M. PLANETARY PROSPECTORS EP1 Asteroid Resource Mining Oct 1, 2015 $4.99N/A (N/A)0 .. 20,00000:00 (00:00)Nefarious Dimensions Interactive Games, NDiGNefarious Dimensions Inc.
1244 The Clans - Saga of the Twins Apr 21, 2015 $4.99N/A (N/A)50,000 .. 100,00000:00 (00:00)Supreme Clans EntertainmentSupreme Clans Entertainment
1245 Fireflies Sep 7, 2015 $1.99N/A (N/A)50,000 .. 100,00000:00 (00:00)Phanom GamesPhanom Games
1246 Age of Survival Aug 25, 2015 $18.99N/A (N/A)0 .. 20,00000:00 (00:00)SeattletekSeattletek
1247 Legends of Pixelia Sep 14, 2015 $4.99N/A (N/A)20,000 .. 50,00000:00 (00:00)SimaGamesSimaGames
1248 Solar War Jan 6, 2015 $4.99N/A (N/A)100,000 .. 200,00000:00 (00:00)Snipefish EntertainmentSnipefish Entertainment
1249 Damn virgins Jul 30, 2015 $2.99N/A (N/A)20,000 .. 50,00000:00 (00:00)Luis RuizLuis Ruiz
1250 Viking Saga: New World Nov 5, 2015 $3.99N/A (N/A)0 .. 20,00000:00 (00:00)QumaronQumaron
1251 Age of Enigma: The Secret of the Sixth Ghost May 11, 2015 $9.99N/A (N/A)0 .. 20,00000:00 (00:00)Casual Box GamesCosmi Valusoft
1252 Faron's Fate Aug 14, 2015 $0.99N/A (N/A)0 .. 20,00000:00 (00:00)Winter Drake TellerWinter Drake Teller
1253 Alarameth TD Jun 23, 2015 N/AN/A (N/A)0 .. 20,00000:00 (00:00)Matt GadientMatt Gadient
1254 Drew and the Floating Labyrinth Feb 4, 2015 $4.99N/A (N/A)0 .. 20,00000:00 (00:00)Dust Scratch GamesDust Scratch Games
1255 Arevan Jul 24, 2015 $6.99N/A (N/A)50,000 .. 100,00000:00 (00:00)Overcloud9Aldorlea Games
1256 Knight Adventure Oct 15, 2015 $0.99N/A (N/A)20,000 .. 50,00000:00 (00:00)SyberstudioSyberstudio
1257 Undeadz! Sep 25, 2015 $0.99N/A (N/A)0 .. 20,00000:00 (00:00)Miguel LlerasMiguel Lleras
1258 ABO MANDO Dec 31, 2015 $0.99N/A (N/A)100,000 .. 200,00000:00 (00:00)UNDEADAndrés Calva, Luis Calva
1259 Dark Years Oct 16, 2015 $14.99N/A (N/A)20,000 .. 50,00000:00 (00:00)RSK EntertainmentKPL
1260 Turnover Dec 15, 2015 $1.99N/A (N/A)0 .. 20,00000:00 (00:00)Long Division LLCLong Division LLC
1261 Caverns of the Snow Witch (Standalone) Aug 3, 2015 $4.99N/A (N/A)0 .. 20,00000:00 (00:00)Tin Man GamesTin Man Games
1262 Shu's Garden Aug 11, 2015 $4.99N/A (N/A)0 .. 20,00000:00 (00:00)Colin Sanders, Jason RT BondJason RT Bond
1263 Weather Lord: The Successor's Path May 7, 2015 $4.99N/A (N/A)0 .. 20,00000:00 (00:00)Yustas Game Studio, Alawar EntertainmentESDigital Games
1264 Heroes of Legionwood Jul 24, 2015 $6.99N/A (N/A)0 .. 20,00000:00 (00:00)Dark Gaia StudiosKOMODO
1265 XLarn May 25, 2015 $4.99N/A (N/A)0 .. 20,00000:00 (00:00)Swinfjord-GamesSwinfjord-Games
1266 Stone Tales Dec 11, 2015 $0.99N/A (N/A)0 .. 20,00000:00 (00:00)Yellow Worm StudiosKISS ltd
1267 Rolling Shapes Jun 8, 2015 $0.99N/A (N/A)0 .. 20,00000:00 (00:00)Vertex Games, S.C.Vertex Games, S.C.
1268 Zombie Camp: Last Survivor Apr 17, 2015 $1.99N/A (N/A)0 .. 20,00000:00 (00:00)LunagamesLibredia
1269 The Race for the White House Jan 2, 2015 $14.99N/A (N/A)0 .. 20,00000:00 (00:00)EversimEversim
1270 Goodnight Butcher Dec 18, 2015 $1.99N/A (N/A)0 .. 20,00000:00 (00:00)Perfect Square StudiosPerfect Square Studios
1271 Pahelika: Secret Legends Jan 23, 2015 $9.99N/A (N/A)0 .. 20,00000:00 (00:00)Ironcode GamingIroncode Gaming
1272 Puzzle Ball Oct 1, 2015 $2.99N/A (N/A)50,000 .. 100,00000:00 (00:00)Почежерцев Влад, Кашковский Антон, Бурков НикитаArt-Pulsar
1273 Khaba Jan 12, 2015 $3.99N/A (N/A)0 .. 20,00000:00 (00:00)Hello There GamesHello There Games
1274 Aveyond 3-4: The Darkthrop Prophecy Feb 13, 2015 $9.99N/A (N/A)0 .. 20,00000:00 (00:00)Amaranth Games, LLCKOMODO
1275 The World Named Fred Feb 27, 2015 $0.99N/A (N/A)0 .. 20,00000:00 (00:00)Here Be DragonzHere Be Dragonz
1276 TREBUCHET Jul 30, 2015 $5.99N/A (N/A)0 .. 20,00000:00 (00:00)iconical Ltd.iconical Ltd.
1277 CMYW Oct 16, 2015 $3.99N/A (N/A)0 .. 20,00000:00 (00:00)Shane BerezowskiZen Labs
1278 Supreme League of Patriots - Episode 3: Ice Cold in Ellis Jan 29, 2015 $5.99N/A (N/A)20,000 .. 50,00000:00 (00:00)No Bull IntentionsPhoenix Online Publishing
1279 Spoko and Poko May 18, 2015 $4.99N/A (N/A)0 .. 20,00000:00 (00:00)Volens Nolens GamesVolens Nolens Games
1280 Sir! I'd Like To Report A Bug! Oct 19, 2015 $1.99N/A (N/A)20,000 .. 50,00000:00 (00:00)Lord Puggington GamesLord Puggington Games
1281 Football Mogul 2014 May 28, 2015 $0.99N/A (N/A)0 .. 20,00000:00 (00:00)Sports Mogul, Inc.Sports Mogul, Inc.
1282 Cyberpunk 3776 Mar 24, 2015 $4.99N/A (N/A)0 .. 20,00000:00 (00:00)Peter HannPeter Hann
1283 Alexia Crow and the Cave of Heroes May 4, 2015 $5.99N/A (N/A)0 .. 20,00000:00 (00:00)QuesttracersQuesttracers
1284 CO-OP : Decrypted Aug 17, 2015 $9.99N/A (N/A)0 .. 20,00000:00 (00:00)Pixelz GamesPixelz Games
1285 Sixth Grade Detective Dec 21, 2015 $4.99N/A (N/A)0 .. 20,00000:00 (00:00)Choice of GamesChoice of Games
1286 The Tiny Tale 2 Jan 30, 2015 $6.99N/A (N/A)0 .. 20,00000:00 (00:00)Running PillowRunning Pillow
1287 Save Halloween: City of Witches Oct 20, 2015 $4.99N/A (N/A)20,000 .. 50,00000:00 (00:00)Quick Click GamesCalenture Remedy Ltd
1288 Castles Oct 9, 2015 $0.99N/A (N/A)20,000 .. 50,00000:00 (00:00)WhootgamesBadLand Publishing
1289 ASA: A Space Adventure - Remastered Edition Mar 4, 2015 $9.99N/A (N/A)20,000 .. 50,00000:00 (00:00)Simon Says: Play!Simon Says: Play!
1290 Thirty Years' War Sep 3, 2015 $29.99N/A (N/A)0 .. 20,00000:00 (00:00)Ageod, HQSlitherine Ltd.
1291 Hyperspace Pinball Sep 30, 2015 $2.99N/A (N/A)20,000 .. 50,00000:00 (00:00)Gamieon, Inc.Gamieon, Inc.
1292 Card Dungeon Jun 2, 2015 $5.99N/A (N/A)0 .. 20,00000:00 (00:00)Playtap GamesPlaytap Games
1293 Midnight's Blessing May 25, 2015 $9.99N/A (N/A)50,000 .. 100,00000:00 (00:00)Warfare StudiosWarfare Studios
1294 Dream Chamber Jul 31, 2015 $9.99N/A (N/A)0 .. 20,00000:00 (00:00)Forge ReplyMicroids Indie
1295 Front Wars Aug 17, 2015 N/AN/A (N/A)0 .. 20,00000:00 (00:00)Homemade GamesHomemade Games
1296 Hacker's Beat Sep 25, 2015 $9.99N/A (N/A)20,000 .. 50,00000:00 (00:00)TEAM TANDS PLUSPLAYISM
1297 MAGIX Music Maker Hip Hop 6 Steam Edition Mar 30, 2015 $39.99N/A (N/A)20,000 .. 50,00000:00 (00:00)MAGIX Software GmbHMAGIX Software GmbH
1298 Barren Roads Jun 1, 2015 $8.99N/A (N/A)0 .. 20,00000:00 (00:00)ForcequitapplicatonsForcequitapplicatons
1299 Blood of Magic Dec 18, 2015 $9.99N/A (N/A)50,000 .. 100,00000:00 (00:00)Stoneworks GamesStoneworks Games
1300 DungeonRift Jul 1, 2015 $9.99N/A (N/A)0 .. 20,00000:00 (00:00)RiftyGamesRiftyGames
1301 Hypership Out of Control Sep 29, 2015 $1.99N/A (N/A)0 .. 20,00000:00 (00:00)Fun Infused GamesFun Infused Games
1302 Super Sky Arena Oct 5, 2015 $14.99N/A (N/A)0 .. 20,00000:00 (00:00)Hammer LabsHammer Labs, Deck13
1303 Robinson Crusoe and the Cursed Pirates Feb 10, 2015 $9.99N/A (N/A)20,000 .. 50,00000:00 (00:00)MagicIndieMumboJumbo
1304 N2O: Nitrous Oxide Jun 29, 2015 N/AN/A (N/A)0 .. 20,00000:00 (00:00)UrbanscanConsole Classics
1305 RePete Nov 1, 2015 $1.99N/A (N/A)0 .. 20,00000:00 (00:00)Luke GodfreyLuke Godfrey
1306 Inside Me Sep 29, 2015 FreeN/A (N/A)0 .. 20,00000:00 (00:00)SnowBiteGamesSnowBiteGames
1307 City Quest Aug 20, 2015 $1.99N/A (N/A)0 .. 20,00000:00 (00:00)Stone Monkey StudiosStone Monkey Studios
1308 Cannibal Oct 28, 2015 $13.99N/A (N/A)0 .. 20,00000:00 (00:00)Gametek BrasilGametek Brasil
1309 Hypt Apr 23, 2015 $4.99N/A (N/A)20,000 .. 50,00000:00 (00:00)EmpI Studios
1310 Sherlock Holmes Consulting Detective: The Case of the Mystified Murderess Jun 8, 2015 $3.99N/A (N/A)20,000 .. 50,00000:00 (00:00)ZojoiZojoi
1311 Entropy Rising Nov 20, 2015 $0.99N/A (N/A)20,000 .. 50,00000:00 (00:00)Autotivity EntertainmentAutotivity Entertainment
1312 Alice's Mom's Rescue Sep 3, 2015 $4.99N/A (N/A)0 .. 20,00000:00 (00:00)OrionSoftOrionSoft
1313 MiniOne Racing Jul 1, 2015 $4.99N/A (N/A)0 .. 20,00000:00 (00:00)FrogamesFrogames
1314 NOBUNAGA'S AMBITION: Tenshouki with Power Up Kit HD Version Nov 11, 2015 $54.99N/A (N/A)20,000 .. 50,00000:00 (00:00)KOEI TECMO GAMES CO., LTD.KOEI TECMO GAMES CO., LTD.
1315 Abduction Action! Plus Sep 1, 2015 $1.99N/A (N/A)0 .. 20,00000:00 (00:00)Fun Infused GamesFun Infused Games
1316 B.A.D Battle Armor Division Aug 18, 2015 $2.99N/A (N/A)0 .. 20,00000:00 (00:00)Crian SoftCrian Soft
1317 Pahelika: Revelations Mar 2, 2015 $13.99N/A (N/A)20,000 .. 50,00000:00 (00:00)Ironcode GamingIroncode Gaming
1318 Steam Heroes Jan 30, 2015 $5.99N/A (N/A)20,000 .. 50,00000:00 (00:00)ProjectorGamesKISS ltd
1319 Polychromatic Oct 2, 2015 FreeN/A (N/A)0 .. 20,00000:00 (00:00)Brushfire GamesBrushfire Games
1320 TorqueL Jan 22, 2015 $4.99N/A (N/A)0 .. 20,00000:00 (00:00)Nanmo (Takayuki Yanagihara) @ FullPowerSideAttack.com, sanodg (Nobuyoshi Sano), FullPowerSideAttack.comPLAYISM
1321 Last Half of Darkness - Society of the Serpent Moon Aug 3, 2015 $4.99N/A (N/A)0 .. 20,00000:00 (00:00)WRF StudiosWRF Studios
1322 Cash_Out May 27, 2015 $4.99N/A (N/A)0 .. 20,00000:00 (00:00)UntouchUntouch
1323 Roads of Rome 3 Oct 19, 2015 $3.99N/A (N/A)0 .. 20,00000:00 (00:00)QumaronQumaron
1324 Spectra Jul 10, 2015 $7.49N/A (N/A)0 .. 20,00000:00 (00:00)Gateway InteractiveMastertronic
1325 Teddy Terror May 21, 2015 $4.99N/A (N/A)0 .. 20,00000:00 (00:00)Rage Monster GamesRage Monster Games
1326 Exile's End Aug 31, 2015 $9.99N/A (N/A)0 .. 20,00000:00 (00:00)Magnetic RealmsMarvelous
1327 Herding Dog Dec 25, 2015 $0.99N/A (N/A)0 .. 20,00000:00 (00:00)xixgamesxixgames
1328 Cults and Daggers Feb 12, 2015 $29.99N/A (N/A)20,000 .. 50,00000:00 (00:00)ChaphatChaphat
1329 Streamline Aug 21, 2015 $2.99N/A (N/A)20,000 .. 50,00000:00 (00:00)Frostcloud StudiosFrostcloud Studios
1330 Avaris 2: The Return of the Empress Dec 15, 2015 $7.99N/A (N/A)0 .. 20,00000:00 (00:00)StudioGIWZoo Corporation
1331 Tokyo Hosto Jun 2, 2015 $4.99N/A (N/A)0 .. 20,00000:00 (00:00)Baller IndustriesBaller industries
1332 Atlantis 2: Beyond Atlantis Apr 17, 2015 $3.99N/A (N/A)0 .. 20,00000:00 (00:00)Cryo Interactive, KoalabsMicroids
1333 Champions Of Chaos 2 Aug 24, 2015 $1.99N/A (N/A)20,000 .. 50,00000:00 (00:00)Epic LLamaEpic LLama
1334 Space - The Return Of The Pixxelfrazzer Nov 2, 2015 $2.99N/A (N/A)0 .. 20,00000:00 (00:00)SørbSørb
1335 Welcome to Boon Hill Oct 31, 2015 $7.99N/A (N/A)0 .. 20,00000:00 (00:00)Matthew Ritter14 Hours Productions
1336 Mayhem Triple Sep 4, 2015 $4.99N/A (N/A)0 .. 20,00000:00 (00:00)Dustin GunnDustin Gunn
1337 Prismatica Jul 1, 2015 $4.99N/A (N/A)0 .. 20,00000:00 (00:00)Loomus GamesLoomus Games
1338 Respawn Man Dec 21, 2015 $2.99N/A (N/A)0 .. 20,00000:00 (00:00)Evan (Solidplasma) PeiperlSolidplasma Studios LLC
1339 Gare Sapphire Mechs Apr 1, 2015 $4.99N/A (N/A)0 .. 20,00000:00 (00:00)Prexen StudiosPrexen Studios
1340 Rugby League Team Manager 2015 Jun 19, 2015 $19.99N/A (N/A)0 .. 20,00000:00 (00:00)Alternative Software LtdAlternative Software Ltd
1341 Castle Chaos Dec 8, 2015 $2.99N/A (N/A)20,000 .. 50,00000:00 (00:00)Odd Comet GamesOdd Comet Games
1342 Breakout Invaders Apr 24, 2015 $3.99N/A (N/A)20,000 .. 50,00000:00 (00:00)DreamsSoftGamesDreamsSoftGames
1343 Cylne Mar 5, 2015 $8.99N/A (N/A)0 .. 20,00000:00 (00:00)CylneCylne
1344 The Book of Desires Dec 18, 2015 $6.99N/A (N/A)20,000 .. 50,00000:00 (00:00)Meridian'93Fulqrum Publishing
1345 Predator Simulator May 15, 2015 $7.99N/A (N/A)20,000 .. 50,00000:00 (00:00)Imran ArafatReality Gameware
1346 Monsterland Dec 14, 2015 $1.99N/A (N/A)20,000 .. 50,00000:00 (00:00)Second Variety GamesSecond Variety Games
1347 Let's Explore the Jungle (Junior Field Trips) Apr 24, 2015 $6.99N/A (N/A)0 .. 20,00000:00 (00:00)Humongous EntertainmentHumongous Entertainment, Nightdive Studios
1348 The Depths of Tolagal Jan 5, 2015 $3.99N/A (N/A)20,000 .. 50,00000:00 (00:00)Matthew JenningsMatthew Jennings
1349 Combat Cats Jun 26, 2015 $2.99N/A (N/A)0 .. 20,00000:00 (00:00)Dingo DangoDingo Dango
1350 Nature's Zombie Apocalypse Jul 23, 2015 $12.99N/A (N/A)0 .. 20,00000:00 (00:00)AniodeAniode
1351 Game Type DX Sep 23, 2015 $2.99N/A (N/A)20,000 .. 50,00000:00 (00:00)Mommy's Best GamesMommy's Best Games
1352 Supreme League of Patriots - Episode 2: Patriot Frames Jan 29, 2015 $5.99N/A (N/A)20,000 .. 50,00000:00 (00:00)No Bull IntentionsPhoenix Online Publishing
1353 Pillar May 29, 2015 $7.99N/A (N/A)0 .. 20,00000:00 (00:00)Michael Hicks, Gonçalo AntunesMichaelArts
1354 VolChaos Dec 8, 2015 $1.99N/A (N/A)0 .. 20,00000:00 (00:00)Fun Infused GamesFun Infused Games
1355 Fermi's Path Apr 20, 2015 $8.99N/A (N/A)0 .. 20,00000:00 (00:00)GameArt Studio GmbHGameArt Studio GmbH
1356 The Princess' Heart Jul 30, 2015 $4.99N/A (N/A)20,000 .. 50,00000:00 (00:00)RosePortal GamesKOMODO
1357 Starlaxis Supernova Edition Feb 11, 2015 $4.99N/A (N/A)0 .. 20,00000:00 (00:00)Spiderwork GamesSpiderwork Games
1358 Deserter Simulator Jul 30, 2015 N/AN/A (N/A)0 .. 20,00000:00 (00:00)Pocket QueriesZoo Corporation
1359 One Hundred Ways Oct 23, 2015 $7.99N/A (N/A)20,000 .. 50,00000:00 (00:00)Sunlight GamesSunlight Games
1360 Street Arena Jul 10, 2015 $6.99N/A (N/A)20,000 .. 50,00000:00 (00:00)Blossom GamesGlob Games Studio
1361 Wrestling Spirit 3 Dec 9, 2015 $19.99N/A (N/A)0 .. 20,00000:00 (00:00)Grey Dog SoftwareViva Media
1362 3D MiniGolf May 29, 2015 $4.99N/A (N/A)0 .. 20,00000:00 (00:00)Z-Software GmbHfamilyplay
1363 Nubs' Adventure Oct 12, 2015 $6.99N/A (N/A)0 .. 20,00000:00 (00:00)MaxBytesMaxBytes
1364 Ossuary May 27, 2015 $9.99N/A (N/A)0 .. 20,00000:00 (00:00)Gregory Avery-Weir, Melissa Avery-WeirFuture Proof Games
1365 Dwarven Brawl Bros Jun 25, 2015 $4.99N/A (N/A)0 .. 20,00000:00 (00:00)Dwarves Might FlyDwarves Might Fly
1366 Terraform May 8, 2015 $2.99N/A (N/A)0 .. 20,00000:00 (00:00)Holgersson EntertainmentHolgersson Entertainment
1367 Super Slam Dunk Touchdown Dec 16, 2015 $15N/A (N/A)0 .. 20,00000:00 (00:00)Tipping Goat LLCTipping Goat LLC
1368 Island Tribe Oct 19, 2015 $2.99N/A (N/A)0 .. 20,00000:00 (00:00)QumaronQumaron
1369 Baseball Mogul Diamond Apr 3, 2015 $11.99N/A (N/A)0 .. 20,00000:00 (00:00)Sports Mogul, Inc.Sports Mogul, Inc.
1370 Cute Things Dying Violently Sep 2, 2015 $2.99N/A (N/A)0 .. 20,00000:00 (00:00)ApathyWorks, LLCApathyWorks, LLC
1371 Ironclads 2: American Civil War Nov 5, 2015 $9.99N/A (N/A)20,000 .. 50,00000:00 (00:00)Totem GamesStrategy First
1372 Crayon Chronicles Mar 2, 2015 $3.99N/A (N/A)0 .. 20,00000:00 (00:00)Outer Grid Games LLCOuter Grid Games LLC
1373 The Travels of Marco Polo May 6, 2015 $6.99N/A (N/A)0 .. 20,00000:00 (00:00)Totem StudioPlug In Digital
1374 Save Your Mother Dec 3, 2015 $2.99N/A (N/A)20,000 .. 50,00000:00 (00:00)Tuomo LaineTuomo's games
1375 CopperCube 5 Game Engine May 1, 2015 $19.99N/A (N/A)0 .. 20,00000:00 (00:00)Ambiera e.U.Ambiera e.U.
1376 Seeders Aug 21, 2015 $9.99N/A (N/A)20,000 .. 50,00000:00 (00:00)BigosaurBigosaur
1377 R.O.O.T.S Apr 1, 2015 $1.99N/A (N/A)20,000 .. 50,00000:00 (00:00)reMaginariumreMaginarium
1378 A Sirius Game Aug 21, 2015 $4.99N/A (N/A)20,000 .. 50,00000:00 (00:00)Overcloud9, Phantasm GamesAldorlea Games
1379 Overruled! Sep 15, 2015 $2.59N/A (N/A)20,000 .. 50,00000:00 (00:00)Dlala StudiosTeam17 Digital Ltd
1380 Space Station Alpha Feb 27, 2015 $5.99N/A (N/A)20,000 .. 50,00000:00 (00:00)NuclearFirecrackerNuclearFirecracker
1381 Galactic Inheritors Jun 9, 2015 $19.99N/A (N/A)50,000 .. 100,00000:00 (00:00)Crispon GamesPlug In Digital, Argonauts Interactive
1382 Tompi Jones May 22, 2015 $3.99N/A (N/A)20,000 .. 50,00000:00 (00:00)DreamsSoftGamesDreamsSoftGames
1383 "Glow Ball" - The billiard puzzle game Jul 20, 2015 $2.99N/A (N/A)100,000 .. 200,00000:00 (00:00)WTFOMGamesWTFOMGames
1384 Starship Rubicon Jul 13, 2015 $9.99N/A (N/A)0 .. 20,00000:00 (00:00)WickworksCheerful Ghost
1385 Samsa and the Knights of Light Dec 2, 2015 $4.99N/A (N/A)20,000 .. 50,00000:00 (00:00)Atixx, ClorithStudioClorithStudio
1386 Astronaut Simulator Apr 2, 2015 $1.99N/A (N/A)0 .. 20,00000:00 (00:00)AstrosimerAstrosimer
1387 Treeker: The Lost Glasses Remake May 13, 2015 $2.99N/A (N/A)0 .. 20,00000:00 (00:00)Fernando PauloFernando Paulo
1388 Project Tarvotan Sep 25, 2015 $0.99N/A (N/A)20,000 .. 50,00000:00 (00:00)FlagmanJeremyFlagmanJeremy
1389 Pilot Brothers 3: Back Side of the Earth Jan 22, 2015 $4.99N/A (N/A)0 .. 20,00000:00 (00:00)1C WirelessFulqrum Publishing
1390 Hydraulic Empire Jul 31, 2015 $7.99N/A (N/A)0 .. 20,00000:00 (00:00)Batholith EntertainmentBatholith Entertainment
1391 Dead But Alive! Southern England Oct 2, 2015 $14.99N/A (N/A)0 .. 20,00000:00 (00:00)Niels Bauer GamesNiels Bauer Games
1392 Dungeon Crawlers HD Jun 1, 2015 $4.99N/A (N/A)0 .. 20,00000:00 (00:00)Drowning Monkeys GamesDrowning Monkeys Games
1393 Synonymy Mar 5, 2015 $1.99N/A (N/A)20,000 .. 50,00000:00 (00:00)Christopher Cinq-Mars JarvisChristopher Cinq-Mars Jarvis
1394 True Bliss May 22, 2015 $5.99N/A (N/A)20,000 .. 50,00000:00 (00:00)Artur MandasKPL
1395 The Emptiness Deluxe Edition Apr 17, 2015 $9.99N/A (N/A)20,000 .. 50,00000:00 (00:00)Hooligans EntertainmentViva Media
1396 Goscurry Jan 16, 2015 $4.99N/A (N/A)0 .. 20,00000:00 (00:00)Demigiant, Isak J MartinssonDemigiant
1397 Wave Mechanics Apr 23, 2015 $4.99N/A (N/A)0 .. 20,00000:00 (00:00)Adam TarnowskiAdam Tarnowski
1398 Weather Lord: Following the Princess Collector's Edition Nov 4, 2015 $9.99N/A (N/A)0 .. 20,00000:00 (00:00)Alawar CasualAlawar Casual
1399 Dragon Fantasy: The Volumes of Westeria Apr 9, 2015 $9.99N/A (N/A)0 .. 20,00000:00 (00:00)MutekiChoice Provisions
1400 Dandy: Or a Brief Glimpse Into the Life of the Candy Alchemist Aug 4, 2015 $9.99N/A (N/A)0 .. 20,00000:00 (00:00)wefiends, Inc.wefiends, Inc.
1401 WonderCat Adventures Sep 11, 2015 $3.99N/A (N/A)0 .. 20,00000:00 (00:00)Obscure CloudObscure Cloud
1402 Sister’s Secrecy: Arcanum Bloodlines - Premium Edition May 28, 2015 $6.99N/A (N/A)20,000 .. 50,00000:00 (00:00)Space Monkey International1C Company
1403 Lost Labyrinth Extended Version Nov 24, 2015 $4.99N/A (N/A)0 .. 20,00000:00 (00:00)Markus DöbeleFlying Interactive
1404 Ashley Clark: The Secrets of the Ancient Temple Jun 29, 2015 $9.99N/A (N/A)0 .. 20,00000:00 (00:00)N-Tri StudioN-Tri Studio
1405 Motorbike Jan 19, 2015 $24.99N/A (N/A)0 .. 20,00000:00 (00:00)baKno GamesbaKno Games
1406 After All Apr 20, 2015 $2.99N/A (N/A)50,000 .. 100,00000:00 (00:00)JAMgamesW. T. B.
1407 The Land Of Lamia Nov 23, 2015 $0.99N/A (N/A)0 .. 20,00000:00 (00:00)Eddy GamesEddy Games
1408 Desert Law Mar 25, 2015 $2.99N/A (N/A)20,000 .. 50,00000:00 (00:00)AriseFulqrum Publishing
1409 Minimon Mar 25, 2015 N/AN/A (N/A)0 .. 20,00000:00 (00:00)Lunar LabsLunar Labs
1410 Crystal Catacombs Jan 15, 2015 $7.99N/A (N/A)0 .. 20,00000:00 (00:00)Levels or Lives, Super Fun GamesCrescent Moon Games
1411 liteCam Game 5: 120 FPS Game Capture + Streamer Dec 18, 2015 $19.99N/A (N/A)0 .. 20,00000:00 (00:00)Rsupport Inc.Rsupport Inc.
1412 Nusantara: Legend of The Winged Ones Dec 13, 2015 $4.99N/A (N/A)0 .. 20,00000:00 (00:00)SweetChielSweetChiel
1413 Starsphere Oct 26, 2015 $3.99N/A (N/A)0 .. 20,00000:00 (00:00)Julia GamesJulia Games
1414 Starchaser: Priestess of the Night Sky Jul 24, 2015 $9.99N/A (N/A)0 .. 20,00000:00 (00:00)NonlinearPLAYISM
1415 Mighty Switch Force! Academy Nov 23, 2015 $9.99N/A (N/A)0 .. 20,00000:00 (00:00)WayForwardWayForward
1416 Serafina's Crown May 26, 2015 $7.99N/A (N/A)20,000 .. 50,00000:00 (00:00)Woodsy StudioThesis Games
1417 The Musketeers: Victoria's Quest Aug 20, 2015 $3.99N/A (N/A)20,000 .. 50,00000:00 (00:00)New Bridge Games, Alawar EntertainmentESDigital Games
1418 Trigonarium Aug 31, 2015 $0.99N/A (N/A)0 .. 20,00000:00 (00:00)Kimmo LahtinenKimmo Factor Oy
1419 Wimp: Who Stole My Pants? Jun 5, 2015 $3.99N/A (N/A)0 .. 20,00000:00 (00:00)FlexileStudioFlexileStudio
1420 Ratings War Oct 2, 2015 $4.99N/A (N/A)0 .. 20,00000:00 (00:00)Choice of GamesChoice of Games
1421 Tisnart Tiles Aug 31, 2015 $9.99N/A (N/A)20,000 .. 50,00000:00 (00:00)TisnartSA Industry
1422 Baseball Mogul 2015 Jul 24, 2015 $4.99N/A (N/A)0 .. 20,00000:00 (00:00)Sports Mogul, Inc.Sports Mogul, Inc.
1423 Lootfest Mar 14, 2015 FreeN/A (N/A)0 .. 20,00000:00 (00:00)vikingfabian.comvikingfabian.com
1424 An Imp? A Fiend! Mar 16, 2015 $0.99N/A (N/A)20,000 .. 50,00000:00 (00:00)Blaze EpicBlaze Epic
1425 Moonbase 332 Sep 18, 2015 $4.99N/A (N/A)20,000 .. 50,00000:00 (00:00)camefrom.space, Marco Sadowskicamefrom.space
1426 The fall of gods Dec 18, 2015 $2.99N/A (N/A)20,000 .. 50,00000:00 (00:00)GeexGamesGeexGames
1427 Crashed Lander Feb 4, 2015 $4.99N/A (N/A)20,000 .. 50,00000:00 (00:00)Don WhitakerBrain Blinks
1428 Quantum Conscience Jun 9, 2015 $4.99N/A (N/A)0 .. 20,00000:00 (00:00)Woodsy StudioWoodsy Studio
1429 Ladra Nov 13, 2015 $4.99N/A (N/A)20,000 .. 50,00000:00 (00:00)Bright Flask GamesBright Flask Games
1430 Cricket Captain 2015 Jul 8, 2015 $9.99N/A (N/A)0 .. 20,00000:00 (00:00)Childish ThingsKISS ltd
1431 Deadly Sin Mar 27, 2015 $4.99N/A (N/A)50,000 .. 100,00000:00 (00:00)Dancing Dragon GamesKOMODO
1432 Tango Fiesta Sep 24, 2015 $9.99N/A (N/A)20,000 .. 50,00000:00 (00:00)Spilt Milk Studios LtdSpilt Milk Studios Ltd
1433 Reflections Jun 26, 2015 $9.99N/A (N/A)0 .. 20,00000:00 (00:00)Broken Window StudiosBroken Window Studios
1434 Replay - VHS is not dead Jul 9, 2015 $9.99N/A (N/A)0 .. 20,00000:00 (00:00)Team ReplayNeko Entertainment
1435 Scarab Tales Jul 1, 2015 $4.99N/A (N/A)20,000 .. 50,00000:00 (00:00)Playito.comPlayito.com
1436 Silver Creek Falls: Chapter 2 Sep 30, 2015 $4.99N/A (N/A)0 .. 20,00000:00 (00:00)Sapphire Dragon ProductionsSapphire Dragon Productions
1437 The Body Changer Oct 15, 2015 $4.99N/A (N/A)0 .. 20,00000:00 (00:00)TheShortAndTheTallTheShortAndTheTall
1438 The Guilt and the Shadow Feb 2, 2015 $8.99N/A (N/A)50,000 .. 100,00000:00 (00:00)oophokoophok
1439 Déjà Vu: MacVenture Series Jan 26, 2015 $2.99N/A (N/A)20,000 .. 50,00000:00 (00:00)ZojoiZojoi
1440 ManaCollect Apr 17, 2015 $6.99N/A (N/A)0 .. 20,00000:00 (00:00)Tazigen ClockFruitbat Factory
1441 Crossfire: Dungeons May 21, 2015 $3.99N/A (N/A)20,000 .. 50,00000:00 (00:00)Random Thoughts EntertainmentRandom Thoughts Enterainment
1442 STAR-BOX: RPG Adventures in Space Aug 17, 2015 $4.99N/A (N/A)50,000 .. 100,00000:00 (00:00)Michael FlynnFlynnFour Games
1443 Raywin Jul 29, 2015 $4.99N/A (N/A)20,000 .. 50,00000:00 (00:00)FlatlineVolens Nolens Games
1444 TownCraft Feb 25, 2015 $9.99N/A (N/A)0 .. 20,00000:00 (00:00)Flat Earth Games, Epiphany GamesFlat Earth Games
1445 Tiamat X May 29, 2015 $1.99N/A (N/A)20,000 .. 50,00000:00 (00:00)BBQ GamesBBQ Games
1446 We Are Legion Aug 7, 2015 $9.99N/A (N/A)0 .. 20,00000:00 (00:00)Pwnee StudiosPwnee Studios
1447 This Starry Midnight We Make Jun 1, 2015 $9.99N/A (N/A)0 .. 20,00000:00 (00:00)CAVYHOUSECarpe Fulgur LLC
1448 Inferno 2 Jul 29, 2015 $4.99N/A (N/A)0 .. 20,00000:00 (00:00)RadiangamesRadiangames
1449 Puzzle Strike Dec 21, 2015 $14.99N/A (N/A)0 .. 20,00000:00 (00:00)Sirlin GamesSirlin Games
1450 The Fool Mar 9, 2015 $9.99N/A (N/A)20,000 .. 50,00000:00 (00:00)MagicIndieMumboJumbo
1451 Link: The Unleashed Nexus Aug 21, 2015 $9.99N/A (N/A)0 .. 20,00000:00 (00:00)ReminisceReminisce
1452 Trap Them Jul 10, 2015 $4.99N/A (N/A)0 .. 20,00000:00 (00:00)Juri SchupiloJuri Schupilo
1453 The Great Fusion Feb 25, 2015 $2.99N/A (N/A)20,000 .. 50,00000:00 (00:00)Loading HomeLoading Home
1454 Bret Airborne Jan 29, 2015 $4.99N/A (N/A)0 .. 20,00000:00 (00:00)Machine 22Machine 22
1455 Shadowgate: MacVenture Series Jan 26, 2015 $2.99N/A (N/A)0 .. 20,00000:00 (00:00)ZojoiZojoi
1456 Akuatica Nov 27, 2015 $4.99N/A (N/A)0 .. 20,00000:00 (00:00)Tianyu StudioTianyu Studio
1457 Fated Souls Jul 30, 2015 $6.99N/A (N/A)100,000 .. 200,00000:00 (00:00)Warfare StudiosAldorlea Games
1458 Orion: A Sci-Fi Visual Novel Sep 28, 2015 $4.99N/A (N/A)20,000 .. 50,00000:00 (00:00)Cylight StudiosCylight Studios
1459 Afterlife Empire Aug 21, 2015 $4.99N/A (N/A)0 .. 20,00000:00 (00:00)Autobotika, Game Nation IncThe Fine Young Capitalists
1460 Astro Emporia Feb 2, 2015 $0.99N/A (N/A)50,000 .. 100,00000:00 (00:00)Squirrelbot GamesSquirrelbot Games
1461 BANZAI PECAN: The Last Hope For the Young Century Jan 26, 2015 $2.99N/A (N/A)0 .. 20,00000:00 (00:00)SERIOUS*IMPACT WORKSZanza Studios, LLC.
1462 CDF Ghostship Jun 26, 2015 $9.99N/A (N/A)0 .. 20,00000:00 (00:00)MadAboutGamesStudiosMadAboutGamesStudios
1463 Devils & Demons Oct 6, 2015 $1.99N/A (N/A)50,000 .. 100,00000:00 (00:00)HandyGamesHandyGames
1464 Burnstar Mar 18, 2015 $4.99N/A (N/A)0 .. 20,00000:00 (00:00)Nerve Software LLCNerve Software LLC
1465 Army of Pixels Oct 29, 2015 $4.99N/A (N/A)0 .. 20,00000:00 (00:00)Gergely Zsolnay, Richard MarkosGergely Zsolnay, Richard Markos
1466 My Paper Boat Sep 23, 2015 FreeN/A (N/A)0 .. 20,00000:00 (00:00)TML-StudiosAerosoft GmbH
1467 Devilry Jun 30, 2015 $3.99N/A (N/A)0 .. 20,00000:00 (00:00)New StateNew State
1468 Buff Knight Advanced Sep 4, 2015 $2.99N/A (N/A)0 .. 20,00000:00 (00:00)Buff Studio Co.,Ltd.Buff Studio Co.,Ltd.
1469 Jim Power -The Lost Dimension Sep 30, 2015 $17.99N/A (N/A)0 .. 20,00000:00 (00:00)Digital ConceptsPiko Interactive LLC, Bleem!
1470 3D ParticleGen Visual FX Apr 3, 2015 $9.99N/A (N/A)50,000 .. 100,00000:00 (00:00)Reality PumpTopWare Interactive
1471 Mystery Castle: The Mirror's Secret Dec 18, 2015 $6.99N/A (N/A)20,000 .. 50,00000:00 (00:00)Meridian'93Fulqrum Publishing
1472 Freedom Cry Sep 4, 2015 $6.99N/A (N/A)50,000 .. 100,00000:00 (00:00)Warfare StudiosWarfare Studios
1473 Lost in Paradise Aug 20, 2015 $2.99N/A (N/A)100,000 .. 200,00000:00 (00:00)Elev8 GamesElev8 Games
1474 Lost in a Forest Jan 21, 2015 $1.99N/A (N/A)0 .. 20,00000:00 (00:00)KonsordoKonsordo
1475 //SNOWFLAKE TATTOO// Mar 27, 2015 $4.99N/A (N/A)20,000 .. 50,00000:00 (00:00)Rail Slave GamesKPL
1476 Ninja Guy Jan 5, 2015 $1.99N/A (N/A)20,000 .. 50,00000:00 (00:00)Immunity StudiosImmunity Studios
1477 Project Druid - 2D Labyrinth Explorer- Jul 30, 2015 $1.99N/A (N/A)200,000 .. 500,00000:00 (00:00)Cemil TasdemirBack To Basics Gaming
1478 Prompt Jul 6, 2015 $2N/A (N/A)0 .. 20,00000:00 (00:00)foxel_foxel_
1479 Toto Temple Deluxe Sep 29, 2015 $9.99N/A (N/A)0 .. 20,00000:00 (00:00)Juicy BeastJuicy Beast
1480 Viking Saga: The Cursed Ring Oct 29, 2015 $2.99N/A (N/A)0 .. 20,00000:00 (00:00)QumaronQumaron
1481 Ultimate Space Commando May 12, 2015 $9.99N/A (N/A)0 .. 20,00000:00 (00:00)Creatio 49Angry Cat Ltd.
1482 Planet Diver Nov 30, 2015 $3.99N/A (N/A)0 .. 20,00000:00 (00:00)FabrazFabraz
1483 The Living Dungeon Nov 2, 2015 $9.99N/A (N/A)0 .. 20,00000:00 (00:00)RadiationBurnRadiationBurn
1484 Moorhuhn Invasion (Crazy Chicken Invasion) Feb 20, 2015 N/AN/A (N/A)20,000 .. 50,00000:00 (00:00)DoyodoRetroism
1485 The Lost Heir: The Fall of Daria Feb 20, 2015 $4.99N/A (N/A)0 .. 20,00000:00 (00:00)Hosted GamesHosted Games
1486 Starship Traveller Mar 11, 2015 $4.99N/A (N/A)0 .. 20,00000:00 (00:00)Tin Man GamesTin Man Games
1487 Spirit of War Mar 12, 2015 $9.99N/A (N/A)0 .. 20,00000:00 (00:00)G-OLDPlug In Digital
1488 Cave Coaster Jun 4, 2015 $4.99N/A (N/A)20,000 .. 50,00000:00 (00:00)SmyowlStrategy First
1489 Guild Commander Jan 23, 2015 $9.99N/A (N/A)0 .. 20,00000:00 (00:00)GTGDGTGD
1490 One Ship Two Ship Redshift Blueshift Sep 24, 2015 $8.99N/A (N/A)0 .. 20,00000:00 (00:00)HYPYRYLHYPYRYL
1491 Wait - Extended Oct 29, 2015 $7.99N/A (N/A)0 .. 20,00000:00 (00:00)rest.less Gamesrest.less Games
1492 Super Furball Apr 21, 2015 $3.99N/A (N/A)0 .. 20,00000:00 (00:00)Dustin GunnDustin Gunn
1493 Sandmason May 4, 2015 $3.99N/A (N/A)0 .. 20,00000:00 (00:00)GoodVoleGoodVole
1494 Sentinel 4: Dark Star Aug 13, 2015 $6.99N/A (N/A)0 .. 20,00000:00 (00:00)Origin8 Technologies LtdOrigin8 Technologies Ltd
1495 Planetship Feb 6, 2015 $8.99N/A (N/A)0 .. 20,00000:00 (00:00)LaserWzzrd GamesLaserWzzrd Games
1496 Sherlock Holmes Consulting Detective: The Case of the Mummy's Curse Jun 8, 2015 $3.99N/A (N/A)20,000 .. 50,00000:00 (00:00)ZojoiZojoi
1497 Boneless Zombie Jul 27, 2015 $4.99N/A (N/A)0 .. 20,00000:00 (00:00)Zoo CorporationZoo Corporation
1498 Showing Tonight: Mindhunters Incident Nov 12, 2015 $4.99N/A (N/A)20,000 .. 50,00000:00 (00:00)phime studio LLCphime studio LLC
1499 Paper Dungeons Apr 20, 2015 $4.99N/A (N/A)0 .. 20,00000:00 (00:00)Stephane Valverde, Leslie ValverdeAgent Mega
1500 Apothecarium: The Renaissance of Evil - Premium Edition May 28, 2015 $6.99N/A (N/A)20,000 .. 50,00000:00 (00:00)Space Monkey International1C Online Games
1501 ルナティックドーン 前途への道標 Jan 8, 2015 $15.99N/A (N/A)0 .. 20,00000:00 (00:00)ARTDINKKOMODO
1502 XIIZEAL Jun 5, 2015 $11.99N/A (N/A)20,000 .. 50,00000:00 (00:00)TRIANGLE SERVICEKOMODO
1503 Warriors & Castles Jun 30, 2015 $2.99N/A (N/A)20,000 .. 50,00000:00 (00:00)Estudio Raed WulfEstudio Raed Wulf
1504 Cluck Yegger in Escape From The Planet of The Poultroid Nov 9, 2015 $2.99N/A (N/A)0 .. 20,00000:00 (00:00)Guys From Andromeda LLCGuys From Andromeda LLC
1505 Eternal Step Oct 16, 2015 $9.99N/A (N/A)0 .. 20,00000:00 (00:00)Once More With GustoGreen Man Gaming Publishing
1506 iaidoka_interlude Apr 24, 2015 $0.99N/A (N/A)0 .. 20,00000:00 (00:00)Blaze EpicBlaze Epic
1507 Cahors Sunset Jan 13, 2015 $1.99N/A (N/A)0 .. 20,00000:00 (00:00)LocomotivahLocomotivah
1508 AdvertCity Jun 5, 2015 $4.99N/A (N/A)0 .. 20,00000:00 (00:00)VoxelStorm, Armchair SoftwareVoxelStorm, Armchair Software
1509 C-Wars Aug 13, 2015 $19.99N/A (N/A)0 .. 20,00000:00 (00:00)Onipunks Studio Inc.Onipunks Studio Inc.
1510 Switch Galaxy Ultra Nov 20, 2015 $9.99N/A (N/A)20,000 .. 50,00000:00 (00:00)Atomicom LimitedGreen Man Gaming Publishing
1511 ADventure Lib Aug 4, 2015 $1.99N/A (N/A)0 .. 20,00000:00 (00:00)Fancy Fish GamesFancy Fish Games
1512 Gravity Error Aug 12, 2015 $4.99N/A (N/A)20,000 .. 50,00000:00 (00:00)Faris MohammedFaris Mohammed
1513 Isbarah Feb 25, 2015 $13.99N/A (N/A)0 .. 20,00000:00 (00:00)Leikir StudioLeikir Studio
1514 Tachyon Project Jul 15, 2015 $9.99N/A (N/A)0 .. 20,00000:00 (00:00)Eclipse GamesEclipse Games
1515 Valiant: Resurrection May 8, 2015 $6.99N/A (N/A)50,000 .. 100,00000:00 (00:00)Warfare StudiosAldorlea Games
1516 Vektor Wars Jun 4, 2015 $9.99N/A (N/A)0 .. 20,00000:00 (00:00)Reset Games LtdReset Games Ltd
1517 The Ritual on Weylyn Island Dec 4, 2015 $11.99N/A (N/A)0 .. 20,00000:00 (00:00)zemaGamezzemaGamez
1518 President for a Day - Corruption Aug 5, 2015 $4.99N/A (N/A)20,000 .. 50,00000:00 (00:00)Serious Games InteractiveMy Way Games
1519 Strania - The Stella Machina - Nov 24, 2015 $14.99N/A (N/A)0 .. 20,00000:00 (00:00)G.rev Ltd.G.rev Ltd.
1520 Caromble! Aug 27, 2015 $12.99N/A (N/A)20,000 .. 50,00000:00 (00:00)Crimson Owl StudiosCrimson Owl Studios
1521 DP Animation Maker Feb 16, 2015 $79.99N/A (N/A)0 .. 20,00000:00 (00:00)DesktopPaints LLCDesktopPaints LLC
1522 FreezeME Dec 10, 2015 $13.99N/A (N/A)0 .. 20,00000:00 (00:00)Rainy Night CreationsRainy Night Creations
1523 Odysseus: Long Way Home Feb 23, 2015 $3.99N/A (N/A)50,000 .. 100,00000:00 (00:00)Rainbow GamesRainbow Games
1524 Tic-Toc-Tower Sep 28, 2015 $2.99N/A (N/A)20,000 .. 50,00000:00 (00:00)Sneaky MammothSOEDESCO
1525 Orbit HD Mar 18, 2015 $1.99N/A (N/A)50,000 .. 100,00000:00 (00:00)BrainchildBrainchild
1526 Will Fight for Food: Super Actual Sellout: Game of the Hour Apr 22, 2015 $4.99N/A (N/A)20,000 .. 50,00000:00 (00:00)PyrodactylPyrodactyl
1527 Wave of Darkness Nov 5, 2015 $29.99N/A (N/A)0 .. 20,00000:00 (00:00)DreamatrixDreamatrix
1528 True Lover's Knot Nov 19, 2015 $9.99N/A (N/A)20,000 .. 50,00000:00 (00:00)Sapphire Dragon ProductionsSapphire Dragon Productions
1529 Shadows of War Jan 2, 2015 $2.99N/A (N/A)50,000 .. 100,00000:00 (00:00)TRI.GTRI.G
1530 Masterspace Jun 15, 2015 $4.99N/A (N/A)20,000 .. 50,00000:00 (00:00)MastertechMastertech
1531 Roads of Rome 2 Oct 16, 2015 $3.99N/A (N/A)0 .. 20,00000:00 (00:00)QumaronQumaron
1532 stratO Jun 1, 2015 $4.99N/A (N/A)0 .. 20,00000:00 (00:00)Mark ChongMark Chong
1533 Pulsen Jul 27, 2015 $14.99N/A (N/A)0 .. 20,00000:00 (00:00)4-Panel Footprint4-Panel Footprint
1534 DELTAZEAL Oct 16, 2015 $11.99N/A (N/A)0 .. 20,00000:00 (00:00)TRIANGLE SERVICEKOMODO
1535 Vector Strain Dec 9, 2015 $4.99N/A (N/A)20,000 .. 50,00000:00 (00:00)OMNIDREAM CREATIONSOMNIDREAM CREATIONS
1536 Snake Blocks Dec 21, 2015 $4.99N/A (N/A)20,000 .. 50,00000:00 (00:00)Spooky CatSpooky Cat
1537 Swords & Crossbones: An Epic Pirate Story Sep 30, 2015 $4.99N/A (N/A)0 .. 20,00000:00 (00:00)Epic Devs LLCEpic Devs LLC
1538 BOMB: Who let the dogfight? Jul 29, 2015 $7.99N/A (N/A)0 .. 20,00000:00 (00:00)La Moustache StudioLa Moustache Studio
1539 Dungeon Hero Jul 7, 2015 N/AN/A (N/A)20,000 .. 50,00000:00 (00:00)Grzegorz SlazinskiGrzegorz Slazinski
1540 Star Trek: Judgment Rites May 8, 2015 $9.99N/A (N/A)20,000 .. 50,00000:00 (00:00)Interplay Entertainment Corp.Interplay Entertainment Corp.
1541 Another Star Jul 28, 2015 $2.99N/A (N/A)0 .. 20,00000:00 (00:00)Vision Riders EntertainmentVision Riders Entertainment
1542 Soccertron Mar 12, 2015 $4.99N/A (N/A)50,000 .. 100,00000:00 (00:00)David ErosaErosa Games
1543 Natural Soccer Feb 2, 2015 $4.99N/A (N/A)0 .. 20,00000:00 (00:00)Thorsten SchleinzerThorsten Schleinzer
1544 Dungeon Manager ZV Oct 16, 2015 $9.99N/A (N/A)0 .. 20,00000:00 (00:00)StudioGIWZoo Corporation
1545 Ski Park Tycoon Feb 3, 2015 $9.99N/A (N/A)0 .. 20,00000:00 (00:00)Jan ZizkaJan Zizka
1546 Spandex Force: Champion Rising Jun 24, 2015 $4.99N/A (N/A)20,000 .. 50,00000:00 (00:00)KarjaSoftVolens Nolens Games
1547 Disposable Heroes Oct 1, 2015 $0.99N/A (N/A)0 .. 20,00000:00 (00:00)Ben ApriglianoEvilized productions
1548 Silicone-2 Jun 3, 2015 $0.99N/A (N/A)50,000 .. 100,00000:00 (00:00)TortConglomerate 5
1549 Club Manager 2016 Nov 19, 2015 $19.99N/A (N/A)20,000 .. 50,00000:00 (00:00)BigBlaze Games2tainment GmbH
1550 Rubber and Lead Sep 4, 2015 $0.99N/A (N/A)20,000 .. 50,00000:00 (00:00)Omega Point GamesCleverweek
1551 Solar Shifter EX Sep 11, 2015 $0.69N/A (N/A)20,000 .. 50,00000:00 (00:00)Elder GamesHeadup
1552 Arson and Plunder: Unleashed Sep 25, 2015 $0.69N/A (N/A)20,000 .. 50,00000:00 (00:00)Chainsaw SyndicateChainsaw Syndicate
1553 Robot vs Birds Zombies Jul 23, 2015 $4.99N/A (N/A)50,000 .. 100,00000:00 (00:00)yfyx gamesMy Way Games
1554 The Interview Feb 4, 2015 $1.99N/A (N/A)0 .. 20,00000:00 (00:00)AnothinkAnothink
1555 Let's Explore the Farm (Junior Field Trips) Apr 24, 2015 $6.99N/A (N/A)0 .. 20,00000:00 (00:00)Humongous EntertainmentHumongous Entertainment, Nightdive Studios
1556 Pale Echoes Dec 10, 2015 $4.99N/A (N/A)20,000 .. 50,00000:00 (00:00)Wyrmling ProductionsKOMODO
1557 STEEL STRIDER Nov 12, 2015 $2.99N/A (N/A)20,000 .. 50,00000:00 (00:00)ASTRO PORTHenteko Doujin
1558 BRAWL Aug 13, 2015 $14.99N/A (N/A)0 .. 20,00000:00 (00:00)Bloober Team SABloober Team SA
1559 Mighty Dungeons Mar 3, 2015 $4.99N/A (N/A)20,000 .. 50,00000:00 (00:00)Yohan Launay, Frederic GaillardFire Biscuit Games
1560 Daughter of Shadows: An SCP Breach Event Jun 26, 2015 $0.99N/A (N/A)0 .. 20,00000:00 (00:00)Blackrose IndustriesBlackrose Industries
1561 The Defenders: The Second Wave Mar 30, 2015 $2.99N/A (N/A)20,000 .. 50,00000:00 (00:00)FallenMasterFallenMaster
1562 Stay Dead Evolution Feb 4, 2015 $5.99N/A (N/A)20,000 .. 50,00000:00 (00:00)BrucefilmPlug In Digital
1563 Fuego! Nov 16, 2015 $4.99N/A (N/A)0 .. 20,00000:00 (00:00)radiostaticradiostatic
1564 Quarries of Scred Apr 22, 2015 $5.99N/A (N/A)20,000 .. 50,00000:00 (00:00)Hammerspace GamesHammerspace Games
1565 Luminosity Apr 9, 2015 $4.99N/A (N/A)20,000 .. 50,00000:00 (00:00)Windmill GamesWindmill Games
1566 Spaceman Sparkles 2 May 20, 2015 $2.99N/A (N/A)20,000 .. 50,00000:00 (00:00)tjerntjern
1567 Sleep Attack May 28, 2015 $6.99N/A (N/A)0 .. 20,00000:00 (00:00)Bad SeedBad Seed
1568 East Tower - Akio (East Tower Series Vol. 1) Apr 27, 2015 $4.99N/A (N/A)0 .. 20,00000:00 (00:00)ROSEVERTEROSEVERTE
1569 Wars of Napoleon Dec 3, 2015 $39.99N/A (N/A)20,000 .. 50,00000:00 (00:00)AgeodSlitherine Ltd.
1570 Ferrum's Secrets: Where Is Grandpa? Aug 14, 2015 $4.99N/A (N/A)0 .. 20,00000:00 (00:00)EJRGamesEJRGames
1571 Days Under Custody Nov 23, 2015 $4.99N/A (N/A)20,000 .. 50,00000:00 (00:00)Abraham CarreolaGroupees Interactive
1572 Bad Sector HDD Sep 3, 2015 $0.99N/A (N/A)0 .. 20,00000:00 (00:00)Dan RuscoeDan Ruscoe
1573 Color Symphony 2 Oct 16, 2015 $9.99N/A (N/A)0 .. 20,00000:00 (00:00)REMIMORYREMIMORY
1574 Aquadelic GT Mar 25, 2015 $4.99N/A (N/A)0 .. 20,00000:00 (00:00)Hammerware, s.r.o.Hammerware, s.r.o.
1575 The Last Warlock Aug 24, 2015 $4.99N/A (N/A)0 .. 20,00000:00 (00:00)Sonic SlothSonic Sloth
1576 Dreamscape Feb 2, 2015 $9.99N/A (N/A)20,000 .. 50,00000:00 (00:00)Aldorlea GamesKOMODO
1577 Cuban Missile Crisis: Ice Crusade Mar 25, 2015 $4.99N/A (N/A)20,000 .. 50,00000:00 (00:00)G5 SoftwareFulqrum Publishing
1578 99 Waves to Die Apr 9, 2015 $4.99N/A (N/A)20,000 .. 50,00000:00 (00:00)SpookyFish GamesMy Way Games
1579 Hidden: On the trail of the Ancients Aug 5, 2015 $9.99N/A (N/A)20,000 .. 50,00000:00 (00:00)Lost SpellLost Spell
1580 Adelantado Trilogy. Book one Dec 1, 2015 $4.99N/A (N/A)0 .. 20,00000:00 (00:00)QumaronQumaron
1581 Decisive Campaigns: Case Blue May 7, 2015 $39.99N/A (N/A)0 .. 20,00000:00 (00:00)VR DesignsSlitherine Ltd.
1582 Demon Hearts Aug 7, 2015 $3.99N/A (N/A)0 .. 20,00000:00 (00:00)Jon Harwood Games LLCJon Harwood Games LLC
1583 Drive to Hell Jan 30, 2015 $4.99N/A (N/A)20,000 .. 50,00000:00 (00:00)Ghost Crab GamesGhost Crab Games
1584 The Archetype Sep 16, 2015 $29.99N/A (N/A)20,000 .. 50,00000:00 (00:00)Rafael Barreto, MacKenzie KaserSA Industry
1585 Straima Sep 25, 2015 $4.99N/A (N/A)0 .. 20,00000:00 (00:00)caiyscaiysware
1586 Tales of Aravorn: Seasons Of The Wolf Jan 15, 2015 $24.99N/A (N/A)0 .. 20,00000:00 (00:00)Winter WolvesWinter Wolves
1587 MOAI 2: Path to Another World Apr 11, 2015 $7.99N/A (N/A)0 .. 20,00000:00 (00:00)Toyman Interactive, Alawar EntertainmentESDigital Games
1588 Kumoon : Ballistic Physics Puzzle Nov 10, 2015 $2.99N/A (N/A)20,000 .. 50,00000:00 (00:00)Lucky You StudioLucky You Studio
1589 Playing History: Vikings Jul 1, 2015 $4.99N/A (N/A)20,000 .. 50,00000:00 (00:00)Serious Games InteractiveMy Way Games
1590 The Mystery of a Lost Planet Dec 17, 2015 $4.99N/A (N/A)0 .. 20,00000:00 (00:00)AlikArt StudioAlikArt Studio
1591 Heavy Fire: Shattered Spear Oct 23, 2015 $3.99N/A (N/A)200,000 .. 500,00000:00 (00:00)TeyonMastiff
1592 Sky Battles Mar 25, 2015 $4.99N/A (N/A)50,000 .. 100,00000:00 (00:00)Peter LacalamitaVolens Nolens Games
1593 The Uninvited: MacVenture Series Jan 26, 2015 $2.99N/A (N/A)20,000 .. 50,00000:00 (00:00)ZojoiReverb Triple XP
1594 Call of Cthulhu: Shadow of the Comet Nov 4, 2015 $5.99N/A (N/A)0 .. 20,00000:00 (00:00)InfogramesAtari
1595 Black Home Aug 7, 2015 $6.99N/A (N/A)100,000 .. 200,00000:00 (00:00)Warfare StudiosAldorlea Games
1596 Twilight City: Love as a Cure Dec 18, 2015 $6.99N/A (N/A)20,000 .. 50,00000:00 (00:00)Meridian'93Fulqrum Publishing
1597 Pulut Adventure Jul 9, 2015 $1.99N/A (N/A)20,000 .. 50,00000:00 (00:00)yayapipiYayapipi Studio
1598 Aero's Quest Jun 8, 2015 $4.99N/A (N/A)20,000 .. 50,00000:00 (00:00)Soloweb Studios, Ravens Eye StudioSoloweb Studios
1599 Car Mechanic Manager Sep 23, 2015 $4.99N/A (N/A)50,000 .. 100,00000:00 (00:00)InImagesManager Games S.A.
1600 Rhino's Rage Mar 4, 2015 $4.99N/A (N/A)50,000 .. 100,00000:00 (00:00)DefroidsDefroids
1601 Abyss Raiders: Uncharted Apr 30, 2015 $4.99N/A (N/A)20,000 .. 50,00000:00 (00:00)DarkStar GamesConglomerate 5
1602 Payroll Nov 10, 2015 $0.99N/A (N/A)0 .. 20,00000:00 (00:00)GZ Storm, AstrojoneAstrojone
1603 Ookibloks Oct 8, 2015 $1.99N/A (N/A)0 .. 20,00000:00 (00:00)Studio Work3, Lampert & Sons, Skyboy GamesSkyboy Games
1604 Default Dan Jan 15, 2015 $5.99N/A (N/A)0 .. 20,00000:00 (00:00)Kikiwik GamesKikiwik Games
1605 Garden Rescue: Christmas Edition Nov 9, 2015 $3.99N/A (N/A)20,000 .. 50,00000:00 (00:00)Rainbow GamesRainbow Games
1606 AquaSnap Window Manager Dec 18, 2015 $29.99N/A (N/A)50,000 .. 100,00000:00 (00:00)Nurgo SoftwareNurgo Software
1607 Steam and Metal Feb 9, 2015 $4.99N/A (N/A)20,000 .. 50,00000:00 (00:00)MaltakreuzMaltakreuz
1608 Wildlife Park Apr 1, 2015 $6.99N/A (N/A)0 .. 20,00000:00 (00:00)b-alive gmbhb-alive gmbh
1609 Shin Samurai Jazz Mar 16, 2015 $0.99N/A (N/A)0 .. 20,00000:00 (00:00)Blaze EpicBlaze Epic
1610 The Battle of Sol Jul 1, 2015 $9.99N/A (N/A)20,000 .. 50,00000:00 (00:00)Bit Planet Games, LLCBit Planet Games, LLC
1611 Shallow Space Oct 21, 2015 $14.99N/A (N/A)100,000 .. 200,00000:00 (00:00)astragon Sales & Services GmbH
1612 The Dreamatorium of Dr. Magnus 2 Sep 9, 2015 $7.99N/A (N/A)20,000 .. 50,00000:00 (00:00)Two DesperadosTwo Desperados
1613 The Indie Mixtape Apr 23, 2015 $9.99N/A (N/A)0 .. 20,00000:00 (00:00)Daniel Linssen, Detective, Ditto, Glitchnap, Shark Jump StudiosCDP
1614 Shoppy Mart: Steam Edition Sep 25, 2015 $1.99N/A (N/A)0 .. 20,00000:00 (00:00)PezomiPezomi
1615 Discouraged Workers TEEN Nov 24, 2015 N/AN/A (N/A)20,000 .. 50,00000:00 (00:00)YGGDRASIL STUDIOYGGDRASIL STUDIO
1616 Heroes of Loot May 25, 2015 $4.99N/A (N/A)20,000 .. 50,00000:00 (00:00)OrangepixelOrangepixel
1617 The Lost Battalion: All Out Warfare Apr 23, 2015 $9.99N/A (N/A)20,000 .. 50,00000:00 (00:00)Jake OlsonMy Way Games
1618 Weapon of Choice DX Sep 23, 2015 $4.99N/A (N/A)20,000 .. 50,00000:00 (00:00)Mommy's Best GamesMommy's Best Games
1619 Mighty Switch Force! Hose It Down! Jun 4, 2015 $2.99N/A (N/A)0 .. 20,00000:00 (00:00)WayForwardWayForward
1620 Big Thinkers Kindergarten Aug 18, 2015 $6.99N/A (N/A)20,000 .. 50,00000:00 (00:00)Humongous EntertainmentHumongous Entertainment, Nightdive Studios
1621 Explosionade DX Sep 23, 2015 $3.99N/A (N/A)50,000 .. 100,00000:00 (00:00)Mommy's Best GamesMommy's Best Games
1622 Death Tractor Oct 29, 2015 $0.99N/A (N/A)0 .. 20,00000:00 (00:00)Exato Game StudiosExato Game Studios
1623 Armor Clash Oct 22, 2015 $6.99N/A (N/A)0 .. 20,00000:00 (00:00)WindforceWindforce
1624 BlastZone 2 Feb 19, 2015 $9.99N/A (N/A)0 .. 20,00000:00 (00:00)Matt Edzenga
1625 Disney•Pixar Cars: Radiator Springs Adventures Feb 24, 2015 $19.99N/A (N/A)0 .. 20,00000:00 (00:00)AWE GamesDisney
1626 Stones of Sorrow May 26, 2015 $2.99N/A (N/A)50,000 .. 100,00000:00 (00:00)Cult SoftwareCult Software
1627 Dodge Mar 16, 2015 $1.99N/A (N/A)0 .. 20,00000:00 (00:00)YokcosYokcos
1628 Rack N Ruin Sep 1, 2015 $9.99N/A (N/A)0 .. 20,00000:00 (00:00)LifeSpark EntertainmentLifeSpark Entertainment
1629 TankZone Battle Sep 21, 2015 $9.99N/A (N/A)0 .. 20,00000:00 (00:00)Render SystemRender System
1630 Zenohell Oct 14, 2015 $9.99N/A (N/A)20,000 .. 50,00000:00 (00:00)Team Grybanser FoxTeam Grybanser Fox
1631 Discouraged Workers Sep 16, 2015 $1.9998% (59%)0 .. 20,00000:00 (00:00)YGGDRASIL STUDIOYGGDRASIL STUDIO
1632 Scribble Space Jun 1, 2015 $1.99N/A (N/A)50,000 .. 100,00000:00 (00:00)Coty GetzelmanN/A
1633 Pester Aug 21, 2015 $0.99N/A (N/A)100,000 .. 200,00000:00 (00:00)Flump StudiosFunbox Media Ltd
1634 Comic Book Hero: The Greatest Cape Dec 9, 2015 $19.99N/A (N/A)100,000 .. 200,00000:00 (00:00)Grey Dog SoftwareViva Media
1635 Big Thinkers 1st Grade Aug 18, 2015 $6.99N/A (N/A)20,000 .. 50,00000:00 (00:00)Humongous EntertainmentHumongous Entertainment, Nightdive Studios
1636 FreakOut: Extreme Freeride Jan 12, 2015 $9.99N/A (N/A)0 .. 20,00000:00 (00:00)Coldwood InteractiveTHQ Nordic
1637 Yet Another World Nov 30, 2015 $5.99N/A (N/A)50,000 .. 100,00000:00 (00:00)Energy MilkEnergy Milk
1638 samurai_jazz Jan 27, 2015 $0.99N/A (N/A)0 .. 20,00000:00 (00:00)Blaze EpicBlaze Epic
1639 Vampire of the Sands Jul 17, 2015 $4.99N/A (N/A)0 .. 20,00000:00 (00:00)HomphHomph LLC
1640 Fist Slash: Of Ultimate Fury Dec 10, 2015 $0.99N/A (N/A)50,000 .. 100,00000:00 (00:00)Sinclair StrangeRising Star Games
1641 4089: Ghost Within Jan 9, 2015 $5.99N/A (N/A)20,000 .. 50,00000:00 (00:00)Phr00t's SoftwarePhr00t's Software
1642 DEUS EX MACHINA 2 Mar 11, 2015 $6.99N/A (N/A)20,000 .. 50,00000:00 (00:00)Automata Source, QuirkafleegAutomata Source, Potassium Frog
1643 Island Defense Jul 23, 2015 $1.99N/A (N/A)100,000 .. 200,00000:00 (00:00)Stereo7 GamesStereo7 Games
1644 Mytheon Dec 8, 2015 $9.99N/A (N/A)0 .. 20,00000:00 (00:00)PetroglyphPetroglyph
1645 Heroes Never Lose: Professor Puzzler's Perplexing Ploy Nov 23, 2015 $8.99N/A (N/A)0 .. 20,00000:00 (00:00)Magic PantsSpearhead
1646 Circuit Breakers Nov 17, 2015 $3.14N/A (N/A)50,000 .. 100,00000:00 (00:00)TriverskeTriverske, Excalibur Publishing
1647 Innoquous 5 Aug 29, 2015 $0.99N/A (N/A)20,000 .. 50,00000:00 (00:00)Chequered Ink Ltd.Chequered Ink Ltd.
1648 Lost Legends: The Weeping Woman Collector's Edition Oct 21, 2015 $7.99N/A (N/A)0 .. 20,00000:00 (00:00)Gunnar GamesGunnar Games
1649 Plastiland Dec 1, 2015 $7.99N/A (N/A)0 .. 20,00000:00 (00:00)FreshGem, Zillion WhalesZillion Whales
1650 President for a Day - Floodings Aug 12, 2015 $4.99N/A (N/A)20,000 .. 50,00000:00 (00:00)Serious Games InteractiveMy Way Games
1651 One Last Day Apr 28, 2015 $12.99N/A (N/A)0 .. 20,00000:00 (00:00)Bloodwolf StudioBloodwolf Studio
1652 Snik Sep 4, 2015 $2.99N/A (N/A)50,000 .. 100,00000:00 (00:00)CleverweekCleverweek
1653 Pure Hold'em Aug 20, 2015 $17.99N/A (N/A)0 .. 20,00000:00 (00:00)VooFoo StudiosRipstone
1654 Social Justice Warriors Feb 27, 2015 $7.99N/A (N/A)100,000 .. 200,00000:00 (00:00)Nonadecimal CreativeNonadecimal Creative
1655 Mechs & Mercs: Black Talons Jan 9, 2015 $9.99N/A (N/A)0 .. 20,00000:00 (00:00)Camel 101Camel 101
1656 Celia's Quest Jun 24, 2015 $4.99N/A (N/A)20,000 .. 50,00000:00 (00:00)Duckvalley ProductionsVolens Nolens Games
1657 SEEP Universe Jul 15, 2015 $2.99N/A (N/A)0 .. 20,00000:00 (00:00)SEEPSEEP
1658 City of Fools Jul 10, 2015 $7.99N/A (N/A)0 .. 20,00000:00 (00:00)Absolutist Ltd.Absolutist Ltd.
1659 Adventures of Robinson Crusoe Jan 9, 2015 $9.99N/A (N/A)20,000 .. 50,00000:00 (00:00)MagicIndieMumboJumbo
1660 Farm Mania: Hot Vacation Oct 23, 2015 $3.99N/A (N/A)0 .. 20,00000:00 (00:00)QumaronQumaron
1661 Let's Explore the Airport (Junior Field Trips) Apr 24, 2015 $6.99N/A (N/A)0 .. 20,00000:00 (00:00)Humongous EntertainmentHumongous Entertainment, Nightdive Studios
1662 Design it, Drive it : Speedboats Nov 28, 2015 $24.99N/A (N/A)0 .. 20,00000:00 (00:00)Performance SimulationsPerformance Simulations
1663 Diadra Empty Jul 21, 2015 $5.99N/A (N/A)0 .. 20,00000:00 (00:00)Frozen OrbRockin' Android
1664 Song of the Myrne: What Lies Beneath Jan 13, 2015 $4.99N/A (N/A)20,000 .. 50,00000:00 (00:00)Beldarak GamesBeldarak Games
1665 Sword Daughter Feb 13, 2015 $4.99N/A (N/A)20,000 .. 50,00000:00 (00:00)HanabiraHanako Games
1666 SoulCraft Jun 1, 2015 $0.69N/A (N/A)20,000 .. 50,00000:00 (00:00)MobileBitsMobileBits
1667 Forsaken Fortress Strategy Sep 18, 2015 $9.99N/A (N/A)20,000 .. 50,00000:00 (00:00)Photon ArenaKISS ltd
1668 Swapperoo Dec 18, 2015 $4.99N/A (N/A)0 .. 20,00000:00 (00:00)Fallen Tree Games LtdFallen Tree Games Ltd
1669 1,000 Heads Among the Trees Dec 11, 2015 $4.99N/A (N/A)50,000 .. 100,00000:00 (00:00)Aaron OldenburgKISS ltd
1670 Umihara Kawase Shun Nov 24, 2015 $11.99N/A (N/A)20,000 .. 50,00000:00 (00:00)Studio SaizensenKOMODO
1671 Incredible Dracula: Chasing Love Collector's Edition Nov 29, 2015 $9.99N/A (N/A)0 .. 20,00000:00 (00:00)New Bridge GamesAlawar Casual
1672 Keebles Mar 27, 2015 $9.99N/A (N/A)50,000 .. 100,00000:00 (00:00)Burnt FuseGreen Man Gaming Publishing
1673 Luna's Wandering Stars May 15, 2015 $9.99N/A (N/A)20,000 .. 50,00000:00 (00:00)Serenity ForgeSerenity Forge
1674 Pitiri 1977 Jan 3, 2015 $3.99N/A (N/A)0 .. 20,00000:00 (00:00)ILIKESCIFI GamesILIKESCIFI Games
1675 Airport Simulator 2015 Apr 22, 2015 $9.99N/A (N/A)50,000 .. 100,00000:00 (00:00)LinkSolutions Ltd.rondomedia GmbH
1676 Nusakana Nov 19, 2015 $8.99N/A (N/A)0 .. 20,00000:00 (00:00)Studio NamaapaStudio Namaapa
1677 Ninjahtic Jul 6, 2015 $1.99N/A (N/A)20,000 .. 50,00000:00 (00:00)Blaze EpicBlaze Epic
1678 ChargeShot Sep 18, 2015 $9.99N/A (N/A)20,000 .. 50,00000:00 (00:00)Cowboy ColorCowboy Color
1679 Labyrinth Simulator Sep 21, 2015 $0.99N/A (N/A)0 .. 20,00000:00 (00:00)Phoenix Game and Publisher StudioPhoenix Game and Publisher Studio
1680 Top Trumps Turbo Mar 20, 2015 $2.99N/A (N/A)0 .. 20,00000:00 (00:00)Good Day Games, NYX DigitalFunbox Media Ltd
1681 Plush Feb 13, 2015 $0.99N/A (N/A)0 .. 20,00000:00 (00:00)Red Head GamesRed Head Games
1682 Neoncube Oct 2, 2015 $0.99N/A (N/A)0 .. 20,00000:00 (00:00)David Lawrence, Nico ThomasDavid Lawrence
1683 Olympia Rising Jul 23, 2015 $4.99N/A (N/A)20,000 .. 50,00000:00 (00:00)PaleozoicPaleozoic
1684 The Apotheosis Project Jul 10, 2015 $0.99N/A (N/A)50,000 .. 100,00000:00 (00:00)Midian DesignScreen 7
1685 JUDGEMENT SILVERSWORD - Resurrection - Sep 18, 2015 $4.99N/A (N/A)0 .. 20,00000:00 (00:00)QuteKOMODO
1686 RETSNOM Jul 23, 2015 $4.99N/A (N/A)0 .. 20,00000:00 (00:00)SomiZero Rock Entertainment
1687 Mirrored - Chapter 1 Oct 30, 2015 $0.99N/A (N/A)20,000 .. 50,00000:00 (00:00)Kelkafa Studios, Cardboard Sword Limited, Jet Stone StudiosKelkafa Studios
1688 Towers of Altrac - Epic Defense Battles Jan 5, 2015 $2.99N/A (N/A)20,000 .. 50,00000:00 (00:00)Jsmael Stieger, Manuel Stieger, Andreas StiegerCybertron Design Studios
1689 Curses 'N Chaos Aug 18, 2015 $9.99N/A (N/A)50,000 .. 100,00000:00 (00:00)Tribute Games Inc.Tribute Games Inc.
1690 Luna Sky Oct 2, 2015 $12.99N/A (N/A)50,000 .. 100,00000:00 (00:00)Vovoid Media Technologies ABKISS ltd
1691 Roads of Rome Oct 16, 2015 $3.99N/A (N/A)0 .. 20,00000:00 (00:00)QumaronQumaron
1692 Curse of the Crescent Isle DX Aug 21, 2015 $0.99N/A (N/A)20,000 .. 50,00000:00 (00:00)Adam MoweryAdam Mowery
1693 Adventurezator: When Pigs Fly Sep 17, 2015 $19.99N/A (N/A)20,000 .. 50,00000:00 (00:00)Pigasus GamesDegica
1694 Supreme: Pizza Empire Jan 9, 2015 $9.99N/A (N/A)0 .. 20,00000:00 (00:00)Nexeon StudiosNexeon Studios
1695 Way of Gold and Steel Aug 17, 2015 $8.99N/A (N/A)0 .. 20,00000:00 (00:00)Sergey BobrovSergey Bobrov
1696 Lex Mortis Feb 9, 2015 $4.99N/A (N/A)50,000 .. 100,00000:00 (00:00)Denis EsieDenis Esie
1697 Loot Hound Nov 17, 2015 $7.99N/A (N/A)0 .. 20,00000:00 (00:00)Rhizome Games™Rhizome Games™
1698 Mystery of Unicorn Castle: The Beastmaster Dec 2015 $6.99N/A (N/A)20,000 .. 50,00000:00 (00:00)Meridian'93Fulqrum Publishing
1699 An Assassin in Orlandes May 12, 2015 $4.99N/A (N/A)0 .. 20,00000:00 (00:00)Tin Man GamesTin Man Games
1700 Kill The Plumber Dec 31, 2015 $4.99N/A (N/A)20,000 .. 50,00000:00 (00:00)Keybol, Iskander AminovTekitown
1701 Miner Mayhem Sep 23, 2015 $2.99N/A (N/A)50,000 .. 100,00000:00 (00:00)Anarchy EnterprisesAnarchy Enterprises
1702 Shred! Remastered Jul 8, 2015 $4.99N/A (N/A)20,000 .. 50,00000:00 (00:00)ASBO InteractiveASBO Interactive
1703 CINEVEO - VR Cinema Apr 24, 2015 $29.99N/A (N/A)20,000 .. 50,00000:00 (00:00)Mindprobe LabsMindprobe Labs
1704 Sumo Revise Jun 25, 2015 FreeN/A (N/A)50,000 .. 100,00000:00 (00:00)John Szymanski, Evan Szymanski, David SzymanskiJohn Szymanski
1705 The Undying Plague Apr 10, 2015 $8.99N/A (N/A)200,000 .. 500,00000:00 (00:00)Pixel Theory GamesSA Industry
1706 F-19 Stealth Fighter Apr 1, 2015 $6.99N/A (N/A)20,000 .. 50,00000:00 (00:00)MicroProse Software, IncAtari, Nightdive Studios
1707 Idol Magical Girl Chiru Chiru Michiru Part 2 Jul 29, 2015 $19.99N/A (N/A)0 .. 20,00000:00 (00:00)FrontwingFrontwing USA
1708 Hit Tank PRO Dec 2, 2015 $2.99N/A (N/A)50,000 .. 100,00000:00 (00:00)Bacq StellanOtakuMaker.com
1709 Super Trench Attack 2 Nov 6, 2015 $1.24N/A (N/A)20,000 .. 50,00000:00 (00:00)Retro Army Limitedpaulstephendavis
1710 Hollywood Visionary May 1, 2015 $4.99N/A (N/A)0 .. 20,00000:00 (00:00)Choice of GamesChoice of Games
1711 Gigachess Dec 15, 2015 $3.99N/A (N/A)0 .. 20,00000:00 (00:00)Drixxel SoftDrixxel Soft
1712 Ghost Encounters: Deadwood - Collector's Edition Mar 13, 2015 $6.99N/A (N/A)20,000 .. 50,00000:00 (00:00)Anarchy EnterprisesAnarchy Enterprises
1713 Adventure in the Tower of Flight Dec 23, 2015 $4.99N/A (N/A)0 .. 20,00000:00 (00:00)Pixel Barrage Entertainment, Inc.Pixel Barrage Entertainment, Inc.
1714 Gon' E-Choo! Nov 25, 2015 $0.99N/A (N/A)0 .. 20,00000:00 (00:00)Marc EllisMarc Ellis
1715 Pendragon Rising Dec 4, 2015 $4.99N/A (N/A)0 .. 20,00000:00 (00:00)Choice of GamesChoice of Games
1716 Loot Hunter Jan 23, 2015 $6.99N/A (N/A)0 .. 20,00000:00 (00:00)Rake in GrassRake in Grass
1717 BattleLore: Command Mar 31, 2015 $6.99N/A (N/A)0 .. 20,00000:00 (00:00)Fantasy Flight GamesFantasy Flight Publishing, Inc.
1718 Night Shift Feb 23, 2015 $4.99N/A (N/A)0 .. 20,00000:00 (00:00)Brandon BrizziBrandon Brizzi
1719 Osteya Nov 20, 2015 $4.99N/A (N/A)100,000 .. 200,00000:00 (00:00)Volens Nolens GamesVolens Nolens Games
1720 VERLIES II Sep 25, 2015 $2.99N/A (N/A)50,000 .. 100,00000:00 (00:00)Koya GameKoya Game
1721 PhysDrive Nov 10, 2015 $0.99N/A (N/A)200,000 .. 500,00000:00 (00:00)Royal Deal GamesRoyal Deal Games
1722 Idol Hands Feb 18, 2015 $4.99N/A (N/A)50,000 .. 100,00000:00 (00:00)Pocket Games, Fluid Games, GodSpeed GamesGreen Man Gaming Publishing
1723 Vapour Jul 3, 2015 $9.99N/A (N/A)50,000 .. 100,00000:00 (00:00)Skobbejak Games, SkermunkelSkermunkel, Skobbejak Games
1724 Terra Nova: Strike Force Centauri Jul 23, 2015 $5.99N/A (N/A)0 .. 20,00000:00 (00:00)Looking Glass StudiosNightdive Studios
1725 Living Legends: The Frozen Fear Collection Oct 13, 2015 $19.99N/A (N/A)50,000 .. 100,00000:00 (00:00)4Friends GamesViva Media
1726 Reload Feb 13, 2015 $4.99N/A (N/A)50,000 .. 100,00000:00 (00:00)Top3Line s.r.o.Mastiff
1727 Lumber Island - That Special Place Oct 1, 2015 $4.99N/A (N/A)20,000 .. 50,00000:00 (00:00)DeanForgeDeanForge
1728 Nightside Aug 6, 2015 $4.99N/A (N/A)20,000 .. 50,00000:00 (00:00)OMNIDREAM CREATIONSOMNIDREAM CREATIONS
1729